LS727 / G-JZHY 7700 Squawk Report (21st of February, 2020)

Aircraft B738 Reg No. G-JZHY Age 3 years old
Model 737 Jet engines 2 First flight 02-04-17
Registered 19-04-17 Rollout N/A Delivered 19-04-17
Construction No. 63155 Line No. 6358 Series 800
ADSHEX 4070EC Airline name Jet2 Owner N/A
Airfield based Leeds-Bradford~Yorks~G First tracked N/A

Flight history for G-JZHY

Route Flight No Date Playback
Fuerteventura (FUE) - Edinburgh (EDI) LS746 2020-03-21 20:31:00
Edinburgh (EDI) - Fuerteventura (FUE) LS745 2020-03-21 16:06:00
Fuerteventura (FUE) - Edinburgh (EDI) LS746 2020-03-21 09:30:00
Edinburgh (EDI) - Fuerteventura (FUE) LS745 2020-03-20 21:29:00
Alicante (ALC) - Edinburgh (EDI) LS776 2020-03-20 16:57:00
Edinburgh (EDI) - Alicante (ALC) LS775 2020-03-20 11:19:00
Arrecife Airport (ACE) - Edinburgh (EDI) LS706 2020-03-19 19:22:00
Edinburgh (EDI) - Arrecife Airport (ACE) LS705 2020-03-19 15:11:00
Fuerteventura (FUE) - Edinburgh (EDI) LS746 2020-03-18 19:45:00
Edinburgh (EDI) - Fuerteventura (FUE) LS745 2020-03-18 13:52:00
Antalya (AYT) - Edinburgh (EDI) LS710 2020-03-17 19:28:00
Edinburgh (EDI) - Antalya (AYT) LS709 2020-03-17 12:59:00
Tenerife Sur (TFS) - Edinburgh (EDI) LS728 2020-03-17 01:49:00
Edinburgh (EDI) - Tenerife Sur (TFS) LS727 2020-03-16 21:20:00
Alicante (ALC) - Edinburgh (EDI) LS776 2020-03-16 14:07:00
Edinburgh (EDI) - Alicante (ALC) LS775 2020-03-16 11:34:00
???? N/A 2020-03-15 20:33:00
Edinburgh (EDI) - Tenerife Sur (TFS) LS727 2020-03-14 22:07:00
Antalya (AYT) - Edinburgh (EDI) LS710 2020-03-13 19:35:00
Edinburgh (EDI) - Antalya (AYT) LS709 2020-03-13 14:33:00
Time Lat Lon Altitude Heading Speed Vertical Rate
2020-02-21 15:42:39 GMT 28.026495 -16.623930 725 68 150 -768
2020-02-21 15:42:36 GMT 28.025757 -16.626169 775 69 150 -896
2020-02-21 15:42:26 GMT 28.023239 -16.633617 900 68 153 -832
2020-02-21 15:42:16 GMT 28.020491 -16.641434 1,050 68 158 -768
2020-02-21 15:42:05 GMT 28.017654 -16.649515 1,200 68 163 -960
2020-02-21 15:41:55 GMT 28.014765 -16.657804 1,350 68 166 -832
2020-02-21 15:41:45 GMT 28.011795 -16.666206 1,475 68 168 -768
2020-02-21 15:41:34 GMT 28.008852 -16.674768 1,625 67 170 -896
2020-02-21 15:41:24 GMT 28.005919 -16.682955 1,775 68 173 -960
2020-02-21 15:41:14 GMT 28.002777 -16.692087 1,950 69 177 -960
2020-02-21 15:41:03 GMT 27.999636 -16.701103 2,125 68 180 -960
2020-02-21 15:40:53 GMT 27.996515 -16.709827 2,275 68 179 -832
2020-02-21 15:40:43 GMT 27.993349 -16.719036 2,450 68 180 -896
2020-02-21 15:40:32 GMT 27.990137 -16.728085 2,600 67 181 -960
2020-02-21 15:40:22 GMT 27.986925 -16.737131 2,775 68 182 -960
2020-02-21 15:40:12 GMT 27.983480 -16.746557 2,925 67 184 -896
2020-02-21 15:40:01 GMT 27.980209 -16.755894 3,100 68 184 -960
2020-02-21 15:39:52 GMT 27.977142 -16.764557 3,275 70 182 -1024
2020-02-21 15:39:40 GMT 27.974121 -16.774750 3,450 71 176 -960
2020-02-21 15:39:30 GMT 27.971798 -16.783340 3,550 77 176 -448
2020-02-21 15:39:20 GMT 27.970215 -16.792278 3,675 84 177 -768
2020-02-21 15:39:10 GMT 27.970261 -16.801867 3,850 100 182 -704
2020-02-21 15:39:00 GMT 27.971970 -16.811670 3,925 101 186 -448
2020-02-21 15:38:49 GMT 27.973799 -16.821899 4,000 101 191 -384
2020-02-21 15:38:39 GMT 27.975586 -16.832005 4,075 101 197 -512
2020-02-21 15:38:29 GMT 27.977463 -16.842358 4,150 101 197 -384
2020-02-21 15:38:18 GMT 27.979431 -16.852976 4,225 101 197 -384
2020-02-21 15:38:08 GMT 27.981262 -16.863434 4,275 100 200 -448
2020-02-21 15:37:57 GMT 27.983109 -16.874460 4,350 100 206 -320
2020-02-21 15:37:47 GMT 27.984924 -16.885180 4,425 106 213 -704
2020-02-21 15:37:37 GMT 27.988907 -16.896128 4,575 123 218 -1024
2020-02-21 15:37:27 GMT 27.994841 -16.905697 4,750 125 220 -1088
2020-02-21 15:37:16 GMT 28.000900 -16.915354 4,925 125 223 -1088
2020-02-21 15:37:06 GMT 28.007036 -16.925138 5,125 125 226 -1024
2020-02-21 15:36:56 GMT 28.013321 -16.935047 5,300 125 229 -1088
2020-02-21 15:36:46 GMT 28.019669 -16.945038 5,475 125 232 -960
2020-02-21 15:36:35 GMT 28.026306 -16.955442 5,650 125 237 -960
2020-02-21 15:36:25 GMT 28.032873 -16.965799 5,775 125 246 -448
2020-02-21 15:36:14 GMT 28.039808 -16.976948 5,900 124 253 -1024
2020-02-21 15:36:04 GMT 28.046791 -16.988201 6,075 127 256 -768
2020-02-21 15:35:53 GMT 28.055283 -16.998808 6,175 139 254 -512
2020-02-21 15:35:44 GMT 28.064163 -17.007364 6,275 139 255 -1152
2020-02-21 15:35:33 GMT 28.073700 -17.016638 6,575 139 256 -1792
2020-02-21 15:35:23 GMT 28.082657 -17.025429 6,850 138 257 -960
2020-02-21 15:35:12 GMT 28.092224 -17.034830 6,975 138 263 -832
2020-02-21 15:35:02 GMT 28.101654 -17.044285 7,100 138 267 -704
2020-02-21 15:34:52 GMT 28.111315 -17.053905 7,200 138 274 -512
2020-02-21 15:34:41 GMT 28.121338 -17.063774 7,325 139 278 -960
2020-02-21 15:34:31 GMT 28.131683 -17.073757 7,475 141 282 -832
2020-02-21 15:34:21 GMT 28.142691 -17.082232 7,575 155 287 -832
2020-02-21 15:34:10 GMT 28.155724 -17.087725 7,750 163 290 -1280
2020-02-21 15:34:00 GMT 28.168758 -17.092142 7,975 163 291 -1216
2020-02-21 15:33:49 GMT 28.183702 -17.097313 8,200 162 294 -1280
2020-02-21 15:33:40 GMT 28.195852 -17.101458 8,400 165 294 -1280
2020-02-21 15:33:29 GMT 28.209446 -17.103991 8,675 182 289 -1728
2020-02-21 15:33:19 GMT 28.223602 -17.102913 8,975 186 288 -1536
2020-02-21 15:33:09 GMT 28.237198 -17.101330 9,275 186 286 -1984
2020-02-21 15:32:58 GMT 28.250793 -17.099796 9,600 187 284 -1664
2020-02-21 15:32:48 GMT 28.264471 -17.098120 9,850 187 284 -1472
2020-02-21 15:32:38 GMT 28.277412 -17.096395 10,150 187 285 -1856
2020-02-21 15:32:27 GMT 28.291489 -17.094515 10,475 187 286 -1792
2020-02-21 15:32:17 GMT 28.305157 -17.092733 10,800 187 288 -1856
2020-02-21 15:32:07 GMT 28.318750 -17.090958 11,100 187 290 -1792
2020-02-21 15:31:57 GMT 28.332623 -17.089127 11,400 187 293 -1792
2020-02-21 15:31:46 GMT 28.346420 -17.087385 11,700 187 295 -1856
2020-02-21 15:31:36 GMT 28.360741 -17.085571 12,050 187 296 -1984
2020-02-21 15:31:32 GMT 28.367863 -17.084656 12,225 187 296 -1984
2020-02-21 15:31:26 GMT 28.374567 -17.083794 12,375 187 297 -1984
2020-02-21 15:31:19 GMT 28.384296 -17.082609 12,625 187 297 -2112
2020-02-21 15:31:15 GMT 28.389091 -17.082018 12,750 187 297 -2176
2020-02-21 15:31:09 GMT 28.396912 -17.081047 12,950 187 297 -2112
2020-02-21 15:31:05 GMT 28.403366 -17.080254 13,125 187 297 -2048
2020-02-21 15:31:02 GMT 28.407623 -17.079725 13,225 187 297 -2048
2020-02-21 15:30:59 GMT 28.410645 -17.079355 13,300 187 297 -2112
2020-02-21 15:30:55 GMT 28.417236 -17.078564 13,475 186 297 -2176
2020-02-21 15:30:52 GMT 28.421082 -17.078140 13,575 186 297 -2112
2020-02-21 15:30:49 GMT 28.424377 -17.077709 13,650 186 297 -2112
2020-02-21 15:30:44 GMT 28.431221 -17.076900 13,850 186 297 -2176
2020-02-21 15:30:39 GMT 28.438250 -17.076147 14,025 186 297 -2176
2020-02-21 15:30:34 GMT 28.445374 -17.075394 14,225 186 297 -2240
2020-02-21 15:30:29 GMT 28.452942 -17.074656 14,425 186 297 -2368
2020-02-21 15:30:21 GMT 28.463806 -17.073563 14,725 185 297 -2240
2020-02-21 15:30:18 GMT 28.470510 -17.072969 14,900 185 297 -2240
2020-02-21 15:30:13 GMT 28.473816 -17.072647 15,000 185 297 -2304
2020-02-21 15:30:08 GMT 28.487961 -17.071486 15,350 184 296 -2304
2020-02-21 15:30:03 GMT 28.487961 -17.071486 15,400 184 296 -2304
2020-02-21 15:29:58 GMT 28.496750 -17.070852 15,650 184 295 -2432
2020-02-21 15:29:53 GMT 28.502106 -17.070482 15,800 184 295 -2432
2020-02-21 15:29:50 GMT 28.505768 -17.070219 15,925 184 294 -2560
2020-02-21 15:29:47 GMT 28.510685 -17.069901 16,075 184 293 -2624
2020-02-21 15:29:43 GMT 28.516113 -17.069586 16,250 183 293 -2240
2020-02-21 15:29:40 GMT 28.520050 -17.069372 16,350 183 293 -1984
2020-02-21 15:29:37 GMT 28.525536 -17.069038 16,475 183 295 -1792
2020-02-21 15:29:32 GMT 28.530441 -17.068792 16,575 183 296 -1728
2020-02-21 15:29:29 GMT 28.534241 -17.068554 16,650 183 297 -1536
2020-02-21 15:29:25 GMT 28.540199 -17.068230 16,675 184 298 -1280
2020-02-21 15:29:22 GMT 28.544762 -17.067961 16,800 184 303 -896
2020-02-21 15:29:19 GMT 28.548300 -17.067745 16,825 184 305 -960
2020-02-21 15:29:16 GMT 28.554676 -17.067314 16,900 184 309 -960
2020-02-21 15:29:11 GMT 28.559380 -17.066992 16,950 184 312 -960
2020-02-21 15:29:07 GMT 28.566193 -17.066574 17,025 184 316 -896
2020-02-21 15:29:04 GMT 28.570312 -17.066257 17,050 183 321 -832
2020-02-21 15:28:58 GMT 28.578791 -17.065807 17,175 177 333 -960
2020-02-21 15:28:55 GMT 28.585356 -17.065861 17,200 173 337 -1024
2020-02-21 15:28:46 GMT 28.596853 -17.067476 17,325 169 346 -832
2020-02-21 15:28:38 GMT 28.618687 -17.071945 17,475 169 356 -1088
2020-02-21 15:28:34 GMT 28.618687 -17.071945 17,550 169 360 -1152
2020-02-21 15:28:30 GMT 28.622784 -17.072754 17,575 169 362 -1216
2020-02-21 15:28:26 GMT 28.630371 -17.074286 17,675 170 366 -1216
2020-02-21 15:28:23 GMT 28.636230 -17.075396 17,750 170 369 -1280
2020-02-21 15:28:18 GMT 28.643639 -17.076847 17,850 170 374 -1344
2020-02-21 15:28:15 GMT 28.648087 -17.077719 17,900 170 376 -1344
2020-02-21 15:28:12 GMT 28.654816 -17.078987 18,000 170 379 -1408
2020-02-21 15:28:08 GMT 28.661608 -17.080294 18,100 170 384 -1472
2020-02-21 15:28:05 GMT 28.665796 -17.081100 18,150 170 386 -1472
2020-02-21 15:28:02 GMT 28.672165 -17.082260 18,250 170 389 -1408
2020-02-21 15:27:55 GMT 28.683609 -17.084320 18,375 171 395 -1344
2020-02-21 15:27:48 GMT 28.697662 -17.086329 18,600 174 397 -1600
2020-02-21 15:27:45 GMT 28.702852 -17.086596 18,675 182 399 -1792
2020-02-21 15:27:40 GMT 28.711977 -17.086271 18,825 187 400 -1920
2020-02-21 15:27:34 GMT 28.722685 -17.084656 19,000 190 405 -1856
2020-02-21 15:27:31 GMT 28.730118 -17.083212 19,125 190 408 -1856
2020-02-21 15:27:24 GMT 28.741333 -17.081045 19,325 190 413 -1984
2020-02-21 15:27:20 GMT 28.750057 -17.079378 19,475 190 418 -2048
2020-02-21 15:27:14 GMT 28.760193 -17.077402 19,675 190 422 -2240
2020-02-21 15:27:09 GMT 28.769468 -17.075554 19,850 190 425 -2304
2020-02-21 15:27:04 GMT 28.780361 -17.073454 20,000 190 428 -2432
2020-02-21 15:26:59 GMT 28.789999 -17.071514 20,300 190 432 -2752
2020-02-21 15:26:56 GMT 28.800659 -17.069414 20,550 190 435 -3008
2020-02-21 15:26:48 GMT 28.810808 -17.067476 20,800 190 438 -2560
2020-02-21 15:26:43 GMT 28.821030 -17.065466 20,925 190 438 -2752
2020-02-21 15:26:38 GMT 28.832455 -17.063223 21,300 190 440 -2880
2020-02-21 15:26:33 GMT 28.841721 -17.061398 21,500 191 441 -2880
2020-02-21 15:26:28 GMT 28.853029 -17.059130 21,775 191 442 -2816
2020-02-21 15:26:23 GMT 28.862341 -17.057243 22,000 190 444 -2880
2020-02-21 15:26:18 GMT 28.874725 -17.054794 22,275 190 445 -2880
2020-02-21 15:26:12 GMT 28.883057 -17.053104 22,400 191 446 -2816
2020-02-21 15:26:07 GMT 28.895115 -17.050674 22,750 191 448 -2944
2020-02-21 15:26:02 GMT 28.904331 -17.048841 23,000 191 448 -3584
2020-02-21 15:25:57 GMT 28.917252 -17.046240 23,425 191 446 -4288
2020-02-21 15:25:52 GMT 28.925171 -17.044655 23,725 190 443 -4800
2020-02-21 15:25:46 GMT 28.938126 -17.042067 24,225 190 440 -4608
2020-02-21 15:25:41 GMT 28.947189 -17.040323 24,550 190 440 -3968
2020-02-21 15:25:35 GMT 28.963303 -17.037260 24,900 190 443 -1408
2020-02-21 15:25:31 GMT 28.966524 -17.036671 24,950 190 443 -1152
2020-02-21 15:25:24 GMT 28.982620 -17.033722 25,050 190 447 -832
2020-02-21 15:25:21 GMT 28.987106 -17.032875 25,075 190 448 -1024
2020-02-21 15:25:11 GMT 29.008759 -17.028967 25,350 190 454 -2176
2020-02-21 15:25:00 GMT 29.030209 -17.025040 25,800 190 456 -2944
2020-02-21 15:24:53 GMT 29.047386 -17.021915 26,200 190 457 -3008
2020-02-21 15:24:50 GMT 29.051559 -17.021151 26,300 190 457 -3008
2020-02-21 15:24:43 GMT 29.067902 -17.018139 26,700 190 458 -2944
2020-02-21 15:24:40 GMT 29.072943 -17.017229 26,800 190 459 -2816
2020-02-21 15:24:30 GMT 29.094406 -17.013281 27,625 190 460 -2752
2020-02-21 15:24:22 GMT 29.111860 -17.009851 27,775 190 460 -3904
2020-02-21 15:24:15 GMT 29.125534 -17.007206 28,200 190 460 -3840
2020-02-21 15:24:09 GMT 29.138580 -17.004618 28,600 190 461 -3904
2020-02-21 15:23:59 GMT 29.160089 -17.000320 29,250 191 463 -3520
2020-02-21 15:23:49 GMT 29.181244 -16.996061 29,825 191 465 -3520
2020-02-21 15:23:44 GMT 29.191465 -16.994019 30,125 191 467 -3648
2020-02-21 15:23:38 GMT 29.202713 -16.991730 30,450 191 466 -3648
2020-02-21 15:23:33 GMT 29.215067 -16.989172 30,825 191 467 -3776
2020-02-21 15:23:28 GMT 29.224705 -16.987179 31,100 191 467 -3968
2020-02-21 15:23:18 GMT 29.246675 -16.982655 31,775 191 469 -3328
2020-02-21 15:23:08 GMT 29.268082 -16.978313 32,250 190 469 -3456
2020-02-21 15:22:57 GMT 29.290100 -16.973877 32,925 191 467 -3392
2020-02-21 15:22:50 GMT 29.307381 -16.970375 33,350 190 467 -3200
2020-02-21 15:22:47 GMT 29.312687 -16.969353 33,375 190 467 -3136
2020-02-21 15:22:40 GMT 29.328934 -16.966230 33,825 190 468 -2880
2020-02-21 15:22:37 GMT 29.334288 -16.965206 33,950 190 467 -2432
2020-02-21 15:22:34 GMT 29.343924 -16.963322 34,125 190 467 -2048
2020-02-21 15:22:27 GMT 29.356110 -16.960989 34,300 190 466 -1536
2020-02-21 15:22:23 GMT 29.363983 -16.959511 34,375 190 466 -1088
2020-02-21 15:22:17 GMT 29.380375 -16.956373 34,525 190 464 -1024
2020-02-21 15:22:06 GMT 29.400904 -16.952442 34,650 190 461 -1088
2020-02-21 15:21:56 GMT 29.424459 -16.947811 34,875 190 461 -1088
2020-02-21 15:21:45 GMT 29.444733 -16.943769 35,000 190 463 -64
2020-02-21 15:21:40 GMT 29.455719 -16.941605 35,000 190 463 0
2020-02-21 15:21:35 GMT 29.469055 -16.938978 35,025 190 463 0
2020-02-21 15:21:32 GMT 29.472874 -16.938225 35,000 190 463 0
2020-02-21 15:21:24 GMT 29.490875 -16.934685 35,000 190 464 0
2020-02-21 15:21:17 GMT 29.504436 -16.932032 35,000 190 464 64
2020-02-21 15:21:13 GMT 29.518661 -16.929245 35,000 190 464 0
2020-02-21 15:21:06 GMT 29.526270 -16.927776 35,000 190 464 0
2020-02-21 15:21:01 GMT 29.539673 -16.925179 35,000 190 464 0
2020-02-21 15:20:56 GMT 29.548782 -16.923435 35,000 190 464 0
2020-02-21 15:20:50 GMT 29.560671 -16.921152 35,000 190 464 0
2020-02-21 15:20:46 GMT 29.569794 -16.919420 35,000 190 464 0
2020-02-21 15:20:43 GMT 29.578079 -16.917784 35,000 190 464 0
2020-02-21 15:20:35 GMT 29.591862 -16.915121 35,000 190 464 0
2020-02-21 15:20:30 GMT 29.602661 -16.912968 35,000 190 464 0
2020-02-21 15:20:25 GMT 29.613464 -16.910864 35,000 190 464 0
2020-02-21 15:20:21 GMT 29.625595 -16.908487 35,000 190 464 0
2020-02-21 15:20:15 GMT 29.635574 -16.906559 35,000 190 464 0
2020-02-21 15:20:09 GMT 29.648096 -16.904135 35,000 190 464 -64
2020-02-21 15:20:01 GMT 29.668442 -16.900194 35,000 190 464 0
2020-02-21 15:19:54 GMT 29.678867 -16.898104 35,000 190 464 64
2020-02-21 15:19:50 GMT 29.689041 -16.896128 35,000 190 464 0
2020-02-21 15:19:44 GMT 29.701166 -16.893688 35,000 190 464 -64
2020-02-21 15:19:40 GMT 29.712385 -16.891479 35,000 190 464 0
2020-02-21 15:19:34 GMT 29.722393 -16.889486 35,000 190 464 0
2020-02-21 15:19:29 GMT 29.734264 -16.887117 35,000 190 464 0
2020-02-21 15:19:24 GMT 29.743835 -16.885195 35,000 190 464 0
2020-02-21 15:19:19 GMT 29.755726 -16.882809 35,000 190 464 0
2020-02-21 15:19:13 GMT 29.765717 -16.880810 35,000 191 465 0
2020-02-21 15:19:07 GMT 29.789009 -16.876078 35,025 190 463 0
2020-02-21 15:19:02 GMT 29.789009 -16.876078 35,000 191 465 64
2020-02-21 15:18:53 GMT 29.809799 -16.871883 35,000 191 465 0
2020-02-21 15:18:42 GMT 29.831465 -16.867460 35,000 190 464 64
2020-02-21 15:18:35 GMT 29.847153 -16.864338 35,025 190 465 -64
2020-02-21 15:18:32 GMT 29.852879 -16.863207 35,000 190 464 -192
2020-02-21 15:18:22 GMT 29.874985 -16.858891 35,025 190 463 128
2020-02-21 15:18:11 GMT 29.897430 -16.854427 35,000 190 463 -64
2020-02-21 15:18:01 GMT 29.919891 -16.850012 35,025 190 463 -64
2020-02-21 15:17:51 GMT 29.940857 -16.845865 35,000 190 463 64
2020-02-21 15:17:44 GMT 29.955688 -16.842903 35,000 190 464 64
2020-02-21 15:17:40 GMT 29.964373 -16.841162 35,000 190 464 64
2020-02-21 15:17:31 GMT 30.007095 -16.832779 35,025 190 465 0
2020-02-21 15:17:20 GMT 30.007095 -16.832779 35,025 190 465 0
2020-02-21 15:17:10 GMT 30.028564 -16.828524 35,000 190 465 64
2020-02-21 15:16:59 GMT 30.050261 -16.824244 35,000 190 466 0
2020-02-21 15:16:47 GMT 30.075817 -16.819300 35,000 190 466 -64
2020-02-21 15:16:42 GMT 30.087982 -16.816944 35,025 190 465 64
2020-02-21 15:16:37 GMT 30.098419 -16.814898 35,025 190 465 64
2020-02-21 15:16:23 GMT 30.127304 -16.809191 35,025 190 461 -64
2020-02-21 15:16:18 GMT 30.137924 -16.807089 35,000 190 464 -64
2020-02-21 15:16:08 GMT 30.158936 -16.802889 35,000 190 463 64
2020-02-21 15:15:58 GMT 30.181549 -16.798420 35,000 190 462 -64
2020-02-21 15:15:40 GMT 30.218176 -16.791063 35,000 190 459 64
2020-02-21 15:15:35 GMT 30.228058 -16.789103 35,000 190 458 64
2020-02-21 15:15:27 GMT 30.245224 -16.785654 35,000 190 458 64
2020-02-21 15:15:10 GMT 30.282324 -16.778320 35,000 190 459 0
2020-02-21 15:15:03 GMT 30.297684 -16.775314 35,000 190 460 -64
2020-02-21 15:14:56 GMT 30.310068 -16.772882 35,000 190 460 0
2020-02-21 15:14:51 GMT 30.321196 -16.770630 35,000 190 460 0
2020-02-21 15:14:46 GMT 30.331512 -16.768583 35,000 190 460 0
2020-02-21 15:14:42 GMT 30.341400 -16.766645 35,000 190 460 -64
2020-02-21 15:14:31 GMT 30.363510 -16.762230 35,000 190 460 0
2020-02-21 15:14:20 GMT 30.387497 -16.757381 35,000 190 461 0
2020-02-21 15:14:15 GMT 30.396795 -16.755524 35,000 190 461 0
2020-02-21 15:14:11 GMT 30.406906 -16.753450 35,000 190 461 0
2020-02-21 15:14:04 GMT 30.419327 -16.750963 35,000 190 461 0
2020-02-21 15:14:00 GMT 30.449306 -16.744867 35,025 190 462 -64
2020-02-21 15:13:51 GMT 30.449306 -16.744867 35,025 190 462 -64
2020-02-21 15:13:45 GMT 30.460922 -16.742517 35,025 190 462 0
2020-02-21 15:13:39 GMT 30.482666 -16.738102 35,025 190 463 -64
2020-02-21 15:13:34 GMT 30.482666 -16.738102 35,000 190 462 64
2020-02-21 15:13:30 GMT 30.495758 -16.735462 35,000 190 462 -64
2020-02-21 15:13:24 GMT 30.505075 -16.733606 35,000 190 463 -64
2020-02-21 15:13:20 GMT 30.513315 -16.731958 35,000 190 463 0
2020-02-21 15:13:14 GMT 30.526630 -16.729265 35,000 190 463 0
2020-02-21 15:13:10 GMT 30.534683 -16.727673 35,025 190 463 64
2020-02-21 15:13:00 GMT 30.556870 -16.723238 35,000 190 463 0
2020-02-21 15:12:53 GMT 30.570419 -16.720545 35,025 190 463 0
2020-02-21 15:12:47 GMT 30.586487 -16.717367 35,025 190 462 0
2020-02-21 15:12:43 GMT 30.591751 -16.716291 35,025 190 461 -64
2020-02-21 15:12:36 GMT 30.607773 -16.713058 35,000 190 461 64
2020-02-21 15:12:33 GMT 30.613083 -16.711983 35,025 190 461 64
2020-02-21 15:12:27 GMT 30.624847 -16.709614 35,000 190 461 64
2020-02-21 15:12:20 GMT 30.638960 -16.706799 35,000 190 461 0
2020-02-21 15:12:15 GMT 30.651215 -16.704334 35,000 190 461 -64
2020-02-21 15:12:10 GMT 30.664099 -16.701801 35,000 190 461 0
2020-02-21 15:12:06 GMT 30.671036 -16.700373 35,000 190 462 0
2020-02-21 15:12:01 GMT 30.680763 -16.698450 35,000 190 462 0
2020-02-21 15:11:56 GMT 30.692356 -16.696142 35,000 190 462 0
2020-02-21 15:11:51 GMT 30.700424 -16.694532 35,000 190 463 0
2020-02-21 15:11:45 GMT 30.713928 -16.691841 35,000 190 463 0
2020-02-21 15:11:41 GMT 30.721344 -16.690332 35,000 190 463 64
2020-02-21 15:11:35 GMT 30.735975 -16.687464 35,000 190 464 0
2020-02-21 15:11:26 GMT 30.754829 -16.683727 35,000 190 464 0
2020-02-21 15:11:20 GMT 30.766068 -16.681501 35,000 190 464 0
2020-02-21 15:11:14 GMT 30.781815 -16.678377 35,000 190 465 0
2020-02-21 15:11:10 GMT 30.787125 -16.677299 35,000 190 465 0
2020-02-21 15:11:05 GMT 30.800491 -16.674662 35,000 190 465 0
2020-02-21 15:11:00 GMT 30.808594 -16.673044 35,000 190 465 0
2020-02-21 15:10:54 GMT 30.821777 -16.670406 35,000 190 465 0
2020-02-21 15:10:50 GMT 30.831127 -16.668512 35,000 190 465 0
2020-02-21 15:10:44 GMT 30.845558 -16.665602 35,000 190 466 0
2020-02-21 15:10:38 GMT 30.855568 -16.663568 35,000 190 466 -64
2020-02-21 15:10:35 GMT 30.864304 -16.661791 35,000 190 466 -64
2020-02-21 15:10:29 GMT 30.874741 -16.659691 35,000 190 466 0
2020-02-21 15:10:25 GMT 30.896486 -16.655329 35,000 190 466 0
2020-02-21 15:10:19 GMT 30.896486 -16.655329 35,000 190 466 0
2020-02-21 15:10:15 GMT 30.905411 -16.653496 35,000 190 466 0
2020-02-21 15:10:09 GMT 30.918182 -16.650911 35,000 190 466 0
2020-02-21 15:10:05 GMT 30.927567 -16.649027 35,000 190 467 0
2020-02-21 15:09:58 GMT 30.941620 -16.646172 35,025 191 467 -64
2020-02-21 15:09:54 GMT 30.952927 -16.643856 35,025 191 467 0
2020-02-21 15:09:44 GMT 30.971466 -16.639978 35,000 191 467 0
2020-02-21 15:09:34 GMT 30.992981 -16.635509 35,000 191 467 0
2020-02-21 15:09:27 GMT 31.008352 -16.632313 35,000 191 467 0
2020-02-21 15:09:22 GMT 31.018158 -16.630285 35,000 191 468 0
2020-02-21 15:09:17 GMT 31.028824 -16.628077 35,000 191 468 0
2020-02-21 15:09:11 GMT 31.042465 -16.625223 35,000 191 468 0
2020-02-21 15:09:07 GMT 31.049273 -16.623854 35,000 191 468 0
2020-02-21 15:09:02 GMT 31.063843 -16.620831 35,000 190 468 0
2020-02-21 15:08:57 GMT 31.071487 -16.619299 35,000 190 468 0
2020-02-21 15:08:50 GMT 31.087738 -16.615959 35,000 190 468 0
2020-02-21 15:08:46 GMT 31.095451 -16.614405 35,000 190 468 0
2020-02-21 15:08:41 GMT 31.105270 -16.612406 35,000 190 468 64
2020-02-21 15:08:35 GMT 31.119186 -16.609659 35,000 190 468 64
2020-02-21 15:08:31 GMT 31.127106 -16.608044 35,000 190 468 0
2020-02-21 15:08:23 GMT 31.147682 -16.603912 35,000 190 468 0
2020-02-21 15:08:20 GMT 31.150040 -16.603464 35,000 190 468 0
2020-02-21 15:08:15 GMT 31.161346 -16.601151 35,000 190 468 0
2020-02-21 15:08:12 GMT 31.168446 -16.599737 35,000 190 469 0
2020-02-21 15:08:05 GMT 31.181671 -16.597057 35,000 190 469 0
2020-02-21 15:08:00 GMT 31.194748 -16.594355 35,000 190 469 -64
2020-02-21 15:07:51 GMT 31.214859 -16.590324 35,025 190 468 0
2020-02-21 15:07:41 GMT 31.236053 -16.586016 35,000 190 468 0
2020-02-21 15:07:30 GMT 31.257874 -16.581610 35,000 190 468 64
2020-02-21 15:07:21 GMT 31.277330 -16.577709 35,000 190 468 0
2020-02-21 15:07:18 GMT 31.283989 -16.576338 35,000 190 468 0
2020-02-21 15:07:10 GMT 31.300653 -16.572987 35,000 190 468 0
2020-02-21 15:07:04 GMT 31.313921 -16.570293 35,000 190 468 0
2020-02-21 15:06:58 GMT 31.329529 -16.567114 35,000 190 468 0
2020-02-21 15:06:54 GMT 31.335102 -16.566010 35,000 190 468 0
2020-02-21 15:06:49 GMT 31.345158 -16.563976 35,000 190 468 0
2020-02-21 15:06:43 GMT 31.361389 -16.560705 35,025 190 468 0
2020-02-21 15:06:38 GMT 31.368439 -16.559305 35,025 190 468 0
2020-02-21 15:06:33 GMT 31.379791 -16.557043 35,000 190 468 64
2020-02-21 15:06:30 GMT 31.386429 -16.555750 35,000 190 467 0
2020-02-21 15:06:23 GMT 31.401398 -16.552628 35,000 192 467 0
2020-02-21 15:06:19 GMT 31.412796 -16.549719 35,000 194 466 0
2020-02-21 15:06:13 GMT 31.422684 -16.546919 35,000 196 465 0
2020-02-21 15:06:07 GMT 31.434723 -16.542933 35,000 198 464 0
2020-02-21 15:05:58 GMT 31.455322 -16.534855 35,000 202 463 0
2020-02-21 15:05:48 GMT 31.473736 -16.526514 35,000 202 463 0
2020-02-21 15:05:38 GMT 31.494125 -16.517176 35,000 202 463 0
2020-02-21 15:05:28 GMT 31.515959 -16.507233 35,000 202 463 0
2020-02-21 15:05:19 GMT 31.532763 -16.499542 35,000 202 464 0
2020-02-21 15:05:16 GMT 31.537582 -16.497372 35,000 202 464 0
2020-02-21 15:05:06 GMT 31.557203 -16.488445 35,000 202 464 0
2020-02-21 15:04:56 GMT 31.577271 -16.479277 35,000 202 464 0
2020-02-21 15:04:46 GMT 31.599747 -16.469044 35,000 202 464 0
2020-02-21 15:04:36 GMT 31.620979 -16.459332 35,000 202 464 0
2020-02-21 15:04:25 GMT 31.639462 -16.450983 35,000 202 465 0
2020-02-21 15:04:17 GMT 31.656128 -16.443401 35,000 202 465 0
2020-02-21 15:04:04 GMT 31.682236 -16.431454 35,000 202 465 0
2020-02-21 15:03:57 GMT 31.697327 -16.424561 35,000 202 466 0
2020-02-21 15:03:54 GMT 31.704117 -16.421436 35,000 202 466 0
2020-02-21 15:03:48 GMT 31.714363 -16.416759 35,000 202 465 0
2020-02-21 15:03:44 GMT 31.723394 -16.412640 35,000 202 465 0
2020-02-21 15:03:34 GMT 31.743484 -16.403397 35,000 202 465 0
2020-02-21 15:03:26 GMT 31.758495 -16.396490 35,000 202 465 0
2020-02-21 15:03:23 GMT 31.763523 -16.394182 35,000 202 465 0
2020-02-21 15:03:18 GMT 31.775579 -16.388632 35,000 202 465 0
2020-02-21 15:03:13 GMT 31.783773 -16.384819 35,000 202 465 0
2020-02-21 15:03:07 GMT 31.796204 -16.379103 35,000 202 465 0
2020-02-21 15:03:04 GMT 31.805054 -16.375011 35,000 202 465 0
2020-02-21 15:02:57 GMT 31.824097 -16.366278 35,000 202 465 0
2020-02-21 15:02:53 GMT 31.824097 -16.366278 35,000 202 465 -64
2020-02-21 15:02:46 GMT 31.837170 -16.360268 35,000 202 465 0
2020-02-21 15:02:42 GMT 31.845200 -16.356609 35,000 202 465 0
2020-02-21 15:02:35 GMT 31.861404 -16.349138 35,000 202 465 0
2020-02-21 15:02:32 GMT 31.867218 -16.346449 35,000 202 465 0
2020-02-21 15:02:23 GMT 31.886490 -16.337605 35,000 202 465 0
2020-02-21 15:02:16 GMT 31.907557 -16.327927 35,000 202 465 0
2020-02-21 15:02:12 GMT 31.907557 -16.327927 35,000 202 465 0
2020-02-21 15:02:06 GMT 31.918808 -16.322771 35,000 202 465 0
2020-02-21 15:02:02 GMT 31.927387 -16.318846 35,000 202 464 0
2020-02-21 15:01:54 GMT 31.943665 -16.311401 35,000 202 464 0
2020-02-21 15:01:51 GMT 31.948847 -16.308981 35,000 202 465 0
2020-02-21 15:01:41 GMT 31.968679 -16.299898 35,000 202 464 0
2020-02-21 15:01:34 GMT 31.989899 -16.290142 35,000 202 463 -64
2020-02-21 15:01:31 GMT 31.989899 -16.290142 35,000 202 463 -64
2020-02-21 15:01:24 GMT 32.001732 -16.284710 35,025 202 463 0
2020-02-21 15:01:21 GMT 32.008530 -16.281572 35,025 202 463 0
2020-02-21 15:01:13 GMT 32.030319 -16.271521 35,000 202 463 0
2020-02-21 15:01:04 GMT 32.050095 -16.262457 35,000 202 462 0
2020-02-21 15:00:51 GMT 32.070877 -16.252899 35,000 202 462 0
2020-02-21 15:00:43 GMT 32.085060 -16.246368 35,000 202 462 0
2020-02-21 15:00:40 GMT 32.091251 -16.243509 35,000 202 462 0
2020-02-21 15:00:34 GMT 32.104424 -16.237457 35,025 202 462 0
2020-02-21 15:00:30 GMT 32.110195 -16.234821 35,025 202 462 0
2020-02-21 15:00:23 GMT 32.124344 -16.228291 35,000 202 462 64
2020-02-21 15:00:19 GMT 32.131145 -16.225182 35,025 202 462 0
2020-02-21 15:00:12 GMT 32.151627 -16.215710 35,000 202 462 0
2020-02-21 15:00:02 GMT 32.165363 -16.209373 35,000 202 462 0
2020-02-21 14:59:53 GMT 32.186462 -16.199560 35,000 202 461 0
2020-02-21 14:59:49 GMT 32.192829 -16.196650 35,000 202 461 0
2020-02-21 14:59:41 GMT 32.208527 -16.189342 35,000 202 461 0
2020-02-21 14:59:38 GMT 32.214104 -16.186729 35,000 202 461 0
2020-02-21 14:59:31 GMT 32.234344 -16.177313 35,000 202 461 0
2020-02-21 14:59:19 GMT 32.253616 -16.168360 35,000 202 461 64
2020-02-21 14:59:12 GMT 32.267311 -16.162010 35,000 202 461 0
2020-02-21 14:59:08 GMT 32.274666 -16.158590 35,000 202 461 0
2020-02-21 14:59:00 GMT 32.290329 -16.151276 35,000 202 460 0
2020-02-21 14:58:57 GMT 32.295101 -16.149006 35,000 202 460 0
2020-02-21 14:58:49 GMT 32.310562 -16.141771 35,000 202 460 0
2020-02-21 14:58:38 GMT 32.334721 -16.130451 35,000 202 460 0
2020-02-21 14:58:30 GMT 32.348419 -16.124084 35,025 202 460 0
2020-02-21 14:58:27 GMT 32.354736 -16.121092 35,000 202 460 0
2020-02-21 14:58:19 GMT 32.370796 -16.113581 35,000 202 460 0
2020-02-21 14:58:16 GMT 32.375565 -16.111340 35,000 202 460 0
2020-02-21 14:58:09 GMT 32.391232 -16.104052 35,000 202 460 0
2020-02-21 14:57:59 GMT 32.411205 -16.094633 35,000 202 460 0
2020-02-21 14:57:56 GMT 32.416557 -16.092169 35,000 202 460 0
2020-02-21 14:57:49 GMT 32.435577 -16.083216 35,000 202 460 0
2020-02-21 14:57:39 GMT 32.449612 -16.076641 35,025 202 460 0
2020-02-21 14:57:36 GMT 32.455582 -16.073877 35,000 202 459 0
2020-02-21 14:57:29 GMT 32.470230 -16.067057 35,000 202 460 0
2020-02-21 14:57:26 GMT 32.477005 -16.063990 35,000 202 459 64
2020-02-21 14:57:19 GMT 32.491089 -16.057528 35,000 202 459 0
2020-02-21 14:57:15 GMT 32.497009 -16.054762 35,000 202 459 0
2020-02-21 14:57:06 GMT 32.517250 -16.045420 35,000 202 459 0
2020-02-21 14:56:58 GMT 32.531075 -16.038975 35,000 202 459 0
2020-02-21 14:56:55 GMT 32.536652 -16.036360 35,000 202 459 -64
2020-02-21 14:56:47 GMT 32.552258 -16.029108 35,000 202 459 0
2020-02-21 14:56:44 GMT 32.571854 -16.019989 35,000 202 458 0
2020-02-21 14:56:38 GMT 32.571854 -16.019989 35,000 202 458 0
2020-02-21 14:56:35 GMT 32.578140 -16.017057 35,025 202 458 0
2020-02-21 14:56:27 GMT 32.593967 -16.009659 35,025 202 458 0
2020-02-21 14:56:17 GMT 32.612732 -16.000929 35,000 202 458 0
2020-02-21 14:56:14 GMT 32.617859 -15.998511 35,000 202 458 0
2020-02-21 14:56:04 GMT 32.638367 -15.988898 35,000 202 458 0
2020-02-21 14:55:57 GMT 32.659283 -15.979054 35,000 202 458 0
2020-02-21 14:55:46 GMT 32.675079 -15.971649 35,000 202 459 0
2020-02-21 14:55:43 GMT 32.679016 -15.969781 35,000 202 459 0
2020-02-21 14:55:34 GMT 32.698196 -15.960828 35,000 202 459 0
2020-02-21 14:55:28 GMT 32.711418 -15.954615 35,000 202 459 0
2020-02-21 14:55:23 GMT 32.719162 -15.950995 35,000 202 459 0
2020-02-21 14:55:15 GMT 32.735367 -15.943414 35,000 202 459 0
2020-02-21 14:55:12 GMT 32.739491 -15.941498 35,000 202 459 0
2020-02-21 14:55:03 GMT 32.759079 -15.932318 35,000 202 459 0
2020-02-21 14:54:53 GMT 32.780830 -15.922104 35,000 202 459 0
2020-02-21 14:54:44 GMT 32.796432 -15.914795 35,000 202 459 0
2020-02-21 14:54:41 GMT 32.801376 -15.912488 35,000 202 459 0
2020-02-21 14:54:32 GMT 32.821564 -15.902990 35,000 202 459 0
2020-02-21 14:54:22 GMT 32.840927 -15.893866 35,000 202 459 0
We lost coverage of the aircraft here for a total of 35 minutes
2020-02-21 14:19:41 GMT 37.027699 -13.814054 35,000 204 465 0
2020-02-21 14:19:38 GMT 37.033840 -13.810829 35,000 204 465 64
2020-02-21 14:17:19 GMT 37.310394 -13.665122 35,000 203 464 -64
2020-02-21 14:17:08 GMT 37.329620 -13.654954 35,000 203 464 0
2020-02-21 14:16:58 GMT 37.349991 -13.644143 35,000 204 465 0
2020-02-21 14:15:57 GMT 37.471012 -13.580117 35,000 203 468 0
2020-02-21 14:15:16 GMT 37.552479 -13.537067 35,000 204 469 0
2020-02-21 14:15:06 GMT 37.573242 -13.525981 35,000 204 469 0
2020-02-21 14:14:38 GMT 37.629616 -13.495689 35,000 204 470 0
2020-02-21 14:14:35 GMT 37.636002 -13.492204 35,000 204 469 0
2020-02-21 14:14:26 GMT 37.654148 -13.482314 35,000 204 470 0
2020-02-21 14:14:06 GMT 37.695629 -13.459566 35,025 204 470 0
2020-02-21 14:13:55 GMT 37.714577 -13.449176 35,000 204 470 0
2020-02-21 14:13:45 GMT 37.734734 -13.438250 35,000 204 470 0
2020-02-21 14:13:34 GMT 37.756760 -13.426403 35,000 204 470 0
2020-02-21 14:13:23 GMT 37.778595 -13.414716 35,000 204 469 0
2020-02-21 14:13:14 GMT 37.796970 -13.404873 35,000 204 466 0
2020-02-21 14:13:05 GMT 37.815548 -13.394961 35,000 203 468 -64
2020-02-21 14:12:54 GMT 37.836124 -13.384094 35,000 203 467 0
2020-02-21 14:12:43 GMT 37.857815 -13.372451 35,000 204 466 0
2020-02-21 14:12:34 GMT 37.876438 -13.362420 35,000 203 466 64
2020-02-21 14:12:23 GMT 37.898689 -13.350538 35,000 203 466 0
2020-02-21 14:12:11 GMT 37.921692 -13.338162 35,000 204 465 0
2020-02-21 14:12:01 GMT 37.941284 -13.327468 35,000 204 466 0
2020-02-21 14:11:51 GMT 37.961655 -13.316306 35,000 204 466 0
2020-02-21 14:11:43 GMT 37.978294 -13.307250 35,000 204 466 64
2020-02-21 14:11:32 GMT 37.999893 -13.295547 35,000 204 466 0
2020-02-21 14:11:17 GMT 38.028259 -13.280192 35,000 204 466 0
2020-02-21 14:11:12 GMT 38.039555 -13.274112 35,000 203 466 0
2020-02-21 14:11:03 GMT 38.059021 -13.263654 35,000 203 466 0
2020-02-21 14:10:51 GMT 38.079895 -13.252492 35,000 203 466 64
2020-02-21 14:10:42 GMT 38.099377 -13.242048 35,000 204 466 64
2020-02-21 14:10:32 GMT 38.118851 -13.231571 35,000 204 466 0
2020-02-21 14:10:19 GMT 38.144302 -13.217721 35,000 204 468 0
2020-02-21 14:10:12 GMT 38.160187 -13.209073 35,000 204 468 0
2020-02-21 14:10:00 GMT 38.181679 -13.197327 35,000 204 469 -64
2020-02-21 14:09:52 GMT 38.198410 -13.188210 35,000 204 469 0
2020-02-21 14:09:49 GMT 38.203812 -13.185288 35,000 204 469 0
2020-02-21 14:09:40 GMT 38.221161 -13.175822 35,000 204 469 0
2020-02-21 14:09:30 GMT 38.241943 -13.164543 35,000 204 471 0
2020-02-21 14:09:21 GMT 38.262772 -13.153148 35,000 204 471 0
2020-02-21 14:09:10 GMT 38.282001 -13.142574 35,025 204 472 0
2020-02-21 14:09:00 GMT 38.302002 -13.131584 35,000 204 472 0
2020-02-21 14:08:50 GMT 38.322693 -13.120364 35,000 204 472 0
2020-02-21 14:08:39 GMT 38.343750 -13.108852 35,000 204 472 0
2020-02-21 14:08:33 GMT 38.358810 -13.100599 35,000 204 472 0
2020-02-21 14:08:30 GMT 38.364853 -13.097281 35,000 204 472 0
2020-02-21 14:08:21 GMT 38.380096 -13.088983 35,000 204 473 0
2020-02-21 14:08:13 GMT 38.396984 -13.079701 35,000 204 473 0
2020-02-21 14:08:09 GMT 38.404221 -13.075776 35,000 204 473 0
2020-02-21 14:08:00 GMT 38.422356 -13.065857 35,025 204 473 -64
2020-02-21 14:07:50 GMT 38.442699 -13.054810 35,000 204 474 0
2020-02-21 14:07:40 GMT 38.463463 -13.043518 35,000 204 474 0
2020-02-21 14:07:30 GMT 38.482780 -13.032959 35,000 204 473 64
2020-02-21 14:07:18 GMT 38.506939 -13.019714 35,000 204 474 0
2020-02-21 14:07:11 GMT 38.524864 -13.009888 35,000 204 474 0
2020-02-21 14:06:59 GMT 38.545204 -12.998779 35,000 204 473 0
2020-02-21 14:06:49 GMT 38.565132 -12.987732 35,000 204 475 0
2020-02-21 14:06:40 GMT 38.585102 -12.976746 35,000 204 475 0
2020-02-21 14:06:29 GMT 38.606701 -12.964844 35,000 204 476 0
2020-02-21 14:06:19 GMT 38.626511 -12.953896 35,025 204 476 -64
2020-02-21 14:06:09 GMT 38.646736 -12.942749 35,025 204 478 0
2020-02-21 14:05:59 GMT 38.666702 -12.931684 35,000 204 482 0
2020-02-21 14:05:50 GMT 38.709412 -12.908100 35,000 204 484 0
2020-02-21 14:05:38 GMT 38.709412 -12.908100 35,000 204 484 0
2020-02-21 14:05:26 GMT 38.737564 -12.892516 35,000 204 484 0
2020-02-21 14:05:18 GMT 38.771313 -12.873901 35,000 204 485 0
2020-02-21 14:05:08 GMT 38.771313 -12.873901 35,000 204 484 0
2020-02-21 14:04:56 GMT 38.795609 -12.860512 35,000 204 485 0
2020-02-21 14:04:48 GMT 38.814556 -12.850037 35,000 204 485 0
2020-02-21 14:04:36 GMT 38.836948 -12.837585 35,000 204 485 0
2020-02-21 14:04:27 GMT 38.856083 -12.826904 35,000 204 484 0
2020-02-21 14:04:16 GMT 38.879700 -12.813761 35,025 204 484 0
2020-02-21 14:04:05 GMT 38.901424 -12.801575 35,000 204 484 0
2020-02-21 14:03:56 GMT 38.921539 -12.790295 35,025 204 483 -64
2020-02-21 14:03:47 GMT 38.938980 -12.780563 35,000 204 484 64
2020-02-21 14:03:38 GMT 38.966446 -12.765277 35,000 204 483 -64
2020-02-21 14:03:33 GMT 38.966446 -12.765277 35,000 204 483 0
2020-02-21 14:03:26 GMT 38.981819 -12.756714 35,000 204 483 64
2020-02-21 14:03:17 GMT 38.998810 -12.747245 35,025 204 482 0
2020-02-21 14:03:13 GMT 39.006817 -12.742798 35,000 204 482 0
2020-02-21 14:03:05 GMT 39.024601 -12.732910 35,000 204 482 0
2020-02-21 14:02:55 GMT 39.044899 -12.721680 35,000 204 481 0
2020-02-21 14:02:44 GMT 39.066925 -12.709390 35,000 204 480 64
2020-02-21 14:02:39 GMT 39.077763 -12.703369 35,000 204 480 0
2020-02-21 14:02:34 GMT 39.086334 -12.698643 35,000 204 480 -64
2020-02-21 14:02:25 GMT 39.108536 -12.686218 35,025 204 479 0
2020-02-21 14:02:20 GMT 39.115658 -12.682251 35,000 204 479 64
2020-02-21 14:02:16 GMT 39.123779 -12.677685 35,000 204 479 64
2020-02-21 14:02:12 GMT 39.149460 -12.663415 35,000 204 479 64
2020-02-21 14:02:04 GMT 39.149460 -12.663415 35,000 204 480 0
2020-02-21 14:01:57 GMT 39.164062 -12.655235 35,000 204 479 0
2020-02-21 14:01:53 GMT 39.169800 -12.652039 35,000 204 479 0
2020-02-21 14:01:50 GMT 39.176697 -12.648189 35,000 204 478 0
2020-02-21 14:01:47 GMT 39.184834 -12.643677 35,000 204 478 -64
2020-02-21 14:01:43 GMT 39.192947 -12.639114 35,000 204 479 0
2020-02-21 14:01:36 GMT 39.205536 -12.632068 35,000 204 478 0
2020-02-21 14:01:32 GMT 39.212486 -12.628174 35,000 204 479 64
2020-02-21 14:01:29 GMT 39.220585 -12.623657 35,000 204 479 0
2020-02-21 14:01:22 GMT 39.234650 -12.615827 35,000 204 479 0
2020-02-21 14:01:16 GMT 39.247028 -12.608887 35,000 204 479 0
2020-02-21 14:01:11 GMT 39.267555 -12.597412 35,000 204 479 0
2020-02-21 14:01:06 GMT 39.267555 -12.597412 35,000 204 479 0
2020-02-21 14:01:00 GMT 39.278732 -12.591108 35,000 204 479 0
2020-02-21 14:00:55 GMT 39.288086 -12.585876 35,000 204 479 0
2020-02-21 14:00:50 GMT 39.299446 -12.579407 35,000 204 479 0
2020-02-21 14:00:45 GMT 39.309593 -12.573730 35,000 204 479 0
2020-02-21 14:00:42 GMT 39.316498 -12.569792 35,000 204 479 0
2020-02-21 14:00:36 GMT 39.328262 -12.563165 35,000 204 479 0
2020-02-21 14:00:31 GMT 39.337620 -12.557861 35,000 204 479 0
2020-02-21 14:00:25 GMT 39.351196 -12.550148 35,000 204 479 0
2020-02-21 14:00:19 GMT 39.360943 -12.544678 35,000 204 479 0
2020-02-21 14:00:14 GMT 39.371510 -12.538635 35,000 204 479 0
2020-02-21 14:00:11 GMT 39.378586 -12.534607 35,000 204 478 0
2020-02-21 14:00:05 GMT 39.390976 -12.527579 35,000 204 479 0
2020-02-21 14:00:01 GMT 39.398849 -12.523100 35,000 204 479 0
2020-02-21 13:59:54 GMT 39.412846 -12.515137 35,000 204 478 0
2020-02-21 13:59:48 GMT 39.425217 -12.508054 35,000 204 478 0
2020-02-21 13:59:45 GMT 39.431702 -12.504395 35,000 204 478 0
2020-02-21 13:59:41 GMT 39.440598 -12.499337 35,000 204 478 0
2020-02-21 13:59:37 GMT 39.446690 -12.495850 35,000 204 478 0
2020-02-21 13:59:34 GMT 39.452137 -12.492798 35,000 204 478 0
2020-02-21 13:59:30 GMT 39.460655 -12.487976 35,000 204 478 0
2020-02-21 13:59:27 GMT 39.468151 -12.483704 35,000 204 478 0
2020-02-21 13:59:24 GMT 39.473225 -12.480835 35,000 204 477 0
2020-02-21 13:59:19 GMT 39.484360 -12.474617 35,000 204 477 0
2020-02-21 13:59:15 GMT 39.493515 -12.469482 35,000 204 477 0
2020-02-21 13:59:10 GMT 39.507858 -12.461365 35,000 204 477 0
2020-02-21 13:59:04 GMT 39.514755 -12.457481 35,000 204 477 0
2020-02-21 13:59:00 GMT 39.522263 -12.453242 35,000 204 477 0
2020-02-21 13:58:57 GMT 39.528343 -12.449829 35,000 204 477 0
2020-02-21 13:58:53 GMT 39.536674 -12.445190 35,000 204 477 0
2020-02-21 13:58:48 GMT 39.546616 -12.439569 35,000 204 477 0
2020-02-21 13:58:44 GMT 39.555313 -12.434672 35,000 204 477 0
2020-02-21 13:58:40 GMT 39.563599 -12.430015 35,000 204 477 0
2020-02-21 13:58:37 GMT 39.567856 -12.427627 35,000 204 477 0
2020-02-21 13:58:34 GMT 39.575546 -12.423279 35,000 204 477 0
2020-02-21 13:58:28 GMT 39.587276 -12.416626 35,000 204 477 0
2020-02-21 13:58:24 GMT 39.595779 -12.411804 35,000 204 477 0
2020-02-21 13:58:19 GMT 39.611580 -12.402832 35,000 204 477 0
2020-02-21 13:58:13 GMT 39.617020 -12.399743 35,000 204 477 0
2020-02-21 13:58:09 GMT 39.625946 -12.394728 35,000 204 477 0
2020-02-21 13:58:03 GMT 39.637070 -12.388399 35,000 204 477 0
2020-02-21 13:57:58 GMT 39.656876 -12.377136 35,000 204 477 0
2020-02-21 13:57:53 GMT 39.668186 -12.370728 35,000 204 477 0
2020-02-21 13:57:49 GMT 39.668186 -12.370728 35,000 204 477 0
2020-02-21 13:57:43 GMT 39.677868 -12.365173 35,000 204 477 0
2020-02-21 13:57:36 GMT 39.692230 -12.356992 35,000 204 477 0
2020-02-21 13:57:33 GMT 39.698914 -12.353171 35,000 204 477 0
2020-02-21 13:57:28 GMT 39.708176 -12.347900 35,000 204 477 0
2020-02-21 13:57:25 GMT 39.714458 -12.344299 35,000 204 477 0
2020-02-21 13:57:18 GMT 39.728989 -12.335975 35,000 204 477 0
2020-02-21 13:57:14 GMT 39.736664 -12.331604 35,000 204 477 0
2020-02-21 13:57:07 GMT 39.750397 -12.323730 35,000 204 477 0
2020-02-21 13:57:04 GMT 39.756077 -12.320496 35,000 204 477 0
2020-02-21 13:56:58 GMT 39.770786 -12.312073 35,000 204 478 0
2020-02-21 13:56:54 GMT 39.777073 -12.308472 35,000 204 478 0
2020-02-21 13:56:48 GMT 39.797287 -12.296866 35,000 204 479 0
2020-02-21 13:56:44 GMT 39.797287 -12.296866 35,000 204 479 0
2020-02-21 13:56:37 GMT 39.817200 -12.285461 35,000 204 479 0
2020-02-21 13:56:25 GMT 39.840755 -12.272034 35,000 204 480 0
2020-02-21 13:56:17 GMT 39.853180 -12.264922 35,000 204 480 0
2020-02-21 13:56:13 GMT 39.859451 -12.261339 35,000 204 480 0
2020-02-21 13:56:07 GMT 39.872272 -12.253967 35,000 204 479 0
2020-02-21 13:56:03 GMT 39.879810 -12.249695 35,000 204 480 0
2020-02-21 13:55:56 GMT 39.894608 -12.241158 35,025 204 480 0
2020-02-21 13:55:53 GMT 39.901321 -12.237305 35,000 204 480 0
2020-02-21 13:55:47 GMT 39.913101 -12.230530 35,000 204 481 0
2020-02-21 13:55:43 GMT 39.921021 -12.225932 35,000 204 481 0
2020-02-21 13:55:35 GMT 39.937305 -12.216610 35,000 204 480 0
2020-02-21 13:55:31 GMT 39.945217 -12.212053 35,000 204 480 0
2020-02-21 13:55:26 GMT 39.957043 -12.205311 35,000 204 479 0
2020-02-21 13:55:23 GMT 39.961281 -12.202877 35,000 204 479 0
2020-02-21 13:55:12 GMT 39.983624 -12.190018 35,000 204 479 0
2020-02-21 13:55:02 GMT 40.004944 -12.177783 35,000 204 479 0
2020-02-21 13:54:54 GMT 40.019562 -12.169418 35,025 204 479 0
2020-02-21 13:54:43 GMT 40.042099 -12.156433 35,000 204 479 0
2020-02-21 13:54:40 GMT 40.048370 -12.152832 35,000 204 479 0
2020-02-21 13:54:32 GMT 40.065811 -12.142822 35,000 204 479 0
2020-02-21 13:54:24 GMT 40.081604 -12.133728 35,000 204 478 0
2020-02-21 13:54:21 GMT 40.088272 -12.129905 35,000 204 478 0
2020-02-21 13:54:13 GMT 40.103451 -12.121166 35,000 204 478 64
2020-02-21 13:54:10 GMT 40.108292 -12.118347 35,000 204 477 0
2020-02-21 13:54:03 GMT 40.123466 -12.109618 35,000 204 478 0
2020-02-21 13:53:54 GMT 40.143036 -12.098267 35,000 204 477 0
2020-02-21 13:53:47 GMT 40.156567 -12.090454 35,000 204 477 0
2020-02-21 13:53:43 GMT 40.165054 -12.085571 35,000 204 477 0
2020-02-21 13:53:33 GMT 40.184402 -12.074349 35,000 204 477 0
2020-02-21 13:53:27 GMT 40.196087 -12.067608 35,000 204 476 0
2020-02-21 13:53:22 GMT 40.212612 -12.058057 35,000 204 476 -64
2020-02-21 13:53:12 GMT 40.225510 -12.050566 35,025 204 475 0
2020-02-21 13:53:07 GMT 40.236191 -12.044434 35,000 204 475 0
2020-02-21 13:53:03 GMT 40.246643 -12.038331 35,000 204 475 0
2020-02-21 13:52:59 GMT 40.251671 -12.035398 35,000 204 475 0
2020-02-21 13:52:52 GMT 40.266769 -12.026672 35,000 204 475 0
2020-02-21 13:52:42 GMT 40.287842 -12.014424 35,000 204 474 0
2020-02-21 13:52:39 GMT 40.292683 -12.011677 35,000 204 474 0
2020-02-21 13:52:31 GMT 40.308327 -12.002563 35,000 204 474 0
2020-02-21 13:52:28 GMT 40.315796 -11.998230 35,000 204 474 0
2020-02-21 13:52:22 GMT 40.328625 -11.990766 35,000 205 475 0
2020-02-21 13:52:11 GMT 40.349293 -11.978718 35,000 205 475 0
2020-02-21 13:52:08 GMT 40.354111 -11.975891 35,000 205 475 0
2020-02-21 13:52:01 GMT 40.369904 -11.966675 35,000 205 474 0
2020-02-21 13:51:58 GMT 40.375919 -11.963113 35,000 205 474 0
2020-02-21 13:51:51 GMT 40.389977 -11.954935 35,000 205 474 0
2020-02-21 13:51:46 GMT 40.399612 -11.949341 35,000 204 474 0
2020-02-21 13:51:40 GMT 40.410828 -11.942749 35,000 205 474 0
2020-02-21 13:51:30 GMT 40.431690 -11.930591 35,000 204 474 0
2020-02-21 13:51:20 GMT 40.472980 -11.906558 35,000 205 475 0
2020-02-21 13:51:09 GMT 40.472980 -11.906558 35,000 205 474 0
2020-02-21 13:50:59 GMT 40.492630 -11.895081 35,000 205 474 0
2020-02-21 13:50:56 GMT 40.499424 -11.891077 35,000 205 474 0
2020-02-21 13:50:50 GMT 40.512863 -11.883179 35,000 205 474 0
2020-02-21 13:50:46 GMT 40.518833 -11.879654 35,000 205 474 0
2020-02-21 13:50:39 GMT 40.533871 -11.870852 35,000 205 474 0
2020-02-21 13:50:35 GMT 40.541107 -11.866577 35,000 205 474 0
2020-02-21 13:50:28 GMT 40.554703 -11.858582 35,000 205 474 0
2020-02-21 13:50:21 GMT 40.569122 -11.850037 35,000 205 475 0
2020-02-21 13:50:18 GMT 40.575714 -11.846130 35,000 205 475 0
2020-02-21 13:50:15 GMT 40.581680 -11.842513 35,000 205 475 0
2020-02-21 13:50:09 GMT 40.594902 -11.834710 35,000 205 474 0
2020-02-21 13:49:58 GMT 40.615105 -11.822725 35,000 205 474 0
2020-02-21 13:49:45 GMT 40.641312 -11.807190 35,000 205 474 0
2020-02-21 13:49:37 GMT 40.665298 -11.793091 35,000 205 474 0
2020-02-21 13:49:33 GMT 40.665298 -11.793091 35,000 205 474 0
2020-02-21 13:49:28 GMT 40.677532 -11.785896 35,000 205 474 0
2020-02-21 13:49:22 GMT 40.686935 -11.780402 35,025 205 474 0
2020-02-21 13:49:17 GMT 40.697937 -11.773987 35,000 205 474 0
2020-02-21 13:49:13 GMT 40.704941 -11.769836 35,000 205 474 0
2020-02-21 13:49:06 GMT 40.726131 -11.757431 35,000 205 474 0
2020-02-21 13:49:03 GMT 40.726131 -11.757431 35,000 205 474 0
2020-02-21 13:48:57 GMT 40.738724 -11.750000 35,000 205 472 0
2020-02-21 13:48:53 GMT 40.744720 -11.746460 35,000 205 473 0
2020-02-21 13:48:46 GMT 40.760349 -11.737331 35,000 205 473 0
2020-02-21 13:48:37 GMT 40.779713 -11.725908 35,025 205 473 0
2020-02-21 13:48:26 GMT 40.816223 -11.704346 35,000 205 472 0
2020-02-21 13:48:18 GMT 40.816223 -11.704346 35,000 205 472 0
2020-02-21 13:48:14 GMT 40.822403 -11.700684 35,000 205 472 0
2020-02-21 13:48:08 GMT 40.834167 -11.693787 35,000 204 472 0
2020-02-21 13:48:05 GMT 40.840977 -11.689765 35,000 204 472 0
2020-02-21 13:48:01 GMT 40.848129 -11.685608 35,000 205 471 0
2020-02-21 13:47:58 GMT 40.854523 -11.681838 35,000 205 471 0
2020-02-21 13:47:54 GMT 40.862297 -11.677281 35,000 205 472 0
2020-02-21 13:47:49 GMT 40.872681 -11.671163 35,000 205 472 0
2020-02-21 13:47:45 GMT 40.880871 -11.666357 35,000 205 472 0
2020-02-21 13:47:38 GMT 40.894791 -11.658117 35,000 205 472 0
2020-02-21 13:47:35 GMT 40.901184 -11.654358 35,000 205 472 0
2020-02-21 13:47:28 GMT 40.914108 -11.646694 35,000 205 471 0
2020-02-21 13:47:25 GMT 40.922070 -11.641950 35,000 205 471 0
2020-02-21 13:47:21 GMT 40.929844 -11.637330 35,000 205 471 0
2020-02-21 13:47:15 GMT 40.941971 -11.630127 35,000 205 472 0
2020-02-21 13:47:09 GMT 40.953918 -11.623047 35,000 205 472 0
2020-02-21 13:47:05 GMT 40.962292 -11.618104 35,000 205 472 0
2020-02-21 13:46:58 GMT 40.974628 -11.610801 35,000 205 472 -64
2020-02-21 13:46:54 GMT 40.983398 -11.605591 35,000 205 472 0
2020-02-21 13:46:48 GMT 40.994366 -11.599128 35,000 205 471 0
2020-02-21 13:46:44 GMT 41.018433 -11.584833 35,000 205 471 0
2020-02-21 13:46:37 GMT 41.029186 -11.578404 35,000 205 472 0
2020-02-21 13:46:31 GMT 41.029186 -11.578404 35,000 205 472 0
2020-02-21 13:46:28 GMT 41.035583 -11.574646 35,000 205 472 0
2020-02-21 13:46:24 GMT 41.045109 -11.568978 35,000 205 472 0
2020-02-21 13:46:17 GMT 41.056915 -11.561951 35,000 205 472 0
2020-02-21 13:46:13 GMT 41.064651 -11.557373 35,000 205 472 0
2020-02-21 13:46:08 GMT 41.075226 -11.551063 35,000 205 472 0
2020-02-21 13:46:03 GMT 41.085190 -11.545133 35,000 205 472 0
2020-02-21 13:45:58 GMT 41.094772 -11.539429 35,000 205 473 0
2020-02-21 13:45:52 GMT 41.106354 -11.532532 35,000 205 473 0
2020-02-21 13:45:47 GMT 41.116104 -11.526672 35,000 205 473 0
2020-02-21 13:45:41 GMT 41.127686 -11.519775 35,000 205 473 0
2020-02-21 13:45:37 GMT 41.138855 -11.513123 35,000 205 473 0
2020-02-21 13:45:33 GMT 41.146404 -11.508553 35,000 205 473 0
2020-02-21 13:45:26 GMT 41.158417 -11.501437 35,000 205 473 0
2020-02-21 13:45:21 GMT 41.167603 -11.495972 35,000 205 473 0
2020-02-21 13:45:16 GMT 41.178360 -11.489502 35,000 205 474 0
2020-02-21 13:45:12 GMT 41.186554 -11.484619 35,000 205 473 0
2020-02-21 13:45:07 GMT 41.195332 -11.479340 35,000 205 474 0
2020-02-21 13:45:04 GMT 41.203537 -11.474487 35,000 205 474 0
2020-02-21 13:45:01 GMT 41.208508 -11.471474 35,000 205 474 0
2020-02-21 13:44:57 GMT 41.216328 -11.466793 35,000 205 474 0
2020-02-21 13:44:52 GMT 41.229084 -11.459052 35,000 205 474 0
2020-02-21 13:44:46 GMT 41.237881 -11.453809 35,000 205 475 0
2020-02-21 13:44:41 GMT 41.248680 -11.447317 35,000 205 475 64
2020-02-21 13:44:37 GMT 41.258286 -11.441589 35,000 205 474 0
2020-02-21 13:44:31 GMT 41.269135 -11.435120 35,000 205 474 0
2020-02-21 13:44:26 GMT 41.278336 -11.429589 35,000 205 474 0
2020-02-21 13:44:20 GMT 41.289555 -11.422910 35,000 205 474 0
2020-02-21 13:44:14 GMT 41.301376 -11.415856 35,000 205 474 0
2020-02-21 13:44:11 GMT 41.309200 -11.411174 35,000 205 474 0
2020-02-21 13:44:06 GMT 41.318790 -11.405432 35,000 205 475 0
2020-02-21 13:44:01 GMT 41.329605 -11.398926 35,000 205 475 0
2020-02-21 13:43:55 GMT 41.339630 -11.392944 35,000 205 475 0
2020-02-21 13:43:49 GMT 41.352074 -11.385456 35,000 205 475 0
2020-02-21 13:43:39 GMT 41.372276 -11.373284 35,000 205 475 0
2020-02-21 13:43:33 GMT 41.384125 -11.366211 35,000 205 475 0
2020-02-21 13:43:29 GMT 41.391907 -11.361486 35,000 205 475 -64
2020-02-21 13:43:25 GMT 41.399509 -11.356925 35,000 205 475 0
2020-02-21 13:43:20 GMT 41.411942 -11.349388 35,000 205 475 0
2020-02-21 13:43:14 GMT 41.422165 -11.343259 35,000 205 475 0
2020-02-21 13:43:08 GMT 41.433773 -11.336230 35,000 205 475 0
2020-02-21 13:43:05 GMT 41.440567 -11.332148 35,000 205 475 0
2020-02-21 13:42:59 GMT 41.452953 -11.324669 35,000 205 475 0
2020-02-21 13:42:53 GMT 41.463776 -11.318165 35,000 205 475 0
2020-02-21 13:42:48 GMT 41.473572 -11.312235 35,000 205 474 0
2020-02-21 13:42:38 GMT 41.494217 -11.299875 35,000 205 475 0
2020-02-21 13:42:29 GMT 41.515457 -11.287079 35,000 205 476 0
2020-02-21 13:42:18 GMT 41.534512 -11.275613 35,000 205 476 0
2020-02-21 13:42:08 GMT 41.555191 -11.263109 35,000 205 477 0
2020-02-21 13:41:57 GMT 41.576130 -11.250447 35,000 205 477 0
2020-02-21 13:41:51 GMT 41.588608 -11.242884 35,000 205 478 0
2020-02-21 13:41:47 GMT 41.596664 -11.237952 35,000 205 479 0
2020-02-21 13:41:43 GMT 41.604492 -11.233146 35,000 205 479 0
2020-02-21 13:41:37 GMT 41.617001 -11.225536 35,000 205 479 0
2020-02-21 13:41:27 GMT 41.637772 -11.212859 35,000 205 479 0
2020-02-21 13:41:24 GMT 41.646057 -11.207803 35,000 205 479 0
2020-02-21 13:41:16 GMT 41.659550 -11.199540 35,000 205 479 0
2020-02-21 13:41:10 GMT 41.671234 -11.192384 35,025 205 479 0
2020-02-21 13:41:06 GMT 41.678696 -11.187827 35,025 205 479 -64
2020-02-21 13:41:01 GMT 41.690182 -11.180824 35,025 205 479 0
2020-02-21 13:40:57 GMT 41.699261 -11.175331 35,025 205 478 0
2020-02-21 13:40:53 GMT 41.706116 -11.171161 35,025 205 478 0
2020-02-21 13:40:45 GMT 41.722824 -11.161048 35,025 205 477 0
2020-02-21 13:40:42 GMT 41.728088 -11.157865 35,025 205 477 0
2020-02-21 13:40:36 GMT 41.740925 -11.150037 35,000 205 477 0
2020-02-21 13:40:32 GMT 41.747772 -11.145880 35,000 205 477 0
2020-02-21 13:40:28 GMT 41.761414 -11.137515 35,000 205 477 0
2020-02-21 13:40:22 GMT 41.767834 -11.133558 35,000 205 476 0
2020-02-21 13:40:15 GMT 41.782013 -11.124843 35,000 205 476 -64
2020-02-21 13:40:08 GMT 41.798229 -11.114906 35,025 205 475 0
2020-02-21 13:39:55 GMT 41.822994 -11.099577 35,000 205 474 64
2020-02-21 13:39:52 GMT 41.828350 -11.096255 35,000 205 474 0
2020-02-21 13:39:45 GMT 41.842529 -11.087515 35,000 205 474 0
2020-02-21 13:39:34 GMT 41.863037 -11.074905 35,000 205 473 0
2020-02-21 13:39:30 GMT 41.871223 -11.069875 35,000 205 474 0
2020-02-21 13:39:25 GMT 41.882950 -11.062608 35,000 205 473 0
2020-02-21 13:39:14 GMT 41.904415 -11.049372 35,000 205 473 0
2020-02-21 13:39:04 GMT 41.925293 -11.036516 35,000 205 472 0
2020-02-21 13:38:57 GMT 41.937420 -11.029060 35,000 205 472 0
2020-02-21 13:38:53 GMT 41.945343 -11.024218 35,000 205 472 0
2020-02-21 13:38:43 GMT 41.966263 -11.011422 35,000 205 473 0
2020-02-21 13:38:39 GMT 41.972397 -11.007677 35,000 205 472 0
2020-02-21 13:38:32 GMT 41.988537 -10.997889 35,000 205 472 0
2020-02-21 13:38:21 GMT 42.011997 -10.983518 35,000 205 472 0
2020-02-21 13:38:12 GMT 42.032249 -10.971126 35,000 205 472 -64
2020-02-21 13:38:03 GMT 42.045593 -10.962982 35,025 205 472 0
2020-02-21 13:38:00 GMT 42.051567 -10.959309 35,025 205 473 0
2020-02-21 13:37:54 GMT 42.064278 -10.951453 35,025 205 474 -64
2020-02-21 13:37:48 GMT 42.074799 -10.944942 35,025 205 475 0
2020-02-21 13:37:42 GMT 42.088997 -10.936187 35,000 205 478 0
2020-02-21 13:37:33 GMT 42.105331 -10.926091 35,000 205 482 0
2020-02-21 13:37:25 GMT 42.120758 -10.916665 35,000 205 483 64
2020-02-21 13:37:22 GMT 42.135590 -10.907489 35,000 205 483 0
2020-02-21 13:37:11 GMT 42.151237 -10.897863 35,025 205 482 0
2020-02-21 13:37:02 GMT 42.173950 -10.883893 35,025 205 482 0
2020-02-21 13:36:49 GMT 42.194458 -10.871284 35,025 205 482 0
2020-02-21 13:36:40 GMT 42.235588 -10.845869 35,025 205 482 0
2020-02-21 13:36:29 GMT 42.235588 -10.845869 35,025 205 482 0
2020-02-21 13:36:20 GMT 42.259460 -10.830959 35,000 206 482 0
2020-02-21 13:36:11 GMT 42.273560 -10.821970 35,000 206 482 0
2020-02-21 13:36:08 GMT 42.277817 -10.819286 35,000 206 482 0
2020-02-21 13:35:58 GMT 42.297970 -10.806395 35,000 206 482 0
2020-02-21 13:35:48 GMT 42.318127 -10.793556 35,000 206 482 0
2020-02-21 13:35:38 GMT 42.338470 -10.780584 35,000 206 482 0
2020-02-21 13:35:30 GMT 42.364243 -10.764167 35,000 206 482 0
2020-02-21 13:35:19 GMT 42.375320 -10.757113 35,000 206 482 0
2020-02-21 13:35:09 GMT 42.403362 -10.739263 35,000 206 483 0
2020-02-21 13:34:59 GMT 42.416885 -10.730646 35,000 206 483 -64
2020-02-21 13:34:52 GMT 42.430252 -10.722157 35,025 206 484 -64
2020-02-21 13:34:48 GMT 42.438538 -10.716851 35,025 206 484 0
2020-02-21 13:34:38 GMT 42.458385 -10.704197 35,000 206 485 0
2020-02-21 13:34:35 GMT 42.465511 -10.699725 35,000 206 485 0
2020-02-21 13:34:27 GMT 42.483170 -10.688449 35,000 206 485 0
2020-02-21 13:34:15 GMT 42.505463 -10.674279 35,025 206 484 0
2020-02-21 13:34:07 GMT 42.521465 -10.664020 35,025 206 484 0
2020-02-21 13:34:04 GMT 42.527378 -10.660315 35,025 206 484 64
2020-02-21 13:33:58 GMT 42.541950 -10.650990 35,000 206 484 0
2020-02-21 13:33:54 GMT 42.547028 -10.647749 35,000 206 484 0
2020-02-21 13:33:45 GMT 42.568268 -10.634079 35,000 206 484 0
2020-02-21 13:33:37 GMT 42.582413 -10.624965 35,000 206 483 0
2020-02-21 13:33:33 GMT 42.590504 -10.619755 35,025 206 483 0
2020-02-21 13:33:23 GMT 42.609680 -10.607428 35,000 206 483 0
2020-02-21 13:33:18 GMT 42.621784 -10.599571 35,000 206 483 0
2020-02-21 13:33:14 GMT 42.631283 -10.593439 35,000 206 483 0
2020-02-21 13:33:08 GMT 42.641190 -10.587075 35,000 206 483 -64
2020-02-21 13:33:03 GMT 42.651855 -10.580146 35,000 206 483 0
2020-02-21 13:32:55 GMT 42.667786 -10.569909 35,000 206 483 0
2020-02-21 13:32:45 GMT 42.686539 -10.557797 35,000 206 483 0
2020-02-21 13:32:36 GMT 42.706238 -10.545065 35,000 206 482 0
2020-02-21 13:32:26 GMT 42.727554 -10.531226 35,000 206 480 0
2020-02-21 13:32:17 GMT 42.743820 -10.520720 35,000 206 480 0
2020-02-21 13:32:14 GMT 42.748642 -10.517621 35,000 206 480 0
2020-02-21 13:32:06 GMT 42.765491 -10.506762 35,000 206 479 0
2020-02-21 13:32:03 GMT 42.771469 -10.502867 35,000 206 479 0
2020-02-21 13:31:54 GMT 42.788681 -10.491694 35,000 206 479 0
2020-02-21 13:31:45 GMT 42.808502 -10.478897 35,000 206 479 0
2020-02-21 13:31:39 GMT 42.820286 -10.471213 35,000 206 479 0
2020-02-21 13:31:34 GMT 42.829643 -10.465131 35,000 206 478 0
2020-02-21 13:31:30 GMT 42.839230 -10.458919 35,000 206 478 0
2020-02-21 13:31:26 GMT 42.845627 -10.454769 35,000 206 478 0
2020-02-21 13:31:22 GMT 42.854408 -10.449044 35,000 206 478 0
2020-02-21 13:31:19 GMT 42.860413 -10.445188 35,000 206 478 0
2020-02-21 13:31:16 GMT 42.866371 -10.441328 35,000 206 478 0
2020-02-21 13:31:13 GMT 42.870377 -10.438712 35,000 206 478 0
2020-02-21 13:31:03 GMT 42.892319 -10.424620 35,000 206 477 0
2020-02-21 13:30:53 GMT 42.913284 -10.411143 35,000 206 477 0
2020-02-21 13:30:47 GMT 42.923218 -10.404691 35,000 206 477 0
2020-02-21 13:30:43 GMT 42.931217 -10.399540 35,000 206 477 64
2020-02-21 13:30:31 GMT 42.954075 -10.384696 35,000 206 477 0
2020-02-21 13:30:22 GMT 42.972183 -10.372925 35,000 206 476 0
2020-02-21 13:30:12 GMT 42.993088 -10.359388 35,000 206 476 0
2020-02-21 13:30:02 GMT 43.036240 -10.331236 35,000 206 476 0
2020-02-21 13:29:50 GMT 43.036240 -10.331236 35,000 206 477 0
2020-02-21 13:29:46 GMT 43.044201 -10.326037 35,000 206 477 0
2020-02-21 13:29:41 GMT 43.054321 -10.319420 35,000 206 476 0
2020-02-21 13:29:37 GMT 43.063427 -10.313416 35,000 206 476 0
2020-02-21 13:29:27 GMT 43.081490 -10.301579 35,000 206 476 0
2020-02-21 13:29:20 GMT 43.097782 -10.290854 35,000 206 476 0
2020-02-21 13:29:15 GMT 43.108490 -10.283857 35,000 206 475 0
2020-02-21 13:29:10 GMT 43.116264 -10.278756 35,000 206 476 0
2020-02-21 13:29:00 GMT 43.135910 -10.265874 35,000 206 475 0
2020-02-21 13:28:55 GMT 43.145416 -10.259634 35,000 206 475 0
2020-02-21 13:28:49 GMT 43.157509 -10.251683 35,000 206 476 0
2020-02-21 13:28:44 GMT 43.166840 -10.245581 35,000 206 475 0
2020-02-21 13:28:39 GMT 43.176781 -10.239062 35,000 206 476 0
2020-02-21 13:28:36 GMT 43.185719 -10.233176 35,000 206 476 0
2020-02-21 13:28:30 GMT 43.197220 -10.225525 35,000 206 477 0
2020-02-21 13:28:25 GMT 43.205154 -10.220287 35,000 206 477 0
2020-02-21 13:28:14 GMT 43.228180 -10.205085 35,000 206 477 0
2020-02-21 13:28:04 GMT 43.246857 -10.192758 35,000 206 477 0
2020-02-21 13:27:55 GMT 43.266541 -10.179791 35,000 206 477 0
2020-02-21 13:27:44 GMT 43.287807 -10.165754 35,000 206 477 0
2020-02-21 13:27:33 GMT 43.309456 -10.151433 35,000 206 477 0
2020-02-21 13:27:23 GMT 43.329517 -10.138157 35,000 206 477 0
2020-02-21 13:27:13 GMT 43.349030 -10.125243 35,000 206 477 0
2020-02-21 13:27:03 GMT 43.369461 -10.111673 35,000 206 477 0
2020-02-21 13:26:52 GMT 43.389526 -10.098397 35,000 206 477 0
2020-02-21 13:26:43 GMT 43.409409 -10.085194 35,000 206 477 0
2020-02-21 13:26:36 GMT 43.421310 -10.077273 35,000 206 477 0
2020-02-21 13:26:32 GMT 43.430466 -10.071205 35,000 206 478 0
2020-02-21 13:26:27 GMT 43.440582 -10.064435 35,000 206 478 0
2020-02-21 13:26:21 GMT 43.451534 -10.057133 35,000 206 478 0
2020-02-21 13:26:11 GMT 43.470993 -10.044120 35,000 206 477 0
2020-02-21 13:26:05 GMT 43.483700 -10.035684 35,000 206 478 0
2020-02-21 13:26:02 GMT 43.498260 -10.026046 35,000 206 478 0
2020-02-21 13:25:50 GMT 43.512794 -10.016458 35,000 206 478 0
2020-02-21 13:25:47 GMT 43.519360 -10.012076 35,000 206 478 0
2020-02-21 13:25:40 GMT 43.532906 -10.003117 35,000 206 478 0
2020-02-21 13:25:31 GMT 43.554794 -9.988552 35,000 206 478 0
2020-02-21 13:25:27 GMT 43.558182 -9.986317 35,000 206 478 0
2020-02-21 13:25:20 GMT 43.574337 -9.975651 35,000 206 478 0
2020-02-21 13:25:09 GMT 43.596451 -9.961003 35,000 206 478 0
2020-02-21 13:25:06 GMT 43.600220 -9.958452 35,000 206 478 0
2020-02-21 13:24:59 GMT 43.614979 -9.948709 35,000 206 479 0
2020-02-21 13:24:49 GMT 43.635555 -9.935107 35,025 206 478 -64
2020-02-21 13:24:38 GMT 43.656281 -9.921293 36,000 206 479 0
2020-02-21 13:24:29 GMT 43.676987 -9.907510 35,000 206 479 0
2020-02-21 13:24:18 GMT 43.698898 -9.892869 35,000 206 479 0
2020-02-21 13:24:07 GMT 43.719860 -9.878802 35,000 206 479 -64
2020-02-21 13:23:57 GMT 43.740158 -9.865199 35,000 206 479 0
2020-02-21 13:23:46 GMT 43.761108 -9.851096 35,000 207 479 0
2020-02-21 13:23:36 GMT 43.783405 -9.836033 35,000 207 479 0
2020-02-21 13:23:25 GMT 43.802490 -9.823085 35,000 207 479 0
2020-02-21 13:23:15 GMT 43.822998 -9.809258 35,000 207 479 0
2020-02-21 13:23:05 GMT 43.843918 -9.795078 35,000 207 479 0
2020-02-21 13:22:54 GMT 43.864197 -9.781409 35,000 206 479 0
2020-02-21 13:22:42 GMT 43.887123 -9.766061 35,000 206 479 0
2020-02-21 13:22:32 GMT 43.910446 -9.750497 35,000 206 478 0
2020-02-21 13:22:23 GMT 43.926598 -9.739707 35,000 206 479 0
2020-02-21 13:22:02 GMT 43.968403 -9.711587 35,000 207 478 0
2020-02-21 13:21:50 GMT 43.990677 -9.696584 35,000 206 478 0
2020-02-21 13:21:38 GMT 44.016724 -9.679020 35,000 207 478 0
2020-02-21 13:21:30 GMT 44.030598 -9.669604 35,000 207 478 0
2020-02-21 13:21:19 GMT 44.055454 -9.652797 35,000 207 478 0
2020-02-21 13:21:09 GMT 44.072678 -9.641091 35,000 207 477 0
2020-02-21 13:20:50 GMT 44.111755 -9.614634 35,000 207 477 0
2020-02-21 13:20:47 GMT 44.117523 -9.610738 35,000 207 477 0
2020-02-21 13:18:19 GMT 44.407516 -9.411883 35,000 207 473 0
We lost coverage of the aircraft here for a total of 26 minutes
2020-02-21 12:52:04 GMT 47.680012 -9.000127 36,025 180 457 0
2020-02-21 12:51:51 GMT 47.707672 -9.000069 36,025 180 457 0
2020-02-21 12:51:46 GMT 47.720352 -9.000069 36,025 180 457 0
2020-02-21 12:51:35 GMT 47.741833 -9.000056 36,025 180 456 0
2020-02-21 12:51:25 GMT 47.762688 -9.000056 36,025 180 456 0
2020-02-21 12:50:39 GMT 47.859009 -9.000000 36,025 180 454 0
2020-02-21 12:49:59 GMT 47.942184 -9.000000 36,000 180 453 0
2020-02-21 12:49:52 GMT 47.956787 -9.000000 36,000 180 453 0
2020-02-21 12:49:43 GMT 47.976013 -9.000000 36,000 180 452 0
2020-02-21 12:49:32 GMT 47.998764 -9.000000 36,025 180 452 -64
2020-02-21 12:49:23 GMT 48.017761 -8.999931 36,025 180 451 64
2020-02-21 12:49:11 GMT 48.044655 -8.999915 36,025 180 451 0
2020-02-21 12:49:03 GMT 48.060066 -8.999915 36,025 180 451 0
2020-02-21 12:48:51 GMT 48.084412 -8.999915 36,025 180 451 0
2020-02-21 12:48:42 GMT 48.103546 -8.999931 36,025 180 451 0
2020-02-21 12:48:32 GMT 48.124352 -8.999915 36,025 180 450 0
2020-02-21 12:48:20 GMT 48.149323 -8.999931 36,025 180 450 0
2020-02-21 12:48:12 GMT 48.165737 -8.999971 36,025 180 450 0
2020-02-21 12:47:53 GMT 48.205811 -8.999986 36,025 180 449 0
2020-02-21 12:47:41 GMT 48.231331 -8.999971 36,000 180 449 0
2020-02-21 12:47:31 GMT 48.249996 -8.999971 36,000 180 449 0
2020-02-21 12:47:20 GMT 48.273605 -8.999986 36,025 180 448 0
2020-02-21 12:47:10 GMT 48.294270 -8.999971 36,025 180 448 0
2020-02-21 12:46:59 GMT 48.318291 -8.999971 36,025 180 448 0
2020-02-21 12:46:51 GMT 48.335037 -8.999915 36,000 180 448 0
2020-02-21 12:46:28 GMT 48.381138 -8.999899 36,000 180 448 0
2020-02-21 12:46:20 GMT 48.398117 -8.999915 36,000 179 448 0
2020-02-21 12:46:07 GMT 48.424988 -8.999971 36,025 180 448 0
2020-02-21 12:45:57 GMT 48.445267 -8.999986 36,000 180 448 64
2020-02-21 12:45:48 GMT 48.463673 -8.999971 36,000 180 448 0
2020-02-21 12:45:33 GMT 48.498402 -8.999971 36,025 181 448 0
2020-02-21 12:45:30 GMT 48.501114 -8.999915 36,025 181 448 0
2020-02-21 12:45:19 GMT 48.525124 -8.999899 36,025 181 448 0
2020-02-21 12:45:06 GMT 48.550400 -8.999827 36,025 180 448 0
2020-02-21 12:45:00 GMT 48.563854 -8.999899 36,025 181 448 0
2020-02-21 12:44:50 GMT 48.584930 -8.998930 36,000 184 446 0
2020-02-21 12:44:40 GMT 48.605209 -8.996324 36,025 188 444 0
2020-02-21 12:44:13 GMT 48.660278 -8.981464 36,000 192 441 0
2020-02-21 12:44:07 GMT 48.670086 -8.978504 36,000 192 441 0
2020-02-21 12:43:58 GMT 48.687866 -8.973156 36,000 192 441 0
2020-02-21 12:43:47 GMT 48.710075 -8.966506 36,025 192 441 0
2020-02-21 12:43:39 GMT 48.727901 -8.961158 36,025 192 441 0
2020-02-21 12:43:27 GMT 48.750900 -8.954291 36,025 192 441 0
2020-02-21 12:43:18 GMT 48.768730 -8.948942 36,000 192 441 0
2020-02-21 12:43:08 GMT 48.790890 -8.942221 36,025 192 441 0
2020-02-21 12:42:57 GMT 48.810905 -8.936149 36,025 192 441 0
2020-02-21 12:42:48 GMT 48.828873 -8.930688 36,025 192 441 0
2020-02-21 12:42:37 GMT 48.850475 -8.924151 36,025 192 441 0
2020-02-21 12:42:28 GMT 48.869469 -8.918441 36,025 192 441 0
2020-02-21 12:42:17 GMT 48.890213 -8.912166 36,025 192 441 0
2020-02-21 12:42:08 GMT 48.910202 -8.906081 36,025 192 441 0
2020-02-21 12:41:57 GMT 48.930359 -8.900010 36,025 192 440 0
2020-02-21 12:41:46 GMT 48.951920 -8.893503 36,025 192 440 0
2020-02-21 12:41:37 GMT 48.971092 -8.887795 36,025 192 440 0
2020-02-21 12:41:26 GMT 48.991669 -8.881579 36,025 192 440 0
2020-02-21 12:41:16 GMT 49.012802 -8.875263 36,025 192 440 0
2020-02-21 12:41:05 GMT 49.033520 -8.869002 36,025 192 440 0
2020-02-21 12:40:57 GMT 49.051849 -8.863502 36,025 192 440 0
2020-02-21 12:40:46 GMT 49.072769 -8.857164 36,000 192 439 0
2020-02-21 12:40:36 GMT 49.092316 -8.851222 36,025 192 439 0
2020-02-21 12:40:25 GMT 49.113785 -8.844628 36,025 192 439 0
2020-02-21 12:40:16 GMT 49.132488 -8.838935 36,025 192 439 0
2020-02-21 12:40:05 GMT 49.153343 -8.832574 36,025 192 438 0
2020-02-21 12:39:55 GMT 49.174198 -8.826214 36,025 192 438 0
2020-02-21 12:39:45 GMT 49.193253 -8.820402 36,025 192 438 0
2020-02-21 12:39:36 GMT 49.213070 -8.814288 36,000 192 437 0
2020-02-21 12:39:25 GMT 49.233673 -8.807936 36,025 192 437 0
2020-02-21 12:39:15 GMT 49.253292 -8.801928 36,025 192 437 0
2020-02-21 12:39:04 GMT 49.275650 -8.795119 36,025 192 437 0
2020-02-21 12:38:55 GMT 49.292679 -8.789908 36,025 192 436 0
2020-02-21 12:38:51 GMT 49.300591 -8.787472 36,025 192 436 0
2020-02-21 12:38:45 GMT 49.312637 -8.783781 36,025 192 435 0
2020-02-21 12:38:42 GMT 49.319366 -8.781668 36,025 192 434 0
2020-02-21 12:38:34 GMT 49.332962 -8.777513 36,025 192 435 0
2020-02-21 12:38:30 GMT 49.342392 -8.774555 36,025 192 434 0
2020-02-21 12:38:25 GMT 49.353428 -8.771137 36,025 192 434 0
2020-02-21 12:38:19 GMT 49.364273 -8.767794 36,025 192 434 0
2020-02-21 12:38:14 GMT 49.373474 -8.764907 36,025 192 434 0
2020-02-21 12:38:10 GMT 49.382149 -8.762247 36,025 192 434 0
2020-02-21 12:38:02 GMT 49.399605 -8.756826 36,025 192 433 0
2020-02-21 12:37:57 GMT 49.407074 -8.754484 36,025 192 433 0
2020-02-21 12:37:54 GMT 49.413574 -8.752512 36,025 192 433 0
2020-02-21 12:37:47 GMT 49.426895 -8.748357 36,025 192 433 0
2020-02-21 12:37:43 GMT 49.434540 -8.745985 36,025 192 433 0
2020-02-21 12:37:40 GMT 49.441406 -8.743816 36,025 192 432 0
2020-02-21 12:37:37 GMT 49.446484 -8.742296 36,025 192 432 0
2020-02-21 12:37:31 GMT 49.457886 -8.738757 36,025 192 432 0
2020-02-21 12:37:27 GMT 49.465485 -8.736371 36,025 192 432 0
2020-02-21 12:37:24 GMT 49.473129 -8.733986 36,025 192 432 0
2020-02-21 12:37:20 GMT 49.479023 -8.732201 36,025 192 432 0
2020-02-21 12:37:17 GMT 49.484894 -8.730372 36,025 192 432 0
2020-02-21 12:37:12 GMT 49.494873 -8.727264 36,000 192 432 64
2020-02-21 12:37:07 GMT 49.504257 -8.724373 36,000 192 431 64
2020-02-21 12:37:03 GMT 49.512447 -8.721808 36,000 192 431 0
2020-02-21 12:36:59 GMT 49.521248 -8.719136 36,000 192 431 -64
2020-02-21 12:36:56 GMT 49.526508 -8.717503 36,000 192 431 -64
2020-02-21 12:36:53 GMT 49.532776 -8.715555 36,025 192 431 0
2020-02-21 12:36:50 GMT 49.543732 -8.712158 36,025 192 431 0
2020-02-21 12:36:47 GMT 49.543732 -8.712158 36,025 192 431 0
2020-02-21 12:36:40 GMT 49.557358 -8.707966 36,000 192 430 0
2020-02-21 12:36:37 GMT 49.563980 -8.705923 36,025 192 430 0
2020-02-21 12:36:32 GMT 49.572781 -8.703176 36,025 192 430 0
2020-02-21 12:36:27 GMT 49.583069 -8.699984 36,025 192 430 0
2020-02-21 12:36:19 GMT 49.603912 -8.693438 36,025 192 430 0
2020-02-21 12:36:16 GMT 49.603912 -8.693438 36,025 192 430 0
2020-02-21 12:36:13 GMT 49.611698 -8.691002 36,025 192 430 0
2020-02-21 12:36:09 GMT 49.618492 -8.688924 36,000 192 430 0
2020-02-21 12:36:06 GMT 49.623367 -8.687367 36,000 192 430 0
2020-02-21 12:36:02 GMT 49.631744 -8.684765 36,000 192 430 0
2020-02-21 12:35:59 GMT 49.637375 -8.683030 36,000 192 430 0
2020-02-21 12:35:56 GMT 49.642639 -8.681368 36,000 192 430 0
2020-02-21 12:35:52 GMT 49.651779 -8.678531 36,000 192 430 0
2020-02-21 12:35:49 GMT 49.656647 -8.677031 36,000 192 430 0
2020-02-21 12:35:46 GMT 49.662113 -8.675339 36,000 192 430 0
2020-02-21 12:35:41 GMT 49.673218 -8.671899 36,000 192 429 0
2020-02-21 12:35:36 GMT 49.681595 -8.669297 36,000 192 429 0
2020-02-21 12:35:29 GMT 49.696564 -8.664599 36,000 192 429 0
2020-02-21 12:35:26 GMT 49.701824 -8.662942 36,000 192 429 0
2020-02-21 12:35:19 GMT 49.715416 -8.658711 36,000 192 429 0
2020-02-21 12:35:16 GMT 49.721470 -8.656855 36,000 192 429 0
2020-02-21 12:35:12 GMT 49.730392 -8.654046 36,000 192 429 0
2020-02-21 12:35:06 GMT 49.740509 -8.650866 36,025 192 429 0
2020-02-21 12:35:01 GMT 49.750237 -8.647873 36,000 192 429 0
2020-02-21 12:34:55 GMT 49.760925 -8.644506 36,025 192 429 0
2020-02-21 12:34:49 GMT 49.775665 -8.639880 36,025 192 428 0
2020-02-21 12:34:45 GMT 49.780930 -8.638290 36,025 192 428 0
2020-02-21 12:34:41 GMT 49.790039 -8.635398 36,025 192 428 0
2020-02-21 12:34:35 GMT 49.800888 -8.632001 36,025 192 428 0
2020-02-21 12:34:31 GMT 49.808487 -8.629616 36,025 192 428 0
2020-02-21 12:34:28 GMT 49.814072 -8.627882 36,025 192 428 0
2020-02-21 12:34:25 GMT 49.819336 -8.626219 36,000 192 428 0
2020-02-21 12:34:20 GMT 49.829002 -8.623154 36,025 192 428 0
2020-02-21 12:34:17 GMT 49.836590 -8.620779 36,025 192 428 0
2020-02-21 12:34:14 GMT 49.840439 -8.619569 36,025 192 428 0
2020-02-21 12:34:10 GMT 49.848602 -8.616993 36,025 192 428 0
2020-02-21 12:34:05 GMT 49.858658 -8.613859 36,025 192 427 0
2020-02-21 12:33:59 GMT 49.870285 -8.610173 36,000 192 427 0
2020-02-21 12:33:54 GMT 49.880722 -8.606848 36,025 192 427 0
2020-02-21 12:33:51 GMT 49.887520 -8.604745 36,025 192 427 -64
2020-02-21 12:33:45 GMT 49.897751 -8.601500 36,025 192 427 0
2020-02-21 12:33:39 GMT 49.908607 -8.598064 36,025 192 427 0
2020-02-21 12:33:35 GMT 49.917709 -8.595212 36,025 192 427 0
2020-02-21 12:33:30 GMT 49.926773 -8.592320 36,025 192 427 0
2020-02-21 12:33:20 GMT 49.946503 -8.586112 36,025 192 427 -64
2020-02-21 12:33:15 GMT 49.956139 -8.583069 36,025 192 426 0
2020-02-21 12:33:08 GMT 49.968109 -8.579310 36,025 192 426 64
2020-02-21 12:33:04 GMT 49.976250 -8.576759 36,025 192 426 64
2020-02-21 12:32:59 GMT 49.985886 -8.573716 36,000 192 426 64
2020-02-21 12:32:53 GMT 49.997292 -8.570078 36,000 192 426 0
2020-02-21 12:32:49 GMT 50.005371 -8.567529 36,000 192 426 0
2020-02-21 12:32:44 GMT 50.014252 -8.564710 36,000 192 426 -64
2020-02-21 12:32:40 GMT 50.024895 -8.561393 36,025 192 426 0
2020-02-21 12:32:34 GMT 50.035309 -8.558133 36,025 192 426 0
2020-02-21 12:32:29 GMT 50.045143 -8.555009 36,025 192 425 0
2020-02-21 12:32:23 GMT 50.054970 -8.551891 36,025 192 425 0
2020-02-21 12:32:18 GMT 50.065155 -8.548592 36,025 192 425 64
2020-02-21 12:32:13 GMT 50.075172 -8.545433 36,000 192 425 64
2020-02-21 12:32:09 GMT 50.083458 -8.542761 36,000 192 426 0
2020-02-21 12:32:03 GMT 50.094040 -8.539413 36,000 192 426 -64
2020-02-21 12:31:58 GMT 50.104294 -8.536160 36,000 192 425 -64
2020-02-21 12:31:54 GMT 50.112350 -8.533630 36,025 192 425 0
2020-02-21 12:31:49 GMT 50.122749 -8.530364 36,025 192 425 0
2020-02-21 12:31:44 GMT 50.131210 -8.527631 36,025 192 424 0
2020-02-21 12:31:38 GMT 50.142380 -8.524090 36,025 192 425 64
2020-02-21 12:31:32 GMT 50.153915 -8.520403 36,000 192 425 64
2020-02-21 12:31:26 GMT 50.165249 -8.516780 36,000 192 425 0
2020-02-21 12:31:18 GMT 50.181244 -8.511730 36,000 192 425 0
2020-02-21 12:31:13 GMT 50.189896 -8.508983 36,000 192 424 0
2020-02-21 12:31:08 GMT 50.200863 -8.505496 36,025 192 424 0
2020-02-21 12:31:03 GMT 50.210678 -8.502406 36,025 192 424 0
2020-02-21 12:30:57 GMT 50.221207 -8.499009 36,025 192 424 0
2020-02-21 12:30:51 GMT 50.231964 -8.495467 36,025 192 424 0
2020-02-21 12:30:46 GMT 50.242294 -8.492135 36,025 192 424 0
2020-02-21 12:30:42 GMT 50.249416 -8.489908 36,000 192 424 64
2020-02-21 12:30:37 GMT 50.259201 -8.486722 36,000 192 424 0
2020-02-21 12:30:32 GMT 50.268410 -8.483747 36,000 192 424 -64
2020-02-21 12:30:27 GMT 50.278790 -8.480480 36,000 192 424 -64
2020-02-21 12:30:23 GMT 50.286850 -8.477904 36,025 192 424 0
2020-02-21 12:30:16 GMT 50.299320 -8.473874 36,025 192 424 0
2020-02-21 12:30:12 GMT 50.307404 -8.471326 36,025 192 423 0
2020-02-21 12:30:06 GMT 50.318527 -8.467712 36,025 192 424 0
2020-02-21 12:30:02 GMT 50.326180 -8.465263 36,025 192 424 0
2020-02-21 12:29:56 GMT 50.338257 -8.461424 36,000 192 424 0
2020-02-21 12:29:53 GMT 50.346336 -8.458805 36,000 192 424 -64
2020-02-21 12:29:46 GMT 50.357094 -8.455390 36,025 192 423 0
2020-02-21 12:29:40 GMT 50.368404 -8.451753 36,025 192 423 0
2020-02-21 12:29:36 GMT 50.376434 -8.449209 36,025 192 423 0
2020-02-21 12:29:32 GMT 50.385269 -8.446318 36,000 192 423 0
2020-02-21 12:29:26 GMT 50.395981 -8.442849 36,000 192 423 0
2020-02-21 12:29:21 GMT 50.407089 -8.439282 36,000 192 423 0
2020-02-21 12:29:16 GMT 50.415516 -8.436535 36,000 192 423 0
2020-02-21 12:29:11 GMT 50.425095 -8.433452 36,000 192 423 0
2020-02-21 12:29:06 GMT 50.433903 -8.430671 36,025 192 423 -64
2020-02-21 12:29:02 GMT 50.442749 -8.427776 36,025 192 423 0
2020-02-21 12:28:55 GMT 50.454620 -8.423916 36,025 192 424 0
2020-02-21 12:28:51 GMT 50.462440 -8.421317 36,025 192 423 0
2020-02-21 12:28:45 GMT 50.474304 -8.417479 36,025 192 424 0
2020-02-21 12:28:42 GMT 50.481400 -8.415094 36,025 192 424 0
2020-02-21 12:28:35 GMT 50.493073 -8.411296 36,025 192 423 0
2020-02-21 12:28:31 GMT 50.501907 -8.408444 36,025 192 423 0
2020-02-21 12:28:25 GMT 50.512253 -8.405047 36,025 192 424 0
2020-02-21 12:28:21 GMT 50.520493 -8.402445 36,025 192 424 0
2020-02-21 12:28:16 GMT 50.531059 -8.398974 36,025 192 424 0
2020-02-21 12:28:10 GMT 50.542374 -8.395362 36,025 192 424 0
2020-02-21 12:28:04 GMT 50.553867 -8.391625 36,025 192 424 0
2020-02-21 12:28:01 GMT 50.558853 -8.390013 36,025 192 424 0
2020-02-21 12:27:58 GMT 50.566727 -8.387483 36,025 192 424 0
2020-02-21 12:27:55 GMT 50.570389 -8.386327 36,025 192 423 0
2020-02-21 12:27:51 GMT 50.579613 -8.383311 36,000 192 423 0
2020-02-21 12:27:45 GMT 50.590321 -8.379822 36,000 192 424 0
2020-02-21 12:27:40 GMT 50.598770 -8.377147 36,000 192 424 0
2020-02-21 12:27:35 GMT 50.609116 -8.373750 36,000 192 424 0
2020-02-21 12:27:28 GMT 50.624302 -8.368910 36,025 192 424 0
2020-02-21 12:27:25 GMT 50.628723 -8.367499 36,000 192 424 -64
2020-02-21 12:27:21 GMT 50.635620 -8.365222 36,025 192 423 0
2020-02-21 12:27:17 GMT 50.644272 -8.362475 36,025 192 423 0
2020-02-21 12:27:14 GMT 50.649445 -8.360813 36,025 192 423 0
2020-02-21 12:27:09 GMT 50.657867 -8.358072 36,025 192 423 0
2020-02-21 12:27:05 GMT 50.668201 -8.354731 36,025 192 423 0
2020-02-21 12:27:01 GMT 50.684097 -8.349535 36,025 192 423 0
2020-02-21 12:26:57 GMT 50.684097 -8.349535 36,025 192 423 0
2020-02-21 12:26:54 GMT 50.687347 -8.348496 36,000 192 423 0
2020-02-21 12:26:49 GMT 50.698654 -8.344859 36,025 192 423 0
2020-02-21 12:26:46 GMT 50.702682 -8.343522 36,025 192 423 0
2020-02-21 12:26:43 GMT 50.708424 -8.341675 36,025 192 423 0
2020-02-21 12:26:38 GMT 50.718979 -8.338252 36,025 192 423 0
2020-02-21 12:26:34 GMT 50.726440 -8.335876 36,000 192 422 0
2020-02-21 12:26:28 GMT 50.737106 -8.332388 36,025 192 422 0
2020-02-21 12:26:24 GMT 50.745525 -8.329620 36,025 192 422 0
2020-02-21 12:26:20 GMT 50.752228 -8.327408 36,025 192 422 0
2020-02-21 12:26:13 GMT 50.765217 -8.323212 36,025 192 422 0
2020-02-21 12:26:07 GMT 50.776886 -8.319397 36,025 192 422 0
2020-02-21 12:26:03 GMT 50.784714 -8.316799 36,025 192 422 0
2020-02-21 12:25:59 GMT 50.794449 -8.313599 36,000 192 421 0
2020-02-21 12:25:53 GMT 50.804718 -8.310266 36,025 192 422 0
2020-02-21 12:25:48 GMT 50.813725 -8.307343 36,025 192 422 0
2020-02-21 12:25:43 GMT 50.823624 -8.304105 36,000 192 422 0
2020-02-21 12:25:38 GMT 50.840816 -8.298492 36,000 192 423 0
2020-02-21 12:25:34 GMT 50.840816 -8.298492 36,000 192 422 0
2020-02-21 12:25:30 GMT 50.855347 -8.293713 36,025 192 423 -64
2020-02-21 12:25:23 GMT 50.861813 -8.291550 36,025 192 422 0
2020-02-21 12:25:17 GMT 50.872101 -8.288071 36,025 192 422 0
2020-02-21 12:25:12 GMT 50.882034 -8.284805 36,000 192 422 0
2020-02-21 12:25:07 GMT 50.891006 -8.281761 36,025 192 422 0
2020-02-21 12:25:02 GMT 50.902039 -8.278124 36,025 192 422 0
2020-02-21 12:24:57 GMT 50.911789 -8.274932 36,000 192 421 0
2020-02-21 12:24:51 GMT 50.921677 -8.271666 36,025 192 421 0
2020-02-21 12:24:47 GMT 50.929871 -8.268919 36,025 192 421 -64
2020-02-21 12:24:41 GMT 50.940536 -8.265430 36,025 192 420 64
2020-02-21 12:24:37 GMT 50.949097 -8.262610 36,025 192 420 64
2020-02-21 12:24:31 GMT 50.959942 -8.258972 36,025 192 420 0
2020-02-21 12:24:27 GMT 50.968323 -8.256226 36,025 192 420 0
2020-02-21 12:24:22 GMT 50.985626 -8.250510 36,025 192 421 0
2020-02-21 12:24:18 GMT 50.985626 -8.250510 36,025 192 421 0
2020-02-21 12:24:10 GMT 51.000870 -8.245462 36,025 192 420 0
2020-02-21 12:24:07 GMT 51.007507 -8.243235 36,025 192 420 0
2020-02-21 12:24:01 GMT 51.020050 -8.239078 36,000 192 420 0
2020-02-21 12:23:58 GMT 51.022743 -8.238220 36,000 192 421 0
2020-02-21 12:23:51 GMT 51.041748 -8.231952 36,000 192 420 0
2020-02-21 12:23:48 GMT 51.041748 -8.231952 36,000 192 421 0
2020-02-21 12:23:45 GMT 51.055069 -8.227572 36,000 192 421 0
2020-02-21 12:23:42 GMT 51.055069 -8.227572 36,000 192 421 0
2020-02-21 12:23:36 GMT 51.065571 -8.224182 36,000 192 421 0
2020-02-21 12:23:31 GMT 51.074509 -8.221283 36,025 192 420 0
2020-02-21 12:23:28 GMT 51.080200 -8.219407 36,000 192 420 -64
2020-02-21 12:23:24 GMT 51.086884 -8.217180 36,025 192 420 0
2020-02-21 12:23:21 GMT 51.094299 -8.214730 36,025 192 420 0
2020-02-21 12:23:18 GMT 51.099426 -8.213023 36,025 192 420 0
2020-02-21 12:23:15 GMT 51.104187 -8.211464 36,025 192 420 0
2020-02-21 12:23:12 GMT 51.111237 -8.209163 36,025 192 420 0
2020-02-21 12:23:09 GMT 51.118080 -8.206863 36,000 192 420 0
2020-02-21 12:23:06 GMT 51.124924 -8.204560 36,000 192 420 64
2020-02-21 12:23:01 GMT 51.132511 -8.202057 36,000 192 420 0
2020-02-21 12:22:58 GMT 51.137260 -8.200455 36,025 192 420 0
2020-02-21 12:22:55 GMT 51.142754 -8.198624 36,025 192 420 0
2020-02-21 12:22:50 GMT 51.151691 -8.195648 36,000 192 420 0
2020-02-21 12:22:47 GMT 51.159302 -8.193054 36,000 192 420 0
2020-02-21 12:22:42 GMT 51.169708 -8.189545 36,025 192 420 0
2020-02-21 12:22:38 GMT 51.181091 -8.185705 36,000 192 420 0
2020-02-21 12:22:30 GMT 51.189632 -8.182831 36,025 192 420 0
2020-02-21 12:22:27 GMT 51.195869 -8.180771 36,025 192 419 0
2020-02-21 12:22:24 GMT 51.200993 -8.179016 36,025 192 419 0
2020-02-21 12:22:21 GMT 51.209183 -8.176346 36,025 192 419 0
2020-02-21 12:22:18 GMT 51.213886 -8.174744 36,025 192 419 0
2020-02-21 12:22:14 GMT 51.220001 -8.172715 36,025 192 419 0
2020-02-21 12:22:10 GMT 51.228149 -8.170042 36,025 192 419 0
2020-02-21 12:22:07 GMT 51.234230 -8.168030 36,025 192 419 0
2020-02-21 12:22:00 GMT 51.247696 -8.163584 36,000 192 419 -64
2020-02-21 12:21:57 GMT 51.252411 -8.162025 36,000 193 418 0
2020-02-21 12:21:54 GMT 51.259048 -8.159873 36,000 192 418 0
2020-02-21 12:21:50 GMT 51.266464 -8.157349 36,000 192 418 0
2020-02-21 12:21:47 GMT 51.271179 -8.155790 36,025 192 418 64
2020-02-21 12:21:43 GMT 51.278732 -8.153266 36,000 192 418 0
2020-02-21 12:21:40 GMT 51.285389 -8.151093 36,000 192 418 0
2020-02-21 12:21:37 GMT 51.290680 -8.149332 36,000 192 418 0
2020-02-21 12:21:34 GMT 51.297318 -8.147105 36,000 192 418 0
2020-02-21 12:21:31 GMT 51.301300 -8.145768 36,000 192 418 -64
2020-02-21 12:21:28 GMT 51.314346 -8.141403 36,000 192 418 -64
2020-02-21 12:21:25 GMT 51.314346 -8.141403 36,025 192 418 0
2020-02-21 12:21:21 GMT 51.321167 -8.139162 36,025 192 418 0
2020-02-21 12:21:17 GMT 51.328903 -8.136564 36,000 192 417 0
2020-02-21 12:21:14 GMT 51.335712 -8.134308 36,025 192 417 0
2020-02-21 12:21:06 GMT 51.348541 -8.129957 36,000 192 417 0
2020-02-21 12:21:03 GMT 51.354584 -8.127953 36,025 192 417 0
2020-02-21 12:21:00 GMT 51.363457 -8.124924 36,025 192 417 0
2020-02-21 12:20:57 GMT 51.367081 -8.123722 36,025 192 417 0
2020-02-21 12:20:52 GMT 51.374817 -8.121123 36,025 193 418 0
2020-02-21 12:20:49 GMT 51.381409 -8.118896 36,025 193 417 0
2020-02-21 12:20:46 GMT 51.386688 -8.117065 36,025 193 417 0
2020-02-21 12:20:43 GMT 51.393436 -8.114777 36,025 192 416 64
2020-02-21 12:20:39 GMT 51.401165 -8.112183 36,000 193 417 0
2020-02-21 12:20:36 GMT 51.405682 -8.110657 36,000 193 417 0
2020-02-21 12:20:32 GMT 51.414387 -8.107758 36,000 192 416 0
2020-02-21 12:20:29 GMT 51.420017 -8.105774 36,000 192 416 0
2020-02-21 12:20:23 GMT 51.432266 -8.101675 36,000 192 416 0
2020-02-21 12:20:19 GMT 51.438686 -8.099518 36,000 192 416 0
2020-02-21 12:20:16 GMT 51.443207 -8.097963 36,000 192 416 0
2020-02-21 12:20:12 GMT 51.451309 -8.095216 36,000 192 416 0
2020-02-21 12:20:06 GMT 51.462753 -8.091356 36,000 192 416 0
2020-02-21 12:20:02 GMT 51.470482 -8.088760 36,025 192 415 0
2020-02-21 12:19:59 GMT 51.481384 -8.085047 36,025 192 415 0
2020-02-21 12:19:50 GMT 51.492279 -8.081335 36,025 192 415 0
2020-02-21 12:19:46 GMT 51.500015 -8.078737 36,025 192 415 0
2020-02-21 12:19:40 GMT 51.511642 -8.074803 36,025 192 415 0
2020-02-21 12:19:36 GMT 51.519516 -8.072205 36,025 192 415 -64
2020-02-21 12:19:31 GMT 51.528763 -8.069087 36,025 192 415 0
2020-02-21 12:19:28 GMT 51.533978 -8.067322 36,025 192 415 0
2020-02-21 12:19:25 GMT 51.538681 -8.065796 36,025 192 415 0
2020-02-21 12:19:22 GMT 51.550323 -8.061812 36,025 192 415 0
2020-02-21 12:19:16 GMT 51.557255 -8.059464 36,000 192 415 0
2020-02-21 12:19:11 GMT 51.566051 -8.056488 36,000 192 415 0
2020-02-21 12:19:05 GMT 51.576202 -8.053055 36,000 192 415 0
2020-02-21 12:18:59 GMT 51.587791 -8.049164 36,025 192 415 0
2020-02-21 12:18:55 GMT 51.595520 -8.046494 36,025 192 415 0
2020-02-21 12:18:49 GMT 51.607113 -8.042603 36,000 192 415 0
2020-02-21 12:18:45 GMT 51.614048 -8.040237 36,025 192 415 64
2020-02-21 12:18:40 GMT 51.630714 -8.034592 36,000 192 414 0
2020-02-21 12:18:34 GMT 51.634460 -8.033307 36,000 192 415 -64
2020-02-21 12:18:29 GMT 51.645309 -8.029595 36,025 192 414 0
2020-02-21 12:18:25 GMT 51.665115 -8.022919 36,025 192 409 0
2020-02-21 12:18:18 GMT 51.665115 -8.022919 36,000 193 413 0
2020-02-21 12:18:15 GMT 51.670715 -8.020985 36,025 193 413 0
2020-02-21 12:18:09 GMT 51.690117 -8.014374 36,025 193 413 64
2020-02-21 12:18:05 GMT 51.690117 -8.014374 36,025 192 412 0
2020-02-21 12:17:58 GMT 51.702576 -8.010072 36,025 193 412 0
2020-02-21 12:17:55 GMT 51.708176 -8.008194 36,025 192 411 0
2020-02-21 12:17:49 GMT 51.718979 -8.004532 36,025 192 411 0
2020-02-21 12:17:45 GMT 51.727123 -8.001709 36,025 193 412 0
2020-02-21 12:17:40 GMT 51.737183 -7.998270 36,025 193 411 0
2020-02-21 12:17:35 GMT 51.745884 -7.995300 36,025 193 411 0
2020-02-21 12:17:29 GMT 51.755905 -7.991811 36,025 193 410 0
2020-02-21 12:17:24 GMT 51.764786 -7.988768 36,025 193 410 0
2020-02-21 12:17:17 GMT 51.779984 -7.983497 36,025 192 409 -64
2020-02-21 12:17:14 GMT 51.783684 -7.982254 36,025 192 409 0
2020-02-21 12:17:07 GMT 51.797195 -7.977633 36,000 192 409 0
2020-02-21 12:17:04 GMT 51.802780 -7.975703 36,000 192 409 0
2020-02-21 12:16:57 GMT 51.815529 -7.971344 36,000 192 409 0
2020-02-21 12:16:54 GMT 51.820881 -7.969513 36,000 192 409 0
2020-02-21 12:16:46 GMT 51.838478 -7.963562 36,000 192 409 0
2020-02-21 12:16:42 GMT 51.842880 -7.962044 36,000 192 409 0
2020-02-21 12:16:37 GMT 51.852303 -7.958832 36,000 192 409 0
2020-02-21 12:16:33 GMT 51.859890 -7.956238 36,000 192 408 0
2020-02-21 12:16:28 GMT 51.870804 -7.952543 36,025 193 409 0
2020-02-21 12:16:24 GMT 51.876698 -7.950439 36,025 193 409 0
2020-02-21 12:16:18 GMT 51.887962 -7.946548 36,025 192 408 0
2020-02-21 12:16:14 GMT 51.895691 -7.943900 36,025 192 408 0
2020-02-21 12:16:08 GMT 51.906601 -7.940140 36,000 192 408 0
2020-02-21 12:16:05 GMT 51.911774 -7.938385 36,000 192 408 0
2020-02-21 12:16:02 GMT 51.916218 -7.936837 36,000 192 408 0
2020-02-21 12:15:57 GMT 51.926369 -7.933306 36,000 192 409 64
2020-02-21 12:15:54 GMT 51.932465 -7.931187 36,000 192 409 0
2020-02-21 12:15:51 GMT 51.937271 -7.929535 36,000 192 409 0
2020-02-21 12:15:48 GMT 51.949272 -7.925380 36,000 193 410 0
2020-02-21 12:15:45 GMT 51.954483 -7.923660 36,025 193 409 0
2020-02-21 12:15:35 GMT 51.967941 -7.918930 36,000 193 409 0
2020-02-21 12:15:32 GMT 51.973106 -7.917140 36,000 193 409 0
2020-02-21 12:15:25 GMT 51.986618 -7.912369 36,000 193 409 0
2020-02-21 12:15:21 GMT 51.992340 -7.910385 36,025 192 408 0
2020-02-21 12:15:17 GMT 52.001724 -7.907104 36,025 193 409 0
2020-02-21 12:15:13 GMT 52.007275 -7.905212 36,025 192 408 0
2020-02-21 12:15:10 GMT 52.012630 -7.903329 36,025 192 409 0
2020-02-21 12:15:07 GMT 52.019470 -7.900975 36,025 192 409 0
2020-02-21 12:15:04 GMT 52.024658 -7.899246 36,025 192 409 0
2020-02-21 12:15:01 GMT 52.031670 -7.896816 36,025 192 408 0
2020-02-21 12:14:56 GMT 52.038712 -7.894440 36,000 192 408 64
2020-02-21 12:14:53 GMT 52.045357 -7.892107 36,025 192 408 64
2020-02-21 12:14:50 GMT 52.050156 -7.890472 36,000 192 408 64
2020-02-21 12:14:47 GMT 52.063797 -7.885742 36,000 192 408 0
2020-02-21 12:14:43 GMT 52.063797 -7.885742 36,000 192 408 0
2020-02-21 12:14:39 GMT 52.070076 -7.883554 36,000 192 408 0
2020-02-21 12:14:36 GMT 52.075428 -7.881749 36,025 192 408 0
2020-02-21 12:14:33 GMT 52.080963 -7.879868 36,025 193 409 0
2020-02-21 12:14:30 GMT 52.095749 -7.874756 36,025 193 406 0
2020-02-21 12:14:26 GMT 52.095749 -7.874756 36,025 192 408 0
2020-02-21 12:14:22 GMT 52.101105 -7.872925 36,025 192 408 0
2020-02-21 12:14:19 GMT 52.107365 -7.870684 36,025 192 408 0
2020-02-21 12:14:16 GMT 52.119324 -7.866592 36,025 193 409 0
2020-02-21 12:14:12 GMT 52.119324 -7.866592 36,000 193 409 0
2020-02-21 12:14:09 GMT 52.126354 -7.864092 36,000 193 409 64
2020-02-21 12:14:05 GMT 52.138878 -7.859776 36,000 193 409 64
2020-02-21 12:14:02 GMT 52.138878 -7.859776 36,000 193 409 0
2020-02-21 12:13:59 GMT 52.145721 -7.857422 36,000 192 408 0
2020-02-21 12:13:56 GMT 52.151230 -7.855453 36,000 192 408 0
2020-02-21 12:13:52 GMT 52.157318 -7.853394 36,025 192 408 -64
2020-02-21 12:13:48 GMT 52.164715 -7.850830 36,025 192 408 -64
2020-02-21 12:13:44 GMT 52.173386 -7.847824 36,025 192 408 -64
2020-02-21 12:13:41 GMT 52.176910 -7.846592 36,025 192 408 -64
2020-02-21 12:13:38 GMT 52.183548 -7.844315 36,025 193 407 -64
2020-02-21 12:13:35 GMT 52.189224 -7.842255 36,025 193 407 -64
2020-02-21 12:13:31 GMT 52.195679 -7.840042 36,025 193 407 -64
2020-02-21 12:13:26 GMT 52.204147 -7.837143 36,025 193 407 0
2020-02-21 12:13:23 GMT 52.211334 -7.834625 36,025 193 407 0
2020-02-21 12:13:16 GMT 52.223652 -7.830348 36,025 193 406 0
2020-02-21 12:13:12 GMT 52.231377 -7.827680 36,025 193 406 0
2020-02-21 12:13:06 GMT 52.241684 -7.824097 36,000 193 406 0
2020-02-21 12:13:03 GMT 52.247406 -7.822113 36,000 193 406 0
2020-02-21 12:13:00 GMT 52.253258 -7.820068 36,000 193 406 0
2020-02-21 12:12:55 GMT 52.263546 -7.816459 36,000 193 407 0
2020-02-21 12:12:51 GMT 52.282494 -7.809788 36,000 193 407 0
2020-02-21 12:12:44 GMT 52.282494 -7.809788 36,000 193 408 0
2020-02-21 12:12:41 GMT 52.288219 -7.807826 36,000 193 408 0
2020-02-21 12:12:37 GMT 52.295197 -7.805328 36,000 193 409 64
2020-02-21 12:12:34 GMT 52.300919 -7.803345 36,000 193 408 64
2020-02-21 12:12:31 GMT 52.306049 -7.801470 36,000 193 408 64
2020-02-21 12:12:28 GMT 52.311584 -7.799530 36,025 193 405 0
2020-02-21 12:12:24 GMT 52.319687 -7.796683 36,000 193 408 0
2020-02-21 12:12:20 GMT 52.327240 -7.794037 36,025 193 409 0
2020-02-21 12:12:16 GMT 52.334427 -7.791443 36,000 193 409 0
2020-02-21 12:12:13 GMT 52.340149 -7.789459 36,025 193 409 0
2020-02-21 12:12:10 GMT 52.346970 -7.787018 36,000 193 409 64
2020-02-21 12:12:07 GMT 52.352509 -7.785069 36,000 193 409 0
2020-02-21 12:12:03 GMT 52.358978 -7.782793 36,000 193 409 0
2020-02-21 12:11:59 GMT 52.366146 -7.780204 36,000 193 409 0
2020-02-21 12:11:53 GMT 52.381836 -7.774632 36,025 193 409 0
2020-02-21 12:11:50 GMT 52.381836 -7.774632 36,025 193 408 0
2020-02-21 12:11:44 GMT 52.393986 -7.770394 36,025 193 408 0
2020-02-21 12:11:41 GMT 52.398594 -7.768747 36,025 193 408 0
2020-02-21 12:11:36 GMT 52.407806 -7.765503 36,025 193 408 0
2020-02-21 12:11:33 GMT 52.415352 -7.762861 36,025 193 408 0
2020-02-21 12:11:29 GMT 52.420708 -7.760978 36,025 193 408 0
2020-02-21 12:11:22 GMT 52.433395 -7.756500 36,025 193 406 -64
2020-02-21 12:11:19 GMT 52.438705 -7.754669 36,025 193 406 -64
2020-02-21 12:11:16 GMT 52.444588 -7.752581 36,025 193 405 -64
2020-02-21 12:11:13 GMT 52.451385 -7.750227 36,025 193 405 -64
2020-02-21 12:11:10 GMT 52.455250 -7.748893 36,025 193 405 -64
2020-02-21 12:11:03 GMT 52.469913 -7.743713 36,025 193 405 0
2020-02-21 12:11:00 GMT 52.474274 -7.742157 36,025 193 405 0
2020-02-21 12:10:53 GMT 52.487274 -7.737579 36,025 193 405 0
2020-02-21 12:10:50 GMT 52.506134 -7.731018 36,025 193 405 0
2020-02-21 12:10:43 GMT 52.506134 -7.731018 36,025 193 405 0
2020-02-21 12:10:40 GMT 52.511078 -7.729263 36,025 193 405 0
2020-02-21 12:10:35 GMT 52.520187 -7.726059 36,025 193 405 0
2020-02-21 12:10:32 GMT 52.525314 -7.724228 36,000 193 405 0
2020-02-21 12:10:29 GMT 52.530430 -7.722447 36,000 193 405 0
2020-02-21 12:10:25 GMT 52.538296 -7.719700 36,000 193 405 0
2020-02-21 12:10:22 GMT 52.548214 -7.716169 36,000 193 405 0
2020-02-21 12:10:12 GMT 52.562134 -7.711225 36,000 193 406 0
2020-02-21 12:10:09 GMT 52.566692 -7.709656 36,000 193 406 64
2020-02-21 12:10:04 GMT 52.576218 -7.706299 36,000 193 406 0
2020-02-21 12:10:01 GMT 52.581894 -7.704239 36,000 193 406 0
2020-02-21 12:09:58 GMT 52.587204 -7.702408 36,025 193 406 0
2020-02-21 12:09:52 GMT 52.598766 -7.698277 36,000 193 406 0
2020-02-21 12:09:46 GMT 52.608311 -7.694903 36,000 193 406 0
2020-02-21 12:09:43 GMT 52.615265 -7.692490 36,000 193 406 0
2020-02-21 12:09:40 GMT 52.619293 -7.691040 36,000 193 406 0
2020-02-21 12:09:37 GMT 52.624790 -7.689096 36,000 193 405 0
2020-02-21 12:09:31 GMT 52.637218 -7.684623 36,000 193 405 0
2020-02-21 12:09:27 GMT 52.644699 -7.681961 36,025 193 405 0
2020-02-21 12:09:24 GMT 52.650375 -7.679977 36,025 193 405 0
2020-02-21 12:09:20 GMT 52.657150 -7.677536 36,025 193 405 0
2020-02-21 12:09:17 GMT 52.663513 -7.675247 36,025 193 404 0
2020-02-21 12:09:13 GMT 52.670654 -7.672729 36,025 193 404 0
2020-02-21 12:09:09 GMT 52.683014 -7.668304 36,025 193 403 0
2020-02-21 12:09:03 GMT 52.687962 -7.666574 36,025 193 403 0
2020-02-21 12:09:00 GMT 52.694504 -7.664261 36,025 193 403 0
2020-02-21 12:08:57 GMT 52.698856 -7.662650 36,025 193 403 0
2020-02-21 12:08:53 GMT 52.705933 -7.660139 36,025 193 402 0
2020-02-21 12:08:49 GMT 52.713940 -7.657235 36,025 193 402 0
2020-02-21 12:08:46 GMT 52.718452 -7.655666 36,025 193 402 0
2020-02-21 12:08:43 GMT 52.723343 -7.653861 36,025 193 402 0
2020-02-21 12:08:40 GMT 52.736004 -7.649309 36,025 193 401 0
2020-02-21 12:08:36 GMT 52.736004 -7.649309 36,025 193 401 -64
2020-02-21 12:08:32 GMT 52.742889 -7.646866 35,950 193 396 512
2020-02-21 12:08:29 GMT 52.755569 -7.642365 36,025 193 401 -128
2020-02-21 12:08:26 GMT 52.755569 -7.642365 36,025 193 400 -128
2020-02-21 12:08:19 GMT 52.767288 -7.638166 36,025 193 399 128
2020-02-21 12:08:16 GMT 52.773758 -7.635812 36,000 193 399 448
2020-02-21 12:08:09 GMT 52.786880 -7.631073 35,950 193 398 448
2020-02-21 12:08:06 GMT 52.792465 -7.629089 35,925 193 396 448
2020-02-21 12:08:03 GMT 52.795853 -7.627869 35,900 193 396 448
2020-02-21 12:08:00 GMT 52.806244 -7.624207 35,875 193 396 448
2020-02-21 12:07:53 GMT 52.823196 -7.618077 35,750 193 395 640
2020-02-21 12:07:48 GMT 52.823196 -7.618077 35,775 193 395 512
2020-02-21 12:07:45 GMT 52.829086 -7.615967 35,775 193 395 576
2020-02-21 12:07:42 GMT 52.832977 -7.614594 35,725 193 395 640
2020-02-21 12:07:38 GMT 52.840302 -7.611923 35,675 193 395 704
2020-02-21 12:07:35 GMT 52.848129 -7.609100 35,625 193 395 704
2020-02-21 12:07:32 GMT 52.852058 -7.607718 35,625 193 395 704
2020-02-21 12:07:28 GMT 52.859322 -7.605050 35,575 193 395 768
2020-02-21 12:07:25 GMT 52.864655 -7.603149 35,500 193 395 832
2020-02-21 12:07:19 GMT 52.873940 -7.599792 35,450 193 395 832
2020-02-21 12:07:16 GMT 52.879433 -7.597752 35,425 193 395 832
2020-02-21 12:07:13 GMT 52.885857 -7.595476 35,375 193 395 832
2020-02-21 12:07:10 GMT 52.892258 -7.593155 35,300 193 395 896
2020-02-21 12:07:07 GMT 52.898331 -7.590925 35,250 193 395 896
2020-02-21 12:07:02 GMT 52.909737 -7.586766 35,050 193 396 896
2020-02-21 12:06:59 GMT 52.909737 -7.586766 35,175 193 396 896
2020-02-21 12:06:56 GMT 52.915466 -7.584763 35,075 193 396 832
2020-02-21 12:06:52 GMT 52.923477 -7.581787 35,075 193 396 832
2020-02-21 12:06:49 GMT 52.934006 -7.577972 35,000 193 396 896
2020-02-21 12:06:46 GMT 52.940964 -7.575455 34,875 193 396 896
2020-02-21 12:06:42 GMT 52.940964 -7.575455 34,925 193 396 960
2020-02-21 12:06:39 GMT 52.946140 -7.573582 34,850 193 396 960
2020-02-21 12:06:35 GMT 52.953461 -7.570953 34,825 193 396 960
2020-02-21 12:06:32 GMT 52.960621 -7.568403 34,700 193 396 960
2020-02-21 12:06:28 GMT 52.967056 -7.566071 34,700 193 396 960
2020-02-21 12:06:25 GMT 52.970810 -7.564697 34,650 193 396 1152
2020-02-21 12:06:22 GMT 52.976349 -7.562714 34,550 193 396 1152
2020-02-21 12:06:19 GMT 52.982407 -7.560477 34,525 193 397 1152
2020-02-21 12:06:15 GMT 52.988525 -7.558289 34,450 193 398 1216
2020-02-21 12:06:11 GMT 52.995529 -7.555771 34,300 193 398 1216
2020-02-21 12:06:08 GMT 53.000515 -7.553964 34,325 193 398 1216
2020-02-21 12:06:05 GMT 53.007523 -7.551422 34,250 193 398 1216
2020-02-21 12:06:02 GMT 53.013828 -7.549177 34,175 193 399 1216
2020-02-21 12:05:59 GMT 53.017971 -7.547686 34,100 193 399 1216
2020-02-21 12:05:56 GMT 53.022114 -7.546195 34,075 193 399 1280
2020-02-21 12:05:49 GMT 53.038284 -7.540283 33,725 193 401 1216
2020-02-21 12:05:43 GMT 53.052017 -7.535248 33,750 193 401 1152
2020-02-21 12:05:40 GMT 53.052017 -7.535248 33,675 193 401 1152
2020-02-21 12:05:34 GMT 53.070480 -7.528538 33,525 193 402 1216
2020-02-21 12:05:29 GMT 53.073029 -7.527618 33,525 193 412 1408
2020-02-21 12:05:26 GMT 53.076813 -7.526263 33,450 193 402 1152
2020-02-21 12:05:23 GMT 53.082275 -7.524261 33,400 193 402 1216
2020-02-21 12:05:20 GMT 53.088776 -7.521946 33,350 193 402 1216
2020-02-21 12:05:16 GMT 53.094955 -7.519684 33,225 193 402 1216
2020-02-21 12:05:13 GMT 53.100220 -7.517787 33,150 193 403 1216
2020-02-21 12:05:09 GMT 53.109467 -7.514413 33,050 193 403 1216
2020-02-21 12:05:04 GMT 53.117641 -7.511417 33,025 193 403 1280
2020-02-21 12:05:00 GMT 53.125671 -7.508449 32,900 193 404 1280
2020-02-21 12:04:56 GMT 53.132210 -7.506086 32,775 193 404 1216
2020-02-21 12:04:51 GMT 53.147919 -7.500366 32,650 193 411 1408
2020-02-21 12:04:47 GMT 53.147919 -7.500366 32,650 193 405 1280
2020-02-21 12:04:44 GMT 53.153183 -7.498483 32,600 193 405 1280
2020-02-21 12:04:40 GMT 53.160690 -7.495736 32,375 193 405 1280
2020-02-21 12:04:37 GMT 53.168011 -7.493080 32,425 193 405 1280
2020-02-21 12:04:29 GMT 53.182663 -7.487732 32,250 193 406 1408
2020-02-21 12:04:25 GMT 53.188122 -7.485729 32,050 193 407 1408
2020-02-21 12:04:20 GMT 53.196579 -7.482631 32,050 193 407 1472
2020-02-21 12:04:17 GMT 53.203201 -7.480155 31,925 193 409 1536
2020-02-21 12:04:13 GMT 53.212421 -7.476843 31,850 193 409 1472
2020-02-21 12:04:10 GMT 53.222214 -7.473293 31,175 193 411 1408
2020-02-21 12:04:07 GMT 53.222214 -7.473293 31,725 193 410 1408
2020-02-21 12:04:04 GMT 53.225876 -7.471880 31,475 193 411 1472
2020-02-21 12:04:01 GMT 53.233089 -7.469249 31,550 193 410 1472
2020-02-21 12:03:57 GMT 53.240524 -7.466544 31,475 193 411 1408
2020-02-21 12:03:54 GMT 53.250919 -7.462787 31,325 193 412 1472
2020-02-21 12:03:51 GMT 53.258514 -7.460031 31,175 193 412 1408
2020-02-21 12:03:48 GMT 53.258514 -7.460031 31,225 193 412 1408
2020-02-21 12:03:44 GMT 53.264465 -7.457859 31,175 193 412 1408
2020-02-21 12:03:39 GMT 53.274895 -7.453981 31,000 193 413 1408
2020-02-21 12:03:36 GMT 53.278805 -7.452608 31,000 193 413 1408
2020-02-21 12:03:33 GMT 53.284763 -7.450427 30,850 193 413 1472
2020-02-21 12:03:30 GMT 53.290558 -7.448260 30,800 193 413 1472
2020-02-21 12:03:27 GMT 53.296913 -7.445903 30,750 193 413 1536
2020-02-21 12:03:22 GMT 53.306038 -7.442591 30,575 193 415 1408
2020-02-21 12:03:19 GMT 53.316509 -7.438714 30,500 193 414 1536
2020-02-21 12:03:16 GMT 53.316509 -7.438714 30,475 193 415 1472
2020-02-21 12:03:12 GMT 53.324749 -7.435644 30,425 193 415 1280
2020-02-21 12:03:09 GMT 53.328476 -7.434271 30,350 193 415 960
2020-02-21 12:03:06 GMT 53.343277 -7.428777 30,300 193 414 640
2020-02-21 12:03:02 GMT 53.343277 -7.428777 30,275 193 414 640
2020-02-21 12:02:59 GMT 53.347778 -7.427150 30,250 193 415 576
2020-02-21 12:02:55 GMT 53.354691 -7.424561 30,200 193 415 576
2020-02-21 12:02:52 GMT 53.360504 -7.422442 30,175 193 415 576
2020-02-21 12:02:49 GMT 53.367252 -7.419891 30,150 193 415 576
2020-02-21 12:02:46 GMT 53.374187 -7.417387 30,100 193 416 512
2020-02-21 12:02:43 GMT 53.377762 -7.416007 30,100 193 416 512
2020-02-21 12:02:40 GMT 53.384537 -7.413574 30,075 193 417 512
2020-02-21 12:02:37 GMT 53.389984 -7.411534 30,025 193 418 448
2020-02-21 12:02:34 GMT 53.396393 -7.409180 29,975 193 419 320
2020-02-21 12:02:30 GMT 53.403580 -7.406512 29,975 193 421 960
2020-02-21 12:02:26 GMT 53.410995 -7.403843 29,900 193 421 1280
2020-02-21 12:02:19 GMT 53.423538 -7.399214 29,775 193 423 1984
2020-02-21 12:02:16 GMT 53.429260 -7.397111 29,675 193 424 1984
2020-02-21 12:02:13 GMT 53.436951 -7.394270 29,625 193 424 1920
2020-02-21 12:02:10 GMT 53.441711 -7.392543 28,900 193 428 1472
2020-02-21 12:02:07 GMT 53.447510 -7.390406 29,375 193 427 1728
2020-02-21 12:02:01 GMT 53.458263 -7.386448 29,225 193 428 1472
2020-02-21 12:01:58 GMT 53.464642 -7.384105 29,125 193 428 1408
2020-02-21 12:01:55 GMT 53.470047 -7.382106 29,075 193 428 1472
2020-02-21 12:01:52 GMT 53.474487 -7.380458 29,025 193 428 1472
2020-02-21 12:01:49 GMT 53.480839 -7.378046 28,900 193 428 1472
2020-02-21 12:01:45 GMT 53.488770 -7.375122 28,800 193 428 1536
2020-02-21 12:01:42 GMT 53.502274 -7.370178 28,750 193 428 1536
2020-02-21 12:01:39 GMT 53.502274 -7.370178 28,675 193 428 1536
2020-02-21 12:01:36 GMT 53.506302 -7.368609 28,575 193 429 1600
2020-02-21 12:01:32 GMT 53.514999 -7.365391 28,500 193 429 1536
2020-02-21 12:01:29 GMT 53.520630 -7.363351 28,250 193 429 1536
2020-02-21 12:01:26 GMT 53.525669 -7.361486 28,325 193 429 1536
2020-02-21 12:01:23 GMT 53.531479 -7.359270 28,275 193 429 1536
2020-02-21 12:01:20 GMT 53.536697 -7.357387 28,175 193 429 1536
2020-02-21 12:01:17 GMT 53.543640 -7.354781 28,125 193 430 1536
2020-02-21 12:01:14 GMT 53.548096 -7.353149 27,975 193 430 1344
2020-02-21 12:01:11 GMT 53.556244 -7.350089 27,975 193 429 1408
2020-02-21 12:01:05 GMT 53.566910 -7.346165 27,850 193 430 1536
2020-02-21 12:01:02 GMT 53.572689 -7.344037 27,675 193 430 1408
2020-02-21 12:00:59 GMT 53.578491 -7.341849 27,675 193 429 1408
2020-02-21 12:00:54 GMT 53.598476 -7.334424 27,500 193 429 1664
2020-02-21 12:00:49 GMT 53.598476 -7.334424 27,400 193 430 1728
2020-02-21 12:00:46 GMT 53.603878 -7.332405 27,325 193 430 1728
2020-02-21 12:00:40 GMT 53.615517 -7.328123 27,100 193 430 1664
2020-02-21 12:00:37 GMT 53.621338 -7.325919 27,075 193 430 1664
2020-02-21 12:00:33 GMT 53.627899 -7.323438 26,975 193 430 1792
2020-02-21 12:00:30 GMT 53.634693 -7.320934 26,875 193 431 1728
2020-02-21 12:00:27 GMT 53.640701 -7.318672 26,750 193 431 1536
2020-02-21 12:00:24 GMT 53.646332 -7.316571 26,700 193 431 1472
2020-02-21 12:00:21 GMT 53.652386 -7.314310 26,625 193 431 1280
2020-02-21 12:00:18 GMT 53.657410 -7.312422 26,450 193 429 1280
2020-02-21 12:00:15 GMT 53.663040 -7.310303 26,525 193 430 1024
2020-02-21 12:00:12 GMT 53.668671 -7.308184 26,500 193 429 1344
2020-02-21 12:00:09 GMT 53.674072 -7.306144 26,400 193 429 1408
2020-02-21 12:00:06 GMT 53.682785 -7.302919 26,300 193 429 1344
2020-02-21 12:00:03 GMT 53.685699 -7.301828 26,250 193 428 1344
2020-02-21 12:00:00 GMT 53.691116 -7.299850 26,150 193 428 1344
2020-02-21 11:59:57 GMT 53.699020 -7.296884 26,125 193 428 1344
2020-02-21 11:59:53 GMT 53.705750 -7.294373 26,025 193 427 1344
2020-02-21 11:59:50 GMT 53.712299 -7.291933 25,950 193 427 1280
2020-02-21 11:59:47 GMT 53.716908 -7.290237 25,850 193 426 1344
2020-02-21 11:59:44 GMT 53.722679 -7.288055 25,850 193 426 1344
2020-02-21 11:59:41 GMT 53.730011 -7.285348 25,775 193 425 1408
2020-02-21 11:59:37 GMT 53.736134 -7.283047 25,750 193 425 1408
2020-02-21 11:59:34 GMT 53.741867 -7.280875 25,575 193 425 1408
2020-02-21 11:59:31 GMT 53.747635 -7.278756 25,525 193 425 1408
2020-02-21 11:59:27 GMT 53.756790 -7.275303 25,425 193 424 1408
2020-02-21 11:59:23 GMT 53.763885 -7.272714 25,175 193 423 1472
2020-02-21 11:59:20 GMT 53.769012 -7.270752 25,250 193 423 1472
2020-02-21 11:59:17 GMT 53.775143 -7.268506 25,050 193 421 1472
2020-02-21 11:59:13 GMT 53.783157 -7.265494 25,125 193 422 1536
2020-02-21 11:59:10 GMT 53.796463 -7.260509 25,000 193 421 1408
2020-02-21 11:59:07 GMT 53.796463 -7.260509 24,925 193 420 1408
2020-02-21 11:59:04 GMT 53.805775 -7.257035 24,850 193 420 1472
2020-02-21 11:59:01 GMT 53.805775 -7.257035 24,800 193 420 1472
2020-02-21 11:58:57 GMT 53.813324 -7.254194 24,450 193 419 1600
2020-02-21 11:58:54 GMT 53.818253 -7.252350 24,650 193 419 1472
2020-02-21 11:58:51 GMT 53.823372 -7.250411 24,600 193 419 1472
2020-02-21 11:58:48 GMT 53.830353 -7.247745 24,475 193 419 1536
2020-02-21 11:58:45 GMT 53.836029 -7.245640 24,400 193 419 1600
2020-02-21 11:58:42 GMT 53.841713 -7.243464 24,325 193 419 1600
2020-02-21 11:58:39 GMT 53.846973 -7.241525 24,250 193 418 1408
2020-02-21 11:58:36 GMT 53.852467 -7.239425 24,100 193 417 1408
2020-02-21 11:58:32 GMT 53.860382 -7.236436 24,075 193 417 1408
2020-02-21 11:58:28 GMT 53.867687 -7.233689 23,950 193 416 1536
2020-02-21 11:58:25 GMT 53.873135 -7.231589 23,900 193 415 1536
2020-02-21 11:58:22 GMT 53.886635 -7.226419 23,725 193 415 1536
2020-02-21 11:58:18 GMT 53.886635 -7.226419 23,725 193 415 1536
2020-02-21 11:58:15 GMT 53.892406 -7.224238 23,675 193 415 1536
2020-02-21 11:58:11 GMT 53.899155 -7.221706 23,575 193 414 1472
2020-02-21 11:58:08 GMT 53.904743 -7.219552 23,525 193 414 1472
2020-02-21 11:58:05 GMT 53.912384 -7.216605 23,400 193 413 1536
2020-02-21 11:58:01 GMT 53.918152 -7.214408 23,350 193 412 1600
2020-02-21 11:57:57 GMT 53.927628 -7.210798 23,175 193 411 1536
2020-02-21 11:57:54 GMT 53.931107 -7.209464 22,950 193 410 1536
2020-02-21 11:57:51 GMT 53.936493 -7.207435 23,050 193 410 1472
2020-02-21 11:57:48 GMT 53.942047 -7.205305 22,975 193 410 1600
2020-02-21 11:57:45 GMT 53.948318 -7.202951 22,825 193 409 1728
2020-02-21 11:57:41 GMT 53.954819 -7.200596 22,775 193 407 1728
2020-02-21 11:57:38 GMT 53.960541 -7.198478 22,700 196 403 1600
2020-02-21 11:57:34 GMT 53.968567 -7.194995 22,600 199 399 1664
2020-02-21 11:57:31 GMT 53.973907 -7.192357 22,500 200 397 1728
2020-02-21 11:57:27 GMT 53.982815 -7.187078 22,350 202 395 1728
2020-02-21 11:57:24 GMT 53.985188 -7.185463 22,225 204 393 1664
2020-02-21 11:57:21 GMT 53.990250 -7.181920 22,200 212 383 1664
2020-02-21 11:57:18 GMT 53.995522 -7.177788 22,200 207 389 1536
2020-02-21 11:57:15 GMT 54.001621 -7.172537 22,050 211 384 1600
2020-02-21 11:57:10 GMT 54.008514 -7.166068 21,975 211 383 1664
2020-02-21 11:57:07 GMT 54.012589 -7.161752 21,850 214 381 1792
2020-02-21 11:57:04 GMT 54.023312 -7.149191 21,700 217 378 1472
2020-02-21 11:57:00 GMT 54.023312 -7.149191 21,650 219 376 1408
2020-02-21 11:56:55 GMT 54.030716 -7.139013 21,475 221 373 1856
2020-02-21 11:56:51 GMT 54.035324 -7.132389 21,400 221 373 1856
2020-02-21 11:56:48 GMT 54.042957 -7.121322 21,175 221 372 1600
2020-02-21 11:56:42 GMT 54.047379 -7.114903 21,175 221 372 1600
2020-02-21 11:56:39 GMT 54.049713 -7.111450 20,975 221 368 1792
2020-02-21 11:56:36 GMT 54.055061 -7.103711 20,900 221 370 1728
2020-02-21 11:56:33 GMT 54.062073 -7.093480 20,800 221 368 1856
2020-02-21 11:56:27 GMT 54.066467 -7.087123 20,725 221 368 1792
2020-02-21 11:56:23 GMT 54.071503 -7.079747 20,625 221 367 1664
2020-02-21 11:56:20 GMT 54.079193 -7.068525 20,225 221 363 1728
2020-02-21 11:56:17 GMT 54.079193 -7.068525 20,425 221 365 1792
2020-02-21 11:56:13 GMT 54.084183 -7.061227 20,300 221 364 1792
2020-02-21 11:56:09 GMT 54.088623 -7.054635 20,225 221 363 1664
2020-02-21 11:56:06 GMT 54.092674 -7.048699 20,125 221 362 1600
2020-02-21 11:56:02 GMT 54.097733 -7.041295 20,050 221 360 1664
2020-02-21 11:55:59 GMT 54.101521 -7.035693 19,900 222 359 1920
2020-02-21 11:55:56 GMT 54.105789 -7.029367 19,700 222 358 1792
2020-02-21 11:55:53 GMT 54.110271 -7.022768 19,700 222 357 1728
2020-02-21 11:55:49 GMT 54.114258 -7.016811 19,375 222 353 1920
2020-02-21 11:55:46 GMT 54.118465 -7.010570 19,525 222 355 1600
2020-02-21 11:55:43 GMT 54.122562 -7.004430 19,375 222 354 1856
2020-02-21 11:55:39 GMT 54.127075 -6.997663 19,175 222 352 1856
2020-02-21 11:55:35 GMT 54.131516 -6.991071 19,225 222 352 1856
2020-02-21 11:55:32 GMT 54.135681 -6.984872 19,100 222 351 1920
2020-02-21 11:55:29 GMT 54.139320 -6.979388 18,925 222 350 2112
2020-02-21 11:55:25 GMT 54.144535 -6.971471 18,875 222 350 2112
2020-02-21 11:55:22 GMT 54.147949 -6.966431 18,750 222 350 2176
2020-02-21 11:55:18 GMT 54.151978 -6.960388 18,450 222 350 2112
2020-02-21 11:55:15 GMT 54.157291 -6.952407 18,525 222 349 2048
2020-02-21 11:55:12 GMT 54.160828 -6.947156 18,375 221 349 2176
2020-02-21 11:55:08 GMT 54.164978 -6.941005 18,250 221 349 2304
2020-02-21 11:55:04 GMT 54.169113 -6.934877 18,075 220 350 2368
2020-02-21 11:55:01 GMT 54.172932 -6.929384 17,850 220 350 2304
2020-02-21 11:54:58 GMT 54.181126 -6.917671 17,800 220 350 2240
2020-02-21 11:54:55 GMT 54.181126 -6.917671 17,650 219 351 2240
2020-02-21 11:54:51 GMT 54.185898 -6.911107 17,175 219 349 2240
2020-02-21 11:54:47 GMT 54.191833 -6.902968 17,425 219 350 2240
2020-02-21 11:54:44 GMT 54.194229 -6.899649 17,350 219 349 2240
2020-02-21 11:54:41 GMT 54.198723 -6.893436 17,175 219 349 2176
2020-02-21 11:54:38 GMT 54.201889 -6.889155 17,125 219 349 2112
2020-02-21 11:54:34 GMT 54.206543 -6.882692 17,000 219 348 2112
2020-02-21 11:54:31 GMT 54.210918 -6.876714 16,850 219 348 2304
2020-02-21 11:54:28 GMT 54.214783 -6.871383 16,775 220 347 2432
2020-02-21 11:54:25 GMT 54.218536 -6.866220 16,600 219 347 2432
2020-02-21 11:54:22 GMT 54.221996 -6.861366 16,525 219 347 2368
2020-02-21 11:54:19 GMT 54.229614 -6.850917 16,300 219 345 2112
2020-02-21 11:54:13 GMT 54.232681 -6.846601 16,225 219 344 2112
2020-02-21 11:54:10 GMT 54.237408 -6.840120 16,050 219 343 2176
2020-02-21 11:54:04 GMT 54.243668 -6.831456 15,825 219 343 2304
2020-02-21 11:54:01 GMT 54.247742 -6.825822 15,650 219 342 2496
2020-02-21 11:53:58 GMT 54.251816 -6.820234 15,600 219 342 2496
2020-02-21 11:53:54 GMT 54.255707 -6.814819 15,475 220 341 2560
2020-02-21 11:53:51 GMT 54.263580 -6.803990 15,200 219 340 2560
2020-02-21 11:53:45 GMT 54.266735 -6.799568 15,100 220 339 2432
2020-02-21 11:53:42 GMT 54.271133 -6.793474 14,300 220 339 2432
2020-02-21 11:53:39 GMT 54.276234 -6.786400 14,750 220 338 2368
2020-02-21 11:53:36 GMT 54.279770 -6.781561 14,625 220 338 2368
2020-02-21 11:53:33 GMT 54.281708 -6.778888 14,575 220 338 2368
2020-02-21 11:53:30 GMT 54.285355 -6.773820 14,300 219 337 2112
2020-02-21 11:53:26 GMT 54.291035 -6.765914 14,300 220 333 2560
2020-02-21 11:53:23 GMT 54.294525 -6.761086 12,025 220 334 2368
2020-02-21 11:53:19 GMT 54.299927 -6.753596 13,975 220 333 2560
2020-02-21 11:53:16 GMT 54.302673 -6.749767 13,850 220 333 2496
2020-02-21 11:53:13 GMT 54.306747 -6.744151 13,775 220 333 2240
2020-02-21 11:53:10 GMT 54.310772 -6.738531 13,650 219 330 1920
2020-02-21 11:53:06 GMT 54.314850 -6.732923 13,500 219 329 2176
2020-02-21 11:53:03 GMT 54.322174 -6.722825 13,400 219 329 2368
2020-02-21 11:53:00 GMT 54.322174 -6.722825 13,300 219 327 2560
2020-02-21 11:52:56 GMT 54.330872 -6.710789 13,050 219 327 2816
2020-02-21 11:52:53 GMT 54.330872 -6.710789 12,950 219 327 2688
2020-02-21 11:52:50 GMT 54.334656 -6.705572 12,825 219 326 2304
2020-02-21 11:52:45 GMT 54.339588 -6.698747 12,600 219 325 2112
2020-02-21 11:52:42 GMT 54.342613 -6.694502 12,600 219 325 2112
2020-02-21 11:52:38 GMT 54.348434 -6.686512 12,400 219 323 2112
2020-02-21 11:52:34 GMT 54.352386 -6.680980 12,275 219 322 2112
2020-02-21 11:52:30 GMT 54.356766 -6.674943 12,100 219 320 1984
2020-02-21 11:52:27 GMT 54.361176 -6.668863 12,025 219 320 1728
2020-02-21 11:52:23 GMT 54.364822 -6.663791 11,950 219 318 1536
2020-02-21 11:52:20 GMT 54.368042 -6.659330 11,850 219 315 960
2020-02-21 11:52:17 GMT 54.371567 -6.654484 11,850 219 315 960
2020-02-21 11:52:13 GMT 54.376270 -6.647894 11,725 219 308 960
2020-02-21 11:52:09 GMT 54.380035 -6.642689 11,700 219 307 960
2020-02-21 11:52:04 GMT 54.386978 -6.633162 11,600 219 302 960
2020-02-21 11:51:59 GMT 54.391171 -6.627253 11,550 219 297 896
2020-02-21 11:51:55 GMT 54.396378 -6.620071 11,475 219 294 896
2020-02-21 11:51:52 GMT 54.399445 -6.615789 11,425 219 290 960
2020-02-21 11:51:48 GMT 54.403645 -6.610024 11,375 219 286 960
2020-02-21 11:51:45 GMT 54.406540 -6.606014 11,350 219 286 960
2020-02-21 11:51:42 GMT 54.412903 -6.597128 11,275 220 280 960
2020-02-21 11:51:39 GMT 54.412903 -6.597128 11,225 220 279 960
2020-02-21 11:51:36 GMT 54.415237 -6.593897 11,150 220 274 960
2020-02-21 11:51:33 GMT 54.418404 -6.589466 11,075 220 270 960
2020-02-21 11:51:29 GMT 54.423019 -6.583072 11,075 220 269 960
2020-02-21 11:51:25 GMT 54.426270 -6.578480 10,975 220 265 1024
2020-02-21 11:51:22 GMT 54.430115 -6.573136 10,925 220 263 1024
2020-02-21 11:51:18 GMT 54.437069 -6.563332 10,850 220 258 960
2020-02-21 11:51:14 GMT 54.437069 -6.563332 10,800 220 255 960
2020-02-21 11:51:11 GMT 54.439087 -6.560534 10,775 220 253 960
2020-02-21 11:51:08 GMT 54.442108 -6.556253 10,725 220 250 1024
2020-02-21 11:51:05 GMT 54.444519 -6.552929 10,675 220 244 1088
2020-02-21 11:51:02 GMT 54.447403 -6.548767 10,625 220 245 1152
2020-02-21 11:50:59 GMT 54.453037 -6.540777 10,550 220 239 896
2020-02-21 11:50:55 GMT 54.453037 -6.540777 10,500 220 238 768
2020-02-21 11:50:52 GMT 54.456116 -6.536461 10,375 220 235 704
2020-02-21 11:50:49 GMT 54.462067 -6.528060 10,400 220 228 1408
2020-02-21 11:50:45 GMT 54.462067 -6.528060 10,275 220 227 2240
2020-02-21 11:50:41 GMT 54.465179 -6.523779 10,150 220 227 2560
2020-02-21 11:50:38 GMT 54.467377 -6.520635 10,050 220 227 2304
2020-02-21 11:50:32 GMT 54.472263 -6.513811 9,775 220 227 2240
2020-02-21 11:50:29 GMT 54.474590 -6.510481 9,725 220 227 2176
2020-02-21 11:50:25 GMT 54.477356 -6.506653 9,600 220 225 2112
2020-02-21 11:50:22 GMT 54.482738 -6.499079 9,300 220 224 2240
2020-02-21 11:50:14 GMT 54.487015 -6.493081 9,150 220 223 2304
2020-02-21 11:50:10 GMT 54.489807 -6.489123 8,625 220 223 2368
2020-02-21 11:50:07 GMT 54.492599 -6.485246 8,875 220 223 2368
2020-02-21 11:50:04 GMT 54.495392 -6.481287 8,750 220 223 2368
2020-02-21 11:50:01 GMT 54.497086 -6.478945 8,625 220 223 2304
2020-02-21 11:49:58 GMT 54.499031 -6.476274 8,500 220 222 2496
2020-02-21 11:49:55 GMT 54.501778 -6.472362 8,425 220 222 2432
2020-02-21 11:49:51 GMT 54.504959 -6.467878 8,225 220 222 2560
2020-02-21 11:49:48 GMT 54.508484 -6.462950 8,075 220 222 2560
2020-02-21 11:49:44 GMT 54.510086 -6.460688 8,000 220 223 2496
2020-02-21 11:49:41 GMT 54.513786 -6.455467 7,800 220 223 2496
2020-02-21 11:49:37 GMT 54.516582 -6.451472 7,650 220 223 2560
2020-02-21 11:49:33 GMT 54.522121 -6.443648 7,000 219 224 2688
2020-02-21 11:49:26 GMT 54.525330 -6.439119 7,175 220 223 2688
2020-02-21 11:49:22 GMT 54.527664 -6.435888 7,050 219 224 2688
2020-02-21 11:49:18 GMT 54.531616 -6.430331 6,675 220 225 2624
2020-02-21 11:49:13 GMT 54.535900 -6.424422 6,600 220 225 2560
2020-02-21 11:49:10 GMT 54.538010 -6.421509 6,350 220 225 2496
2020-02-21 11:49:06 GMT 54.540848 -6.417550 6,350 219 226 2560
2020-02-21 11:49:02 GMT 54.544418 -6.412520 6,150 219 226 2560
2020-02-21 11:48:58 GMT 54.547485 -6.408261 6,000 219 226 2496
2020-02-21 11:48:52 GMT 54.555313 -6.397455 5,625 219 224 2240
2020-02-21 11:48:46 GMT 54.556824 -6.395335 5,550 219 224 2240
2020-02-21 11:48:41 GMT 54.561924 -6.388300 5,300 219 223 2048
2020-02-21 11:48:38 GMT 54.563786 -6.385803 5,250 219 222 1984
2020-02-21 11:48:32 GMT 54.568768 -6.378895 5,050 219 220 1984
2020-02-21 11:48:28 GMT 54.571930 -6.374575 4,925 219 219 2048
2020-02-21 11:48:25 GMT 54.573761 -6.371990 4,825 220 216 1536
2020-02-21 11:48:20 GMT 54.578339 -6.365689 4,575 220 218 2048
2020-02-21 11:48:17 GMT 54.579987 -6.363346 4,325 220 216 1536
2020-02-21 11:48:14 GMT 54.582779 -6.359468 4,475 220 213 1280
2020-02-21 11:48:10 GMT 54.586037 -6.354759 4,350 220 210 1472
2020-02-21 11:48:07 GMT 54.587631 -6.352521 4,050 220 207 1344
2020-02-21 11:48:00 GMT 54.593445 -6.344201 4,150 220 201 960
2020-02-21 11:47:50 GMT 54.599899 -6.334991 4,025 220 193 1088
2020-02-21 11:47:47 GMT 54.602379 -6.331454 3,950 220 189 1088
2020-02-21 11:47:40 GMT 54.606995 -6.324894 3,850 220 183 960
2020-02-21 11:47:37 GMT 54.609009 -6.321986 3,800 219 179 960
2020-02-21 11:47:31 GMT 54.612896 -6.316639 3,625 219 173 1728
2020-02-21 11:47:28 GMT 54.617752 -6.310030 3,400 218 173 2240
2020-02-21 11:47:20 GMT 54.621826 -6.304698 3,250 217 173 1856
2020-02-21 11:47:17 GMT 54.621826 -6.304698 3,125 214 166 1280
2020-02-21 11:47:11 GMT 54.625374 -6.300326 3,025 214 166 1280
2020-02-21 11:47:08 GMT 54.627609 -6.297663 3,000 214 166 1280
2020-02-21 11:47:05 GMT 54.629238 -6.295915 2,925 213 164 1536
2020-02-21 11:47:00 GMT 54.632721 -6.292016 2,775 215 158 1408
2020-02-21 11:46:57 GMT 54.634636 -6.289923 2,725 217 156 1472
2020-02-21 11:46:49 GMT 54.638828 -6.283680 2,575 241 147 640
2020-02-21 11:46:46 GMT 54.639942 -6.281017 2,550 242 145 512
2020-02-21 11:46:37 GMT 54.642746 -6.271335 2,400 246 136 1280
2020-02-21 11:46:29 GMT 54.644897 -6.263338 2,200 245 133 1856
2020-02-21 11:46:26 GMT 54.645493 -6.261076 2,125 245 133 1792
2020-02-21 11:46:16 GMT 54.648090 -6.251554 1,875 246 131 2816
2020-02-21 11:46:09 GMT 54.650162 -6.243789 1,275 246 143 3968
2020-02-21 11:46:06 GMT 54.650700 -6.241733 1,150 247 147 3776
2020-02-21 11:45:56 GMT 54.653641 -6.230460 650 246 154 1984
2020-02-21 11:45:46 GMT 54.656563 -6.219094 450 245 143 128
2020-02-21 11:45:19 GMT 54.661880 -6.199431 0 241 11
2020-02-21 11:45:14 GMT 54.662327 -6.197804 0 244 28
2020-02-21 11:45:04 GMT 54.662636 -6.196733 0 236 5
2020-02-21 11:44:53 GMT 54.662697 -6.196476 0 194 4
2020-02-21 11:44:45 GMT 54.662842 -6.196451 0 157 10
2020-02-21 11:44:34 GMT 54.663311 -6.196834 0 154 13
2020-02-21 11:44:20 GMT 54.663918 -6.197824 0 101 14
2020-02-21 11:44:14 GMT 54.663929 -6.198531 0 75 13
2020-02-21 11:43:41 GMT 54.663116 -6.201678 0 64 18
2020-02-21 11:43:12 GMT 54.662006 -6.205801 0 64 21
2020-02-21 11:42:59 GMT 54.661480 -6.207720 0 64 22
2020-02-21 11:42:53 GMT 54.661228 -6.208690 0 67 24
2020-02-21 11:42:42 GMT 54.660706 -6.210605 0 67 25
2020-02-21 11:42:33 GMT 54.660240 -6.212332 0 64 23
2020-02-21 11:42:22 GMT 54.659832 -6.213839 0 64 21
2020-02-21 11:42:08 GMT 54.659321 -6.215806 0 64 18
2020-02-21 11:42:03 GMT 54.659031 -6.216909 0 64 16
2020-02-21 11:41:47 GMT 54.658665 -6.218262 0 64 13
2020-02-21 11:41:42 GMT 54.658554 -6.218657 0 64 12
2020-02-21 11:41:30 GMT 54.658287 -6.219635 0 64 8
2020-02-21 11:41:23 GMT 54.658207 -6.219938 0 64 6
2020-02-21 11:41:20 GMT 54.658180 -6.220051 0 64 6
2020-02-21 11:41:13 GMT 54.658100 -6.220342 0 64 4
2020-02-21 11:41:01 GMT 54.658039 -6.220571 0 64 0
2020-02-21 11:40:51 GMT 54.658031 -6.220571 0 64 0
2020-02-21 11:40:26 GMT 54.658035 -6.220584 0 64 0
2020-02-21 11:40:21 GMT 54.658031 -6.220571 0 64 0
2020-02-21 11:40:11 GMT 54.658035 -6.220584 0 64 0
2020-02-21 11:39:41 GMT 54.658031 -6.220571 0 64 0
2020-02-21 11:39:21 GMT 54.658035 -6.220584 0 64 0
2020-02-21 11:39:16 GMT 54.658035 -6.220564 0 64 0
2020-02-21 11:39:01 GMT 54.658035 -6.220584 0 64 0
2020-02-21 11:38:41 GMT 54.658031 -6.220571 0 64 0
2020-02-21 11:38:31 GMT 54.658035 -6.220584 0 64 0
2020-02-21 11:38:20 GMT 54.658031 -6.220571 0 64 0
2020-02-21 11:38:17 GMT 54.658035 -6.220584 0 64 0
2020-02-21 11:38:06 GMT 54.658031 -6.220571 0 64 0
2020-02-21 11:38:01 GMT 54.658054 -6.220509 0 64 3
2020-02-21 11:37:50 GMT 54.658115 -6.220281 0 64 4
2020-02-21 11:37:41 GMT 54.658215 -6.220114 0 45 4
2020-02-21 11:37:36 GMT 54.658287 -6.220072 0 33 4
2020-02-21 11:37:31 GMT 54.658344 -6.220039 0 22 4
2020-02-21 11:37:25 GMT 54.658424 -6.220030 0 14 4
2020-02-21 11:37:20 GMT 54.658504 -6.220019 0 8 4
2020-02-21 11:37:15 GMT 54.658588 -6.220030 0 0 4
2020-02-21 11:37:10 GMT 54.658669 -6.220051 0 354 4
2020-02-21 11:37:01 GMT 54.658791 -6.220120 0 348 4
2020-02-21 11:36:58 GMT 54.658836 -6.220140 0 345 4
2020-02-21 11:36:53 GMT 54.658916 -6.220160 0 345 4
2020-02-21 11:36:50 GMT 54.658962 -6.220197 0 345 4
2020-02-21 11:36:39 GMT 54.659122 -6.220259 0 348 4
2020-02-21 11:36:33 GMT 54.659214 -6.220281 0 348 3
2020-02-21 11:36:30 GMT 54.659248 -6.220301 0 348 3
2020-02-21 11:36:22 GMT 54.659351 -6.220342 0 351 3
2020-02-21 11:36:18 GMT 54.659393 -6.220342 0 351 4
2020-02-21 11:36:13 GMT 54.659477 -6.220362 0 351 4
2020-02-21 11:36:04 GMT 54.659626 -6.220382 0 357 4
We lost coverage of the aircraft here for a total of 73 minutes
2020-02-21 10:23:26 GMT 54.660221 -6.220221 0 14 0 0
2020-02-21 10:23:19 GMT 54.660229 -6.220218 0 14 0 0
2020-02-21 10:23:08 GMT 54.660187 -6.220241 0 14 2 0
2020-02-21 10:22:58 GMT 54.660038 -6.220301 0 16 6 0
2020-02-21 10:22:52 GMT 54.659870 -6.220384 0 14 7 0
2020-02-21 10:22:48 GMT 54.659763 -6.220423 0 14 7 0
2020-02-21 10:22:39 GMT 54.659485 -6.220551 0 11 8 0
2020-02-21 10:22:33 GMT 54.659294 -6.220584 0 354 8 0
2020-02-21 10:22:23 GMT 54.658939 -6.220384 0 334 7 0
2020-02-21 10:22:12 GMT 54.658691 -6.220197 0 340 5 0
2020-02-21 10:22:03 GMT 54.658470 -6.220079 0 8 7 0
2020-02-21 10:21:57 GMT 54.658276 -6.220140 0 33 9 0
2020-02-21 10:21:51 GMT 54.658112 -6.220363 0 59 11 0
2020-02-21 10:21:43 GMT 54.657898 -6.221129 0 73 16 0
2020-02-21 10:21:32 GMT 54.657715 -6.222340 0 84 18 0
2020-02-21 10:21:25 GMT 54.657646 -6.223371 0 84 19 0
2020-02-21 10:21:19 GMT 54.657578 -6.224260 0 84 19 0
2020-02-21 10:21:12 GMT 54.657520 -6.225189 0 84 17 0
2020-02-21 10:21:05 GMT 54.657475 -6.226118 0 87 16 0
2020-02-21 10:21:02 GMT 54.657459 -6.226543 0 87 15 0
2020-02-21 10:20:55 GMT 54.657406 -6.227269 0 70 15 0
2020-02-21 10:20:52 GMT 54.657333 -6.227583 0 47 15 0
2020-02-21 10:20:46 GMT 54.656937 -6.228000 0 357 16 0
2020-02-21 10:20:42 GMT 54.656715 -6.227958 0 343 19 0
2020-02-21 10:20:34 GMT 54.655975 -6.227531 0 343 22 0
2020-02-21 10:20:31 GMT 54.655655 -6.227350 0 343 20 0
2020-02-21 10:20:25 GMT 54.655144 -6.227022 0 323 20 0
2020-02-21 10:20:22 GMT 54.654991 -6.226814 0 309 20 0
2020-02-21 10:20:12 GMT 54.654911 -6.225399 0 244 25 0
2020-02-21 10:20:02 GMT 54.655495 -6.223214 0 244 35 0
2020-02-21 10:19:52 GMT 54.656216 -6.220584 0 244 48 0
2020-02-21 10:19:42 GMT 54.657284 -6.216597 0 244 74 0
2020-02-21 10:19:20 GMT 54.661777 -6.199785 550 246 136 -320
2020-02-21 10:19:11 GMT 54.663986 -6.191684 550 245 135 -832
2020-02-21 10:19:01 GMT 54.666805 -6.181557 700 246 135 -448
2020-02-21 10:18:53 GMT 54.668793 -6.173912 775 246 128 -704
2020-02-21 10:18:50 GMT 54.669411 -6.171487 825 246 128 -832
2020-02-21 10:18:45 GMT 54.670807 -6.166326 900 245 129 -960
2020-02-21 10:18:41 GMT 54.671906 -6.162361 925 245 129 -832
2020-02-21 10:18:30 GMT 54.674561 -6.152748 1,050 246 130 -640
2020-02-21 10:18:26 GMT 54.675884 -6.147600 1,225 246 127 -704
2020-02-21 10:18:21 GMT 54.676998 -6.143438 1,175 246 126 -512
2020-02-21 10:18:13 GMT 54.678909 -6.136280 1,275 246 123 -768
2020-02-21 10:18:10 GMT 54.679413 -6.134249 1,300 246 123 -768
2020-02-21 10:18:05 GMT 54.680908 -6.128623 1,400 245 121 -896
2020-02-21 10:18:00 GMT 54.681931 -6.125039 1,425 244 122 -384
2020-02-21 10:17:55 GMT 54.684357 -6.116396 1,550 246 119 -320
2020-02-21 10:17:50 GMT 54.684357 -6.116396 1,525 246 119 -768
2020-02-21 10:17:45 GMT 54.685520 -6.111977 1,575 246 116 -704
2020-02-21 10:17:42 GMT 54.686077 -6.109813 1,600 248 116 -448
2020-02-21 10:17:38 GMT 54.687012 -6.105975 1,650 247 116 -576
2020-02-21 10:17:34 GMT 54.687973 -6.102259 1,700 245 118 -512
2020-02-21 10:17:30 GMT 54.688934 -6.098947 1,725 246 118 -576
2020-02-21 10:17:27 GMT 54.689476 -6.096913 1,775 246 117 -576
2020-02-21 10:17:24 GMT 54.690266 -6.093916 1,800 246 117 -640
2020-02-21 10:17:19 GMT 54.691223 -6.090303 1,825 246 116 -576
2020-02-21 10:17:16 GMT 54.692127 -6.086759 1,875 245 115 -768
2020-02-21 10:17:11 GMT 54.692917 -6.083922 1,925 245 116 -832
2020-02-21 10:17:08 GMT 54.693787 -6.080852 1,950 245 115 -512
2020-02-21 10:17:05 GMT 54.694427 -6.078428 1,975 246 114 -576
2020-02-21 10:17:02 GMT 54.695206 -6.075520 2,000 246 114 -576
2020-02-21 10:16:59 GMT 54.695854 -6.073026 2,050 246 112 -640
2020-02-21 10:16:55 GMT 54.696785 -6.069697 2,100 245 111 -640
2020-02-21 10:16:51 GMT 54.697575 -6.066867 2,125 245 111 -640
2020-02-21 10:16:47 GMT 54.698685 -6.062757 2,175 246 112 -576
2020-02-21 10:16:44 GMT 54.699112 -6.061207 2,300 246 113 -384
2020-02-21 10:16:39 GMT 54.700333 -6.056537 2,225 246 113 -448
2020-02-21 10:16:34 GMT 54.701202 -6.053224 2,300 246 115 -896
2020-02-21 10:16:31 GMT 54.701935 -6.050478 2,350 246 117 -704
2020-02-21 10:16:28 GMT 54.702648 -6.047974 2,350 246 117 -704
2020-02-21 10:16:24 GMT 54.703533 -6.044644 2,425 246 120 -832
2020-02-21 10:16:18 GMT 54.704979 -6.038985 2,500 246 121 -1024
2020-02-21 10:16:13 GMT 54.706142 -6.034740 2,575 246 120 -576
2020-02-21 10:16:10 GMT 54.706795 -6.032160 2,600 246 119 -128
2020-02-21 10:16:06 GMT 54.708050 -6.027666 2,600 246 121 -64
2020-02-21 10:16:03 GMT 54.708344 -6.026486 2,600 246 121 128
2020-02-21 10:16:00 GMT 54.709167 -6.023497 2,600 246 122 -128
2020-02-21 10:15:57 GMT 54.709774 -6.021174 2,625 247 123 -448
2020-02-21 10:15:54 GMT 54.710564 -6.018011 2,625 247 123 -448
2020-02-21 10:15:51 GMT 54.711403 -6.014848 2,675 246 122 -384
2020-02-21 10:15:47 GMT 54.712234 -6.011622 2,700 247 122 -256
2020-02-21 10:15:43 GMT 54.713310 -6.007441 2,700 246 122 -64
2020-02-21 10:15:40 GMT 54.713791 -6.005482 2,700 245 122 0
2020-02-21 10:15:37 GMT 54.714523 -6.002817 2,700 246 123 -64
2020-02-21 10:15:34 GMT 54.715313 -5.999784 2,700 246 123 64
2020-02-21 10:15:29 GMT 54.716309 -5.996031 2,700 246 122 64
2020-02-21 10:15:26 GMT 54.717133 -5.992880 2,700 246 122 128
2020-02-21 10:15:22 GMT 54.718048 -5.989407 2,675 247 122 0
2020-02-21 10:15:19 GMT 54.718525 -5.987382 2,700 247 122 0
2020-02-21 10:15:16 GMT 54.719284 -5.984318 2,700 247 122 -192
2020-02-21 10:15:13 GMT 54.720200 -5.980558 2,700 247 122 64
2020-02-21 10:15:10 GMT 54.720665 -5.978643 2,700 246 122 0
2020-02-21 10:15:07 GMT 54.721481 -5.975593 2,700 245 121 64
2020-02-21 10:15:03 GMT 54.722305 -5.972523 2,700 244 121 0
2020-02-21 10:14:59 GMT 54.723358 -5.969131 2,700 242 122 64
2020-02-21 10:14:54 GMT 54.725555 -5.962345 2,700 241 122 -64
2020-02-21 10:14:51 GMT 54.725555 -5.962345 2,700 240 122 -64
2020-02-21 10:14:46 GMT 54.727043 -5.958085 2,700 236 125 0
2020-02-21 10:14:43 GMT 54.728302 -5.954994 2,700 236 125 0
2020-02-21 10:14:38 GMT 54.729420 -5.952176 2,700 237 125 0
2020-02-21 10:14:35 GMT 54.730957 -5.948127 2,700 237 126 0
2020-02-21 10:14:32 GMT 54.731464 -5.946849 2,700 237 127 192
2020-02-21 10:14:28 GMT 54.732632 -5.943687 2,700 235 126 192
2020-02-21 10:14:25 GMT 54.733654 -5.941107 2,700 229 124 64
2020-02-21 10:14:22 GMT 54.736771 -5.936091 2,675 216 126 128
2020-02-21 10:14:18 GMT 54.736771 -5.936091 2,675 215 126 0
2020-02-21 10:14:14 GMT 54.740032 -5.932284 2,675 214 128 -64
2020-02-21 10:14:08 GMT 54.741661 -5.930370 2,700 215 130 -640
2020-02-21 10:14:04 GMT 54.743820 -5.927932 2,750 215 131 -384
2020-02-21 10:14:01 GMT 54.745056 -5.926397 2,775 215 131 -448
2020-02-21 10:13:58 GMT 54.746643 -5.924627 2,800 214 132 -768
2020-02-21 10:13:54 GMT 54.748878 -5.922047 2,875 214 133 -896
2020-02-21 10:13:51 GMT 54.750690 -5.919966 2,925 214 135 -768
2020-02-21 10:13:42 GMT 54.754990 -5.915007 2,975 215 140 -320
2020-02-21 10:13:39 GMT 54.756546 -5.913230 3,025 215 148 -768
2020-02-21 10:13:34 GMT 54.761074 -5.907815 3,050 216 144 -576
2020-02-21 10:13:31 GMT 54.761074 -5.907815 3,075 215 148 -768
2020-02-21 10:13:27 GMT 54.763027 -5.905484 3,125 213 150 -768
2020-02-21 10:13:24 GMT 54.766937 -5.901572 3,200 206 155 -896
2020-02-21 10:13:21 GMT 54.766937 -5.901572 3,250 188 172 -1216
2020-02-21 10:13:18 GMT 54.769035 -5.900407 3,275 190 170 -1216
2020-02-21 10:13:14 GMT 54.772339 -5.899409 3,375 181 181 -704
2020-02-21 10:13:11 GMT 54.774899 -5.899242 3,375 181 181 -704
2020-02-21 10:13:07 GMT 54.777420 -5.899335 3,425 178 188 -448
2020-02-21 10:13:04 GMT 54.780853 -5.899497 3,475 177 193 -896
2020-02-21 10:13:01 GMT 54.786209 -5.899901 3,550 177 198 -640
2020-02-21 10:12:53 GMT 54.790401 -5.900158 3,575 177 202 -192
2020-02-21 10:12:50 GMT 54.793335 -5.900407 3,625 178 218 -768
2020-02-21 10:12:47 GMT 54.795708 -5.900574 3,600 178 208 -512
2020-02-21 10:12:43 GMT 54.799576 -5.900789 3,675 178 213 -704
2020-02-21 10:12:40 GMT 54.803062 -5.900990 3,675 178 214 -640
2020-02-21 10:12:37 GMT 54.805531 -5.901073 3,700 178 216 -640
2020-02-21 10:12:32 GMT 54.811478 -5.901355 3,775 178 221 -704
2020-02-21 10:12:27 GMT 54.815643 -5.901597 3,825 178 224 -640
2020-02-21 10:12:23 GMT 54.820660 -5.901822 3,875 177 229 -640
2020-02-21 10:12:20 GMT 54.823837 -5.902001 4,025 179 235 -768
2020-02-21 10:12:17 GMT 54.826199 -5.902155 3,925 178 234 -576
2020-02-21 10:12:13 GMT 54.830933 -5.902324 4,000 184 233 -1216
2020-02-21 10:12:10 GMT 54.837433 -5.901597 4,050 188 231 -1536
2020-02-21 10:12:01 GMT 54.843006 -5.899325 4,525 219 211 -1472
2020-02-21 10:11:57 GMT 54.847092 -5.896265 4,375 209 217 -1728
2020-02-21 10:11:52 GMT 54.852268 -5.890336 4,575 221 210 -1408
2020-02-21 10:11:47 GMT 54.854874 -5.885845 4,675 232 206 -1536
2020-02-21 10:11:41 GMT 54.858273 -5.877269 4,850 247 204 -1728
2020-02-21 10:11:37 GMT 54.859680 -5.871465 4,975 256 203 -1984
2020-02-21 10:11:32 GMT 54.861145 -5.858298 5,200 264 203 -1920
2020-02-21 10:11:29 GMT 54.861145 -5.858298 5,250 264 203 -1920
2020-02-21 10:11:26 GMT 54.861328 -5.854905 5,325 264 204 -1792
2020-02-21 10:11:21 GMT 54.862000 -5.845309 5,600 264 205 -1472
2020-02-21 10:11:16 GMT 54.862427 -5.838829 5,575 264 206 -1472
2020-02-21 10:11:12 GMT 54.862885 -5.830913 5,700 264 207 -1536
2020-02-21 10:11:09 GMT 54.863251 -5.824854 5,750 265 207 -1728
2020-02-21 10:11:06 GMT 54.863434 -5.822188 5,875 265 207 -1728
2020-02-21 10:11:02 GMT 54.863937 -5.813949 6,000 265 208 -1600
2020-02-21 10:10:59 GMT 54.864468 -5.804860 6,100 265 208 -1536
2020-02-21 10:10:56 GMT 54.864468 -5.804860 6,125 265 208 -1472
2020-02-21 10:10:50 GMT 54.864990 -5.795369 6,325 265 209 -1408
2020-02-21 10:10:46 GMT 54.865398 -5.788713 6,350 265 210 -1408
2020-02-21 10:10:42 GMT 54.865952 -5.779213 6,550 264 210 -1344
2020-02-21 10:10:39 GMT 54.866096 -5.776645 6,550 264 210 -1216
2020-02-21 10:10:36 GMT 54.866409 -5.771700 6,550 264 210 -1216
2020-02-21 10:10:30 GMT 54.867416 -5.754655 6,750 264 212 -1216
2020-02-21 10:10:26 GMT 54.867416 -5.754655 6,800 264 212 -1280
2020-02-21 10:10:20 GMT 54.868095 -5.743686 6,925 264 212 -1408
2020-02-21 10:10:16 GMT 54.868515 -5.737610 7,025 264 212 -1408
2020-02-21 10:10:11 GMT 54.869076 -5.727955 7,175 265 212 -1408
2020-02-21 10:10:08 GMT 54.869385 -5.723231 7,200 265 213 -1408
2020-02-21 10:10:00 GMT 54.870052 -5.709811 7,400 270 213 -1536
2020-02-21 10:09:55 GMT 54.870098 -5.703153 7,475 274 213 -1536
2020-02-21 10:09:50 GMT 54.869522 -5.691726 7,650 277 215 -1344
2020-02-21 10:09:45 GMT 54.868980 -5.683344 8,100 277 216 -1344
2020-02-21 10:09:40 GMT 54.868378 -5.674189 7,875 277 216 -1344
2020-02-21 10:09:37 GMT 54.868141 -5.670277 7,925 277 216 -1344
2020-02-21 10:09:31 GMT 54.867584 -5.661288 8,125 277 217 -1344
2020-02-21 10:09:28 GMT 54.867188 -5.655455 8,125 277 217 -1344
2020-02-21 10:09:25 GMT 54.866959 -5.651093 8,175 276 217 -1344
2020-02-21 10:09:22 GMT 54.866562 -5.644892 8,275 276 218 -1408
2020-02-21 10:09:19 GMT 54.866272 -5.639702 8,325 276 218 -1408
2020-02-21 10:09:15 GMT 54.865906 -5.632917 8,400 276 219 -1472
2020-02-21 10:09:10 GMT 54.865444 -5.624168 8,625 276 218 -1600
2020-02-21 10:09:07 GMT 54.865166 -5.619091 8,625 276 218 -1664
2020-02-21 10:09:04 GMT 54.864792 -5.612349 8,750 276 218 -1728
2020-02-21 10:09:01 GMT 54.864605 -5.607938 8,825 276 217 -1792
2020-02-21 10:08:57 GMT 54.864258 -5.601735 8,875 276 217 -1728
2020-02-21 10:08:54 GMT 54.863983 -5.596322 9,000 276 217 -1728
2020-02-21 10:08:51 GMT 54.863525 -5.586548 9,150 275 217 -1728
2020-02-21 10:08:44 GMT 54.863159 -5.579116 9,300 275 217 -1856
2020-02-21 10:08:39 GMT 54.862747 -5.570553 9,525 275 217 -1664
2020-02-21 10:08:36 GMT 54.862518 -5.566191 9,575 275 217 -1664
2020-02-21 10:08:33 GMT 54.862244 -5.560698 9,625 275 218 -1600
2020-02-21 10:08:30 GMT 54.861969 -5.554558 9,675 275 218 -1600
2020-02-21 10:08:27 GMT 54.861649 -5.547369 9,825 275 220 -1600
2020-02-21 10:08:24 GMT 54.861282 -5.539452 9,875 275 220 -1600
2020-02-21 10:08:21 GMT 54.861282 -5.539452 10,000 275 225 -1664
2020-02-21 10:08:18 GMT 54.860973 -5.532948 10,000 275 225 -1664
2020-02-21 10:08:15 GMT 54.860458 -5.521922 10,200 275 224 -1536
2020-02-21 10:08:09 GMT 54.860229 -5.516752 10,300 275 225 -1600
2020-02-21 10:08:06 GMT 54.860043 -5.512806 10,400 275 227 -1920
2020-02-21 10:08:03 GMT 54.859764 -5.506481 10,425 275 226 -1792
2020-02-21 10:07:59 GMT 54.859406 -5.499223 10,550 275 226 -1920
2020-02-21 10:07:56 GMT 54.859177 -5.493972 11,000 275 227 -1920
2020-02-21 10:07:53 GMT 54.858974 -5.489252 10,750 275 227 -1920
2020-02-21 10:07:50 GMT 54.858627 -5.482743 10,850 275 227 -1984
2020-02-21 10:07:47 GMT 54.858398 -5.477816 10,875 275 227 -1984
2020-02-21 10:07:44 GMT 54.858089 -5.471358 11,125 275 227 -2112
2020-02-21 10:07:39 GMT 54.857391 -5.456974 11,300 275 225 -2368
2020-02-21 10:07:36 GMT 54.857391 -5.456974 11,375 275 225 -2496
2020-02-21 10:07:29 GMT 54.856842 -5.445180 11,650 275 222 -2496
2020-02-21 10:07:26 GMT 54.856567 -5.440010 11,825 275 222 -2368
2020-02-21 10:07:23 GMT 54.856201 -5.432658 11,925 275 221 -2368
2020-02-21 10:07:18 GMT 54.855854 -5.425415 12,025 275 221 -2368
2020-02-21 10:07:15 GMT 54.855343 -5.414845 12,225 275 221 -2048
2020-02-21 10:07:12 GMT 54.855103 -5.409070 12,375 274 222 -1792
2020-02-21 10:07:08 GMT 54.855103 -5.409070 12,450 272 222 -1856
2020-02-21 10:07:04 GMT 54.855194 -5.395418 12,675 264 222 -2112
2020-02-21 10:07:01 GMT 54.855606 -5.391379 12,750 257 223 -2048
2020-02-21 10:06:55 GMT 54.856506 -5.385132 12,850 254 223 -1856
2020-02-21 10:06:52 GMT 54.857342 -5.380138 13,250 254 224 -1984
2020-02-21 10:06:48 GMT 54.858673 -5.372234 13,025 254 224 -1984
2020-02-21 10:06:45 GMT 54.859726 -5.366013 13,200 254 224 -1984
2020-02-21 10:06:42 GMT 54.861511 -5.355673 14,000 256 226 -1792
2020-02-21 10:06:38 GMT 54.861511 -5.355673 13,400 254 224 -1984
2020-02-21 10:06:34 GMT 54.862701 -5.348969 13,575 254 225 -1984
2020-02-21 10:06:28 GMT 54.864624 -5.337578 13,750 254 225 -1920
2020-02-21 10:06:23 GMT 54.865997 -5.329662 13,900 255 225 -1920
2020-02-21 10:06:20 GMT 54.866886 -5.324041 14,275 273 226 -1856
2020-02-21 10:06:17 GMT 54.867416 -5.320614 14,075 257 225 -1728
2020-02-21 10:06:13 GMT 54.868744 -5.310355 14,225 265 225 -1792
2020-02-21 10:06:10 GMT 54.869076 -5.302069 14,300 271 225 -1856
2020-02-21 10:06:07 GMT 54.869076 -5.302069 14,350 273 226 -1856
2020-02-21 10:06:02 GMT 54.868561 -5.292331 14,550 281 229 -1664
2020-02-21 10:05:59 GMT 54.868103 -5.287817 14,600 282 230 -1600
2020-02-21 10:05:56 GMT 54.867584 -5.283425 14,650 282 230 -1664
2020-02-21 10:05:52 GMT 54.866562 -5.274353 14,975 282 231 -1856
2020-02-21 10:05:49 GMT 54.865864 -5.268360 14,925 282 231 -1856
2020-02-21 10:05:46 GMT 54.865490 -5.265115 14,950 282 231 -1856
2020-02-21 10:05:43 GMT 54.864700 -5.258206 15,050 282 232 -1728
2020-02-21 10:05:40 GMT 54.864029 -5.252596 15,125 282 232 -1664
2020-02-21 10:05:37 GMT 54.862789 -5.242143 15,250 282 233 -1600
2020-02-21 10:05:34 GMT 54.862789 -5.242143 15,300 282 233 -1728
2020-02-21 10:05:31 GMT 54.862152 -5.236682 15,400 282 233 -1856
2020-02-21 10:05:28 GMT 54.861485 -5.231157 15,500 283 234 -1856
2020-02-21 10:05:25 GMT 54.860962 -5.226746 15,575 283 234 -1728
2020-02-21 10:05:22 GMT 54.859344 -5.214844 15,700 285 236 -1600
2020-02-21 10:05:16 GMT 54.858353 -5.208731 17,000 354 309 -1856
2020-02-21 10:05:12 GMT 54.856319 -5.200611 15,950 299 243 -1664
2020-02-21 10:05:09 GMT 54.853199 -5.191373 16,050 304 247 -1600
2020-02-21 10:05:06 GMT 54.853199 -5.191373 16,125 307 250 -1664
2020-02-21 10:05:03 GMT 54.851013 -5.186546 16,225 315 257 -1920
2020-02-21 10:05:00 GMT 54.848545 -5.182051 16,300 318 261 -1984
2020-02-21 10:04:57 GMT 54.845192 -5.177141 16,425 330 275 -1984
2020-02-21 10:04:53 GMT 54.842102 -5.173349 16,675 337 284 -1984
2020-02-21 10:04:50 GMT 54.838070 -5.169400 16,675 337 284 -1984
2020-02-21 10:04:46 GMT 54.829330 -5.163574 16,800 345 294 -1984
2020-02-21 10:04:43 GMT 54.829330 -5.163574 16,900 349 301 -1920
2020-02-21 10:04:40 GMT 54.824570 -5.161743 16,975 352 307 -1856
2020-02-21 10:04:37 GMT 54.820751 -5.160744 17,075 0 318 -1792
2020-02-21 10:04:34 GMT 54.818008 -5.160328 17,150 0 318 -1792
2020-02-21 10:04:31 GMT 54.812561 -5.160162 17,325 4 328 -1728
2020-02-21 10:04:28 GMT 54.808323 -5.160661 17,275 7 332 -1792
2020-02-21 10:04:24 GMT 54.802830 -5.161910 17,650 20 355 -1664
2020-02-21 10:04:20 GMT 54.795849 -5.164739 17,525 19 352 -1728
2020-02-21 10:04:17 GMT 54.789516 -5.168485 17,725 24 362 -1600
2020-02-21 10:04:12 GMT 54.783279 -5.173349 17,950 29 369 -1664
2020-02-21 10:04:09 GMT 54.778931 -5.177469 17,925 34 377 -1792
2020-02-21 10:04:06 GMT 54.774296 -5.182634 18,000 35 380 -1792
2020-02-21 10:04:02 GMT 54.769451 -5.188626 18,000 37 382 -1792
2020-02-21 10:03:59 GMT 54.759537 -5.201860 18,225 37 383 -1728
2020-02-21 10:03:55 GMT 54.759537 -5.201860 18,250 37 383 -1792
2020-02-21 10:03:52 GMT 54.754761 -5.208247 18,400 37 384 -1856
2020-02-21 10:03:49 GMT 54.751099 -5.213093 18,400 37 384 -1856
2020-02-21 10:03:45 GMT 54.744919 -5.221333 18,625 37 385 -1856
2020-02-21 10:03:42 GMT 54.740124 -5.227744 18,725 37 385 -1856
2020-02-21 10:03:39 GMT 54.737137 -5.231673 18,725 37 385 -1856
2020-02-21 10:03:35 GMT 54.731464 -5.239147 18,875 37 386 -1920
2020-02-21 10:03:31 GMT 54.725227 -5.247387 19,000 37 387 -1920
2020-02-21 10:03:28 GMT 54.720528 -5.253629 19,375 37 389 -1920
2020-02-21 10:03:25 GMT 54.717129 -5.258123 19,200 37 388 -1920
2020-02-21 10:03:20 GMT 54.709724 -5.267861 19,350 37 388 -1920
2020-02-21 10:03:17 GMT 54.705872 -5.272953 19,400 37 389 -1920
2020-02-21 10:03:14 GMT 54.700974 -5.279415 19,525 37 391 -1856
2020-02-21 10:03:11 GMT 54.693527 -5.289168 19,750 37 391 -1856
2020-02-21 10:03:08 GMT 54.688034 -5.296326 19,750 37 391 -1856
2020-02-21 10:03:05 GMT 54.688034 -5.296326 19,825 37 392 -1856
2020-02-21 10:03:02 GMT 54.683716 -5.302034 19,925 36 392 -1856
2020-02-21 10:02:59 GMT 54.678085 -5.309305 20,025 36 392 -1856
2020-02-21 10:02:54 GMT 54.672134 -5.316979 21,100 36 395 -1984
2020-02-21 10:02:51 GMT 54.667782 -5.322626 20,275 36 393 -1856
2020-02-21 10:02:48 GMT 54.658424 -5.334695 20,450 36 395 -1920
2020-02-21 10:02:44 GMT 54.658424 -5.334695 20,475 36 395 -1856
2020-02-21 10:02:39 GMT 54.650436 -5.345091 20,650 36 395 -2048
2020-02-21 10:02:36 GMT 54.644180 -5.353255 20,750 36 395 -1984
2020-02-21 10:02:33 GMT 54.641525 -5.356584 20,975 36 395 -1984
2020-02-21 10:02:28 GMT 54.634216 -5.366072 21,025 36 395 -1984
2020-02-21 10:02:25 GMT 54.629242 -5.372476 21,125 36 395 -2048
2020-02-21 10:02:22 GMT 54.623978 -5.379223 21,250 36 396 -2112
2020-02-21 10:02:19 GMT 54.620903 -5.383134 21,375 36 396 -2112
2020-02-21 10:02:16 GMT 54.617386 -5.387663 21,400 36 395 -2112
2020-02-21 10:02:12 GMT 54.605541 -5.402943 21,650 36 396 -2112
2020-02-21 10:02:09 GMT 54.605541 -5.402943 21,700 36 396 -2048
2020-02-21 10:02:03 GMT 54.597301 -5.413513 22,100 36 397 -2048
2020-02-21 10:02:00 GMT 54.593670 -5.418257 22,050 36 397 -2112
2020-02-21 10:01:57 GMT 54.589233 -5.423934 22,050 36 397 -2112
2020-02-21 10:01:53 GMT 54.577888 -5.438399 22,700 36 398 -2112
2020-02-21 10:01:50 GMT 54.577888 -5.438399 22,375 36 398 -2112
2020-02-21 10:01:47 GMT 54.573166 -5.444453 22,450 36 398 -2112
2020-02-21 10:01:42 GMT 54.566952 -5.452298 22,600 36 398 -2112
2020-02-21 10:01:38 GMT 54.556896 -5.465116 22,850 36 399 -2112
2020-02-21 10:01:32 GMT 54.551834 -5.471434 22,950 36 400 -2112
2020-02-21 10:01:29 GMT 54.547531 -5.476927 23,125 36 400 -2112
2020-02-21 10:01:26 GMT 54.542908 -5.482743 23,175 36 400 -1984
2020-02-21 10:01:23 GMT 54.538136 -5.488753 23,250 36 400 -1984
2020-02-21 10:01:20 GMT 54.534225 -5.493580 23,325 36 400 -2048
2020-02-21 10:01:17 GMT 54.529724 -5.499223 23,700 35 402 -1984
2020-02-21 10:01:11 GMT 54.520119 -5.511225 23,675 35 402 -1984
2020-02-21 10:01:08 GMT 54.516533 -5.515719 23,775 35 403 -1984
2020-02-21 10:01:05 GMT 54.512009 -5.521357 23,925 35 403 -1920
2020-02-21 10:01:02 GMT 54.505783 -5.529031 24,125 35 404 -1856
2020-02-21 10:00:58 GMT 54.500519 -5.535611 24,150 35 405 -1792
2020-02-21 10:00:52 GMT 54.492466 -5.545599 24,275 35 406 -1792
2020-02-21 10:00:49 GMT 54.486366 -5.553089 24,375 35 407 -1792
2020-02-21 10:00:45 GMT 54.480881 -5.559890 24,450 35 407 -1728
2020-02-21 10:00:42 GMT 54.477356 -5.564252 24,550 35 409 -1600
2020-02-21 10:00:38 GMT 54.469658 -5.573730 24,650 35 411 -1536
2020-02-21 10:00:35 GMT 54.465466 -5.578807 24,700 35 412 -1600
2020-02-21 10:00:32 GMT 54.461746 -5.583317 24,825 35 413 -1664
2020-02-21 10:00:27 GMT 54.452850 -5.594122 24,975 35 415 -1664
2020-02-21 10:00:24 GMT 54.449249 -5.598504 25,050 35 416 -1600
2020-02-21 10:00:21 GMT 54.443298 -5.605693 25,150 35 416 -1600
2020-02-21 10:00:18 GMT 54.434280 -5.616518 25,300 35 421 -1664
2020-02-21 10:00:12 GMT 54.429703 -5.622092 25,325 35 421 -1728
2020-02-21 10:00:08 GMT 54.423477 -5.629605 25,775 35 422 -2240
2020-02-21 10:00:05 GMT 54.419052 -5.634988 25,625 35 422 -2304
2020-02-21 10:00:02 GMT 54.413795 -5.641396 25,725 35 423 -1856
2020-02-21 09:59:58 GMT 54.407230 -5.649303 25,800 35 426 -640
2020-02-21 09:59:55 GMT 54.402420 -5.655132 25,825 35 429 -192
2020-02-21 09:59:52 GMT 54.398197 -5.660206 25,825 35 434 -64
2020-02-21 09:59:48 GMT 54.390797 -5.669112 25,825 34 439 -320
2020-02-21 09:59:45 GMT 54.385025 -5.676103 25,850 34 441 -384
2020-02-21 09:59:42 GMT 54.380997 -5.680820 25,875 34 448 -64
2020-02-21 09:59:36 GMT 54.371155 -5.692614 25,850 34 452 256
2020-02-21 09:59:33 GMT 54.366032 -5.698742 25,850 34 459 -256
2020-02-21 09:59:30 GMT 54.359234 -5.706732 25,900 34 463 -704
2020-02-21 09:59:27 GMT 54.353786 -5.713140 25,900 34 464 -704
2020-02-21 09:59:24 GMT 54.348621 -5.719133 25,925 34 469 -128
2020-02-21 09:59:21 GMT 54.344894 -5.723461 25,925 34 470 -128
2020-02-21 09:59:18 GMT 54.339310 -5.729953 25,950 34 472 -64
2020-02-21 09:59:15 GMT 54.328045 -5.742937 25,950 33 480 -320
2020-02-21 09:59:12 GMT 54.328045 -5.742937 25,950 33 481 -320
2020-02-21 09:59:08 GMT 54.321621 -5.750344 25,975 33 484 -256
2020-02-21 09:59:05 GMT 54.309494 -5.764187 25,975 33 489 -128
2020-02-21 09:58:57 GMT 54.300255 -5.774647 26,000 33 494 -128
2020-02-21 09:58:54 GMT 54.293316 -5.782304 26,000 31 497 -448
2020-02-21 09:58:51 GMT 54.282120 -5.793996 26,050 29 497 -832
2020-02-21 09:58:47 GMT 54.282120 -5.793996 26,125 25 496 -1088
2020-02-21 09:58:44 GMT 54.273102 -5.801723 26,150 22 496 -1344
2020-02-21 09:58:37 GMT 54.259659 -5.810717 26,475 14 491 -1920
2020-02-21 09:58:34 GMT 54.251770 -5.814436 26,400 13 489 -1920
2020-02-21 09:58:31 GMT 54.247375 -5.816084 26,475 8 485 -2112
2020-02-21 09:58:28 GMT 54.238083 -5.818752 26,700 4 479 -2304
2020-02-21 09:58:25 GMT 54.233002 -5.819693 26,775 2 475 -2432
2020-02-21 09:58:22 GMT 54.226639 -5.820321 27,025 358 466 -2624
2020-02-21 09:58:19 GMT 54.219715 -5.820250 27,075 356 461 -2880
2020-02-21 09:58:16 GMT 54.214596 -5.819603 27,350 351 451 -3392
2020-02-21 09:58:13 GMT 54.207962 -5.818281 27,375 349 446 -3584
2020-02-21 09:58:10 GMT 54.196335 -5.814043 27,625 345 439 -4096
2020-02-21 09:58:07 GMT 54.196335 -5.814043 27,925 343 434 -4480
2020-02-21 09:58:04 GMT 54.183918 -5.806355 28,150 335 421 -4864
2020-02-21 09:57:57 GMT 54.178520 -5.801912 28,825 328 410 -4544
2020-02-21 09:57:54 GMT 54.172440 -5.795916 28,775 326 406 -4480
2020-02-21 09:57:51 GMT 54.167671 -5.790360 28,975 323 403 -4288
2020-02-21 09:57:48 GMT 54.159302 -5.778259 29,350 315 391 -4288
2020-02-21 09:57:42 GMT 54.152985 -5.766253 31,325 307 382 -4160
2020-02-21 09:57:36 GMT 54.149193 -5.757321 30,225 299 374 -4032
2020-02-21 09:57:32 GMT 54.145744 -5.747465 30,325 297 373 -4096
2020-02-21 09:57:29 GMT 54.141697 -5.731470 30,825 281 362 -4032
2020-02-21 09:57:26 GMT 54.140076 -5.722151 30,900 284 364 -4096
2020-02-21 09:57:23 GMT 54.140076 -5.722151 31,025 281 362 -4032
2020-02-21 09:57:20 GMT 54.138577 -5.708771 31,325 262 355 -3776
2020-02-21 09:57:17 GMT 54.138111 -5.696653 31,425 272 358 -3968
2020-02-21 09:57:14 GMT 54.138111 -5.696653 31,575 265 356 -3904
2020-02-21 09:57:11 GMT 54.138203 -5.689625 31,775 203 394 -3328
2020-02-21 09:57:08 GMT 54.138611 -5.682364 32,000 259 356 -3776
2020-02-21 09:57:05 GMT 54.139366 -5.673550 32,100 254 357 -3776
2020-02-21 09:57:02 GMT 54.141090 -5.662967 32,275 253 357 -3776
2020-02-21 09:56:59 GMT 54.141769 -5.659215 32,375 250 358 -3776
2020-02-21 09:56:56 GMT 54.144348 -5.648831 32,625 244 359 -3712
2020-02-21 09:56:53 GMT 54.146667 -5.641323 32,900 239 362 -3648
2020-02-21 09:56:50 GMT 54.151333 -5.629362 33,225 222 376 -3520
2020-02-21 09:56:44 GMT 54.155987 -5.620153 33,650 220 376 -3520
2020-02-21 09:56:41 GMT 54.159431 -5.614337 33,600 220 376 -3520
2020-02-21 09:56:34 GMT 54.169209 -5.601573 34,000 204 395 -3456
2020-02-21 09:56:31 GMT 54.174500 -5.596436 34,225 207 392 -3776
2020-02-21 09:56:28 GMT 54.178379 -5.593091 34,600 203 396 -3328
2020-02-21 09:56:24 GMT 54.186768 -5.586862 34,600 203 396 -3328
2020-02-21 09:56:21 GMT 54.190483 -5.584205 34,775 203 396 -3328
2020-02-21 09:56:18 GMT 54.193726 -5.581918 34,875 203 395 -3264
2020-02-21 09:56:15 GMT 54.199795 -5.577662 35,025 203 395 -3328
2020-02-21 09:56:12 GMT 54.205994 -5.573207 35,325 203 392 -3328
2020-02-21 09:56:09 GMT 54.210499 -5.570068 35,900 203 391 -2880
2020-02-21 09:56:05 GMT 54.218880 -5.564171 35,675 203 391 -2304
2020-02-21 09:56:02 GMT 54.222183 -5.561829 35,750 203 391 -1984
2020-02-21 09:55:59 GMT 54.231541 -5.555285 35,875 203 391 -1472
2020-02-21 09:55:56 GMT 54.231541 -5.555285 35,925 203 392 -576
2020-02-21 09:55:49 GMT 54.243599 -5.546803 35,975 203 393 -384
2020-02-21 09:55:46 GMT 54.248486 -5.543330 36,000 203 393 -256
2020-02-21 09:55:43 GMT 54.254196 -5.539307 36,000 203 393 0
2020-02-21 09:55:40 GMT 54.260056 -5.535148 36,000 203 393 0
2020-02-21 09:55:37 GMT 54.262779 -5.533313 36,000 203 393 0
2020-02-21 09:55:34 GMT 54.267944 -5.529597 36,000 203 393 0
2020-02-21 09:55:31 GMT 54.273857 -5.525477 36,000 203 393 0
2020-02-21 09:55:28 GMT 54.279236 -5.521680 36,000 203 393 0
2020-02-21 09:55:25 GMT 54.282761 -5.519176 36,000 203 394 0
2020-02-21 09:55:22 GMT 54.290802 -5.513472 36,000 203 394 0
2020-02-21 09:55:19 GMT 54.295807 -5.509886 36,000 203 394 0
2020-02-21 09:55:16 GMT 54.305878 -5.502777 36,000 203 394 0
2020-02-21 09:55:13 GMT 54.309422 -5.500239 36,000 203 394 0
2020-02-21 09:55:10 GMT 54.309422 -5.500239 36,000 203 394 -64
2020-02-21 09:55:07 GMT 54.319336 -5.493245 36,000 203 394 -64
2020-02-21 09:55:01 GMT 54.324368 -5.489668 36,000 203 394 -64
2020-02-21 09:54:58 GMT 54.328232 -5.486922 36,000 203 394 0
2020-02-21 09:54:55 GMT 54.334579 -5.482339 36,000 203 394 0
2020-02-21 09:54:52 GMT 54.339638 -5.478765 36,000 203 394 0
2020-02-21 09:54:49 GMT 54.345501 -5.474604 36,000 203 394 0
2020-02-21 09:54:45 GMT 54.351040 -5.470692 36,000 203 394 -64
2020-02-21 09:54:41 GMT 54.358955 -5.465116 36,000 203 394 -64
2020-02-21 09:54:38 GMT 54.367172 -5.459236 36,000 203 394 -64
2020-02-21 09:54:35 GMT 54.373386 -5.454795 36,025 203 394 0
2020-02-21 09:54:32 GMT 54.377563 -5.451804 36,000 203 394 64
2020-02-21 09:54:26 GMT 54.385117 -5.446472 36,000 203 394 64
2020-02-21 09:54:22 GMT 54.390331 -5.442727 36,000 203 394 0
2020-02-21 09:54:19 GMT 54.394547 -5.439767 36,000 203 394 0
2020-02-21 09:54:16 GMT 54.399223 -5.436401 36,000 203 394 0
2020-02-21 09:54:13 GMT 54.404297 -5.432822 36,000 203 394 0
2020-02-21 09:54:10 GMT 54.411186 -5.427912 36,000 203 394 -128
2020-02-21 09:54:07 GMT 54.416565 -5.424096 36,000 203 394 0
2020-02-21 09:54:04 GMT 54.420090 -5.421591 36,000 203 394 0
2020-02-21 09:54:01 GMT 54.426315 -5.417148 35,750 203 393 832
2020-02-21 09:53:58 GMT 54.430508 -5.414179 36,000 203 395 -64
2020-02-21 09:53:55 GMT 54.436234 -5.410101 36,025 203 394 0
2020-02-21 09:53:51 GMT 54.444099 -5.404441 36,000 203 394 -128
2020-02-21 09:53:48 GMT 54.447311 -5.402194 35,850 203 394 704
2020-02-21 09:53:45 GMT 54.453369 -5.397842 36,000 203 394 704
2020-02-21 09:53:42 GMT 54.457901 -5.394610 35,925 203 394 832
2020-02-21 09:53:39 GMT 54.461090 -5.392373 35,925 203 394 832
2020-02-21 09:53:36 GMT 54.466095 -5.388794 35,900 203 394 768
2020-02-21 09:53:33 GMT 54.472458 -5.384270 35,850 203 394 704
2020-02-21 09:53:29 GMT 54.478828 -5.379722 35,825 203 393 704
2020-02-21 09:53:26 GMT 54.483391 -5.376476 35,800 203 393 704
2020-02-21 09:53:23 GMT 54.488754 -5.372638 35,750 203 393 768
2020-02-21 09:53:19 GMT 54.496426 -5.367071 35,675 203 393 832
2020-02-21 09:53:16 GMT 54.501801 -5.363267 35,650 203 393 832
2020-02-21 09:53:13 GMT 54.505829 -5.360329 35,600 203 393 768
2020-02-21 09:53:10 GMT 54.510361 -5.357127 35,550 203 393 768
2020-02-21 09:53:07 GMT 54.515045 -5.353754 35,550 203 393 768
2020-02-21 09:53:04 GMT 54.526775 -5.345348 35,475 203 393 704
2020-02-21 09:53:01 GMT 54.526775 -5.345348 35,425 203 392 704
2020-02-21 09:52:57 GMT 54.532837 -5.340971 35,400 203 392 704
2020-02-21 09:52:53 GMT 54.539200 -5.336447 35,325 203 393 768
2020-02-21 09:52:50 GMT 54.543182 -5.333539 35,300 203 393 768
2020-02-21 09:52:47 GMT 54.549088 -5.329339 35,300 203 393 768
2020-02-21 09:52:44 GMT 54.554947 -5.325138 35,075 203 393 704
2020-02-21 09:52:41 GMT 54.565292 -5.317706 35,200 203 393 704
2020-02-21 09:52:38 GMT 54.565292 -5.317706 35,175 203 393 704
2020-02-21 09:52:32 GMT 54.574493 -5.311082 35,125 203 393 704
2020-02-21 09:52:29 GMT 54.578541 -5.308144 35,075 203 392 704
2020-02-21 09:52:26 GMT 54.585205 -5.303327 35,025 203 392 704
2020-02-21 09:52:23 GMT 54.590225 -5.299738 35,000 203 392 640
2020-02-21 09:52:20 GMT 54.594543 -5.296622 34,975 203 392 640
2020-02-21 09:52:17 GMT 54.604424 -5.289501 34,925 203 392 704
2020-02-21 09:52:11 GMT 54.608597 -5.286524 34,875 203 392 704
2020-02-21 09:52:08 GMT 54.615601 -5.281435 34,800 203 391 768
2020-02-21 09:52:05 GMT 54.619602 -5.278515 34,650 203 392 768
2020-02-21 09:52:02 GMT 54.624573 -5.274892 34,700 203 391 704
2020-02-21 09:51:58 GMT 54.631287 -5.270108 34,675 203 392 768
2020-02-21 09:51:55 GMT 54.636082 -5.266613 34,675 203 392 768
2020-02-21 09:51:52 GMT 54.641785 -5.262532 34,600 203 392 768
2020-02-21 09:51:49 GMT 54.645111 -5.260121 34,550 203 392 768
2020-02-21 09:51:45 GMT 54.652607 -5.254711 34,550 203 392 768
2020-02-21 09:51:42 GMT 54.662617 -5.247470 34,475 203 392 832
2020-02-21 09:51:39 GMT 54.662617 -5.247470 34,450 203 392 832
2020-02-21 09:51:36 GMT 54.669132 -5.242726 34,350 203 392 832
2020-02-21 09:51:33 GMT 54.673462 -5.239590 34,375 203 392 896
2020-02-21 09:51:30 GMT 54.677673 -5.236520 34,325 203 393 896
2020-02-21 09:51:27 GMT 54.687847 -5.229159 34,250 203 393 896
2020-02-21 09:51:24 GMT 54.687847 -5.229159 34,225 203 393 960
2020-02-21 09:51:21 GMT 54.694565 -5.224322 34,175 203 393 960
2020-02-21 09:51:18 GMT 54.697762 -5.222002 34,150 203 393 1024
2020-02-21 09:51:15 GMT 54.702930 -5.218256 34,100 203 393 1024
2020-02-21 09:51:11 GMT 54.709633 -5.213346 34,025 203 394 1024
2020-02-21 09:51:05 GMT 54.719223 -5.206438 33,900 203 394 1088
2020-02-21 09:51:02 GMT 54.724388 -5.202609 33,800 203 394 1152
2020-02-21 09:50:59 GMT 54.730953 -5.197865 33,800 203 394 1152
2020-02-21 09:50:56 GMT 54.734165 -5.195534 33,750 203 394 1152
2020-02-21 09:50:53 GMT 54.739883 -5.191363 33,725 203 394 1152
2020-02-21 09:50:50 GMT 54.745743 -5.187163 33,575 203 394 1088
2020-02-21 09:50:47 GMT 54.754322 -5.180886 33,550 203 395 1216
2020-02-21 09:50:44 GMT 54.754322 -5.180886 33,475 203 394 1152
2020-02-21 09:50:41 GMT 54.759201 -5.177388 33,450 203 394 1088
2020-02-21 09:50:38 GMT 54.765728 -5.172646 33,400 203 394 1152
2020-02-21 09:50:35 GMT 54.770096 -5.169471 33,350 203 394 1152
2020-02-21 09:50:32 GMT 54.774490 -5.166321 33,300 203 394 1216
2020-02-21 09:50:29 GMT 54.781368 -5.161244 32,975 203 396 1216
2020-02-21 09:50:26 GMT 54.785419 -5.158331 33,125 203 395 1216
2020-02-21 09:50:22 GMT 54.792171 -5.153503 33,050 203 395 1216
2020-02-21 09:50:19 GMT 54.797382 -5.149675 33,025 203 395 1216
2020-02-21 09:50:16 GMT 54.808182 -5.141844 32,950 203 396 1216
2020-02-21 09:50:13 GMT 54.811707 -5.139259 32,875 203 396 1216
2020-02-21 09:50:10 GMT 54.816925 -5.135462 32,775 203 396 1216
2020-02-21 09:50:07 GMT 54.816925 -5.135462 32,800 203 396 1216
2020-02-21 09:50:04 GMT 54.822708 -5.131364 32,750 203 398 1280
2020-02-21 09:50:01 GMT 54.828247 -5.127286 32,675 203 398 1280
2020-02-21 09:49:57 GMT 54.833183 -5.123707 32,550 203 398 1344
2020-02-21 09:49:54 GMT 54.839420 -5.119213 32,475 203 398 1344
2020-02-21 09:49:51 GMT 54.843330 -5.116383 32,375 203 399 1344
2020-02-21 09:49:48 GMT 54.851803 -5.110141 32,150 203 399 1280
2020-02-21 09:49:44 GMT 54.856739 -5.106562 32,250 203 399 1344
2020-02-21 09:49:38 GMT 54.867447 -5.098821 32,175 203 399 1344
2020-02-21 09:49:35 GMT 54.870804 -5.096283 32,075 203 399 1280
2020-02-21 09:49:32 GMT 54.877968 -5.091081 32,050 203 399 1280
2020-02-21 09:49:29 GMT 54.880646 -5.089093 31,950 203 399 1280
2020-02-21 09:49:26 GMT 54.886276 -5.084974 31,900 203 399 1216
2020-02-21 09:49:22 GMT 54.894585 -5.078846 31,750 203 399 1216
2020-02-21 09:49:19 GMT 54.898178 -5.076249 31,700 203 399 1216
2020-02-21 09:49:15 GMT 54.906132 -5.070357 31,675 203 399 1216
2020-02-21 09:49:09 GMT 54.920048 -5.060120 31,500 203 399 1216
2020-02-21 09:49:03 GMT 54.924500 -5.056942 31,450 203 399 1216
2020-02-21 09:49:00 GMT 54.930405 -5.052580 31,350 203 399 1216
2020-02-21 09:48:57 GMT 54.936356 -5.048218 31,250 204 398 1216
2020-02-21 09:48:54 GMT 54.941788 -5.044223 31,225 204 398 1216
2020-02-21 09:48:51 GMT 54.946198 -5.040947 31,225 204 398 1216
2020-02-21 09:48:48 GMT 54.952263 -5.036482 31,150 204 398 1280
2020-02-21 09:48:45 GMT 54.956501 -5.033320 31,100 204 398 1280
2020-02-21 09:48:42 GMT 54.967850 -5.024953 30,975 204 398 1216
2020-02-21 09:48:39 GMT 54.967850 -5.024953 30,925 203 398 1280
2020-02-21 09:48:35 GMT 54.973633 -5.020752 30,850 203 398 1216
2020-02-21 09:48:32 GMT 54.977829 -5.017601 30,750 203 398 1216
2020-02-21 09:48:29 GMT 54.982773 -5.014047 30,750 203 398 1280
2020-02-21 09:48:26 GMT 54.993942 -5.005807 30,675 203 398 1408
2020-02-21 09:48:23 GMT 54.993942 -5.005807 30,600 203 398 1472
2020-02-21 09:48:20 GMT 54.999001 -5.002108 30,500 203 399 1600
2020-02-21 09:48:17 GMT 55.004425 -4.998133 30,450 203 399 1600
2020-02-21 09:48:14 GMT 55.009521 -4.994368 30,300 203 399 1664
2020-02-21 09:48:11 GMT 55.013077 -4.991751 30,325 203 399 1600
2020-02-21 09:48:08 GMT 55.024326 -4.983548 30,175 203 400 1728
2020-02-21 09:48:05 GMT 55.024326 -4.983548 30,125 203 401 1792
2020-02-21 09:48:01 GMT 55.030937 -4.978638 29,950 203 401 1792
2020-02-21 09:47:58 GMT 55.036243 -4.974809 29,925 203 401 1792
2020-02-21 09:47:54 GMT 55.041878 -4.970648 29,825 203 402 1792
2020-02-21 09:47:51 GMT 55.049603 -4.965071 29,650 203 403 1728
2020-02-21 09:47:48 GMT 55.053188 -4.962408 29,625 203 403 1728
2020-02-21 09:47:45 GMT 55.057983 -4.958829 29,550 203 403 1664
2020-02-21 09:47:41 GMT 55.066772 -4.952411 29,375 203 404 1600
2020-02-21 09:47:38 GMT 55.069153 -4.950633 29,350 203 404 1600
2020-02-21 09:47:35 GMT 55.074696 -4.946594 29,175 203 405 1536
2020-02-21 09:47:32 GMT 55.081055 -4.941909 29,200 203 405 1536
2020-02-21 09:47:29 GMT 55.086056 -4.938271 29,150 203 406 1600
2020-02-21 09:47:26 GMT 55.093140 -4.933023 29,000 203 406 1664
2020-02-21 09:47:23 GMT 55.097134 -4.930115 28,950 203 406 1792
2020-02-21 09:47:20 GMT 55.100922 -4.927368 28,825 203 407 1792
2020-02-21 09:47:17 GMT 55.106117 -4.923540 28,800 203 407 1792
2020-02-21 09:47:14 GMT 55.111267 -4.919694 28,625 203 407 1664
2020-02-21 09:47:10 GMT 55.118362 -4.914443 28,575 203 407 1600
2020-02-21 09:47:07 GMT 55.123398 -4.910727 28,550 203 407 1408
2020-02-21 09:47:04 GMT 55.129120 -4.906526 28,350 204 406 1216
2020-02-21 09:47:01 GMT 55.133789 -4.903053 28,375 204 406 1216
2020-02-21 09:46:58 GMT 55.139309 -4.898987 28,325 203 406 1280
2020-02-21 09:46:55 GMT 55.143593 -4.895741 27,875 203 405 1216
2020-02-21 09:46:52 GMT 55.149971 -4.891080 28,225 203 405 1280
2020-02-21 09:46:49 GMT 55.155975 -4.886586 28,125 204 404 1216
2020-02-21 09:46:46 GMT 55.161163 -4.882777 28,050 204 404 1216
2020-02-21 09:46:40 GMT 55.170593 -4.875766 27,950 204 403 1280
2020-02-21 09:46:37 GMT 55.177437 -4.870689 27,875 204 402 1344
2020-02-21 09:46:33 GMT 55.181671 -4.867509 27,800 204 402 1408
2020-02-21 09:46:30 GMT 55.188354 -4.862500 27,750 204 402 1344
2020-02-21 09:46:26 GMT 55.194489 -4.857977 27,625 204 401 1344
2020-02-21 09:46:23 GMT 55.198563 -4.854907 27,525 204 401 1408
2020-02-21 09:46:19 GMT 55.205566 -4.849737 27,500 204 400 1472
2020-02-21 09:46:16 GMT 55.212864 -4.844305 27,425 204 400 1472
2020-02-21 09:46:11 GMT 55.224083 -4.835899 27,300 204 399 1472
2020-02-21 09:46:08 GMT 55.225758 -4.834650 27,250 204 399 1472
2020-02-21 09:46:05 GMT 55.235252 -4.827492 27,100 204 399 1408
2020-02-21 09:45:58 GMT 55.243011 -4.821706 26,950 204 397 1408
2020-02-21 09:45:55 GMT 55.246902 -4.818797 26,925 204 397 1472
2020-02-21 09:45:52 GMT 55.250793 -4.815889 26,825 204 397 1472
2020-02-21 09:45:49 GMT 55.256855 -4.811346 26,775 204 397 1472
2020-02-21 09:45:46 GMT 55.266815 -4.803934 26,600 204 396 1408
2020-02-21 09:45:43 GMT 55.266815 -4.803934 26,600 204 396 1344
2020-02-21 09:45:40 GMT 55.272034 -4.800056 26,550 204 396 1344
2020-02-21 09:45:37 GMT 55.277939 -4.795613 26,500 204 396 1408
2020-02-21 09:45:34 GMT 55.282471 -4.792220 26,225 205 394 1344
2020-02-21 09:45:31 GMT 55.288696 -4.787616 26,375 203 396 1408
2020-02-21 09:45:28 GMT 55.291077 -4.785919 26,300 204 395 1408
2020-02-21 09:45:25 GMT 55.301376 -4.777922 25,950 209 387 1408
2020-02-21 09:45:19 GMT 55.306896 -4.773227 26,025 209 387 1408
2020-02-21 09:45:16 GMT 55.311676 -4.768874 25,975 210 386 1408
2020-02-21 09:45:13 GMT 55.324356 -4.756191 25,875 212 383 1408
2020-02-21 09:45:09 GMT 55.324356 -4.756191 25,825 212 383 1408
2020-02-21 09:45:06 GMT 55.328201 -4.751829 25,750 214 380 1408
2020-02-21 09:45:03 GMT 55.330826 -4.748757 25,725 215 379 1408
2020-02-21 09:45:00 GMT 55.336040 -4.742515 25,600 218 376 1472
2020-02-21 09:44:57 GMT 55.340508 -4.736689 25,550 218 376 1472
2020-02-21 09:44:54 GMT 55.345024 -4.730530 25,475 221 373 1344
2020-02-21 09:44:50 GMT 55.349773 -4.723538 25,300 224 367 1536
2020-02-21 09:44:47 GMT 55.353882 -4.717174 25,300 223 370 1472
2020-02-21 09:44:43 GMT 55.358231 -4.709984 25,250 224 370 1536
2020-02-21 09:44:40 GMT 55.365322 -4.698320 25,100 224 369 1408
2020-02-21 09:44:37 GMT 55.369537 -4.691324 25,050 224 367 1344
2020-02-21 09:44:34 GMT 55.369537 -4.691324 25,000 224 367 1408
2020-02-21 09:44:31 GMT 55.373108 -4.685427 24,950 224 367 1472
2020-02-21 09:44:28 GMT 55.377686 -4.677914 24,825 224 367 1536
2020-02-21 09:44:25 GMT 55.381660 -4.671353 24,750 224 367 1536
2020-02-21 09:44:21 GMT 55.385479 -4.665028 24,700 224 366 1536
2020-02-21 09:44:18 GMT 55.390041 -4.657454 24,550 224 366 1536
2020-02-21 09:44:15 GMT 55.392601 -4.653209 24,500 224 365 1472
2020-02-21 09:44:12 GMT 55.396820 -4.646328 24,450 224 365 1472
2020-02-21 09:44:09 GMT 55.400620 -4.640027 24,375 224 365 1408
2020-02-21 09:44:06 GMT 55.403679 -4.634899 24,300 224 364 1472
2020-02-21 09:44:03 GMT 55.408676 -4.626617 24,200 224 363 1472
2020-02-21 09:43:58 GMT 55.412979 -4.619509 24,125 224 362 1472
2020-02-21 09:43:55 GMT 55.417465 -4.612077 24,100 224 362 1472
2020-02-21 09:43:52 GMT 55.421139 -4.606018 23,950 224 361 1472
2020-02-21 09:43:49 GMT 55.425247 -4.599152 23,875 224 361 1408
2020-02-21 09:43:46 GMT 55.432755 -4.586711 23,750 224 360 1280
2020-02-21 09:43:40 GMT 55.435318 -4.582511 23,700 224 358 1344
2020-02-21 09:43:37 GMT 55.440216 -4.574271 23,625 224 357 1408
2020-02-21 09:43:34 GMT 55.445755 -4.565152 23,475 224 356 1472
2020-02-21 09:43:28 GMT 55.449463 -4.558910 23,425 224 355 1472
2020-02-21 09:43:25 GMT 55.454933 -4.549799 23,275 224 355 1536
2020-02-21 09:43:22 GMT 55.457108 -4.546259 23,250 224 355 1536
2020-02-21 09:43:17 GMT 55.463871 -4.534950 23,100 224 354 1600
2020-02-21 09:43:14 GMT 55.466850 -4.529972 23,000 224 353 1472
2020-02-21 09:43:11 GMT 55.469784 -4.525080 22,975 224 352 1472
2020-02-21 09:43:08 GMT 55.473228 -4.519329 22,900 224 352 1472
2020-02-21 09:43:05 GMT 55.477707 -4.511885 22,825 224 351 1536
2020-02-21 09:43:02 GMT 55.483379 -4.502420 22,675 224 350 1600
2020-02-21 09:42:58 GMT 55.485146 -4.499502 22,650 224 350 1664
2020-02-21 09:42:55 GMT 55.489708 -4.491863 22,575 224 350 1728
2020-02-21 09:42:52 GMT 55.491943 -4.488081 22,500 224 350 1728
2020-02-21 09:42:49 GMT 55.495697 -4.481839 22,325 224 348 1600
2020-02-21 09:42:46 GMT 55.500000 -4.474598 22,250 224 348 1600
2020-02-21 09:42:43 GMT 55.503845 -4.468190 22,200 224 348 1664
2020-02-21 09:42:37 GMT 55.509796 -4.458202 22,025 224 347 1664
2020-02-21 09:42:34 GMT 55.514801 -4.449892 21,975 224 346 1664
2020-02-21 09:42:31 GMT 55.516895 -4.446373 21,875 224 345 1600
2020-02-21 09:42:28 GMT 55.520481 -4.440365 21,800 224 345 1600
2020-02-21 09:42:25 GMT 55.524948 -4.432812 21,675 224 343 1728
2020-02-21 09:42:21 GMT 55.527969 -4.427823 21,625 224 343 1792
2020-02-21 09:42:18 GMT 55.532120 -4.420881 21,525 224 343 1728
2020-02-21 09:42:14 GMT 55.536587 -4.413328 21,350 224 342 1600
2020-02-21 09:42:11 GMT 55.540237 -4.407182 21,325 224 341 1600
2020-02-21 09:42:08 GMT 55.543430 -4.401827 21,225 224 340 1664
2020-02-21 09:42:05 GMT 55.547333 -4.395280 21,150 224 340 1728
2020-02-21 09:42:02 GMT 55.551437 -4.388437 20,975 224 339 1728
2020-02-21 09:41:58 GMT 55.556213 -4.380465 20,975 224 339 1728
2020-02-21 09:41:55 GMT 55.559818 -4.374361 20,825 224 338 1664
2020-02-21 09:41:51 GMT 55.562759 -4.369396 20,800 224 338 1664
2020-02-21 09:41:46 GMT 55.568382 -4.359941 20,675 224 336 1728
2020-02-21 09:41:43 GMT 55.571873 -4.354105 19,825 224 333 1792
2020-02-21 09:41:37 GMT 55.578529 -4.342947 20,350 224 335 1792
2020-02-21 09:41:34 GMT 55.583313 -4.334939 20,250 224 334 1792
2020-02-21 09:41:31 GMT 55.586025 -4.330416 20,150 224 333 1792
2020-02-21 09:41:27 GMT 55.589935 -4.323893 20,025 224 333 1792
2020-02-21 09:41:24 GMT 55.594078 -4.316940 19,925 224 333 1792
2020-02-21 09:41:21 GMT 55.596638 -4.312649 19,900 224 332 1856
2020-02-21 09:41:18 GMT 55.599976 -4.307057 19,775 224 332 1856
2020-02-21 09:41:15 GMT 55.603409 -4.301231 19,700 224 331 1920
2020-02-21 09:41:12 GMT 55.606743 -4.295654 19,375 224 331 1920
2020-02-21 09:41:09 GMT 55.613071 -4.285097 19,375 224 331 1920
2020-02-21 09:41:03 GMT 55.618057 -4.276678 19,250 224 329 1984
2020-02-21 09:40:56 GMT 55.623779 -4.267073 19,125 224 329 2048
2020-02-21 09:40:53 GMT 55.628201 -4.259691 18,925 224 329 2048
2020-02-21 09:40:50 GMT 55.631058 -4.254872 18,850 224 329 2048
2020-02-21 09:40:45 GMT 55.635929 -4.246731 18,700 224 328 2048
2020-02-21 09:40:42 GMT 55.639748 -4.240208 18,550 224 328 1984
2020-02-21 09:40:39 GMT 55.642494 -4.235659 18,500 224 327 2048
2020-02-21 09:40:36 GMT 55.649597 -4.223661 18,300 224 327 2112
2020-02-21 09:40:30 GMT 55.653442 -4.217169 18,150 224 326 2048
2020-02-21 09:40:26 GMT 55.657013 -4.211093 18,050 224 326 2048
2020-02-21 09:40:22 GMT 55.661682 -4.203186 17,875 224 325 2176
2020-02-21 09:40:19 GMT 55.664429 -4.198608 17,850 224 325 2176
2020-02-21 09:40:15 GMT 55.668751 -4.191284 17,650 224 325 2112
2020-02-21 09:40:12 GMT 55.672897 -4.184293 17,550 224 323 2304
2020-02-21 09:40:09 GMT 55.675781 -4.179382 17,425 224 323 2112
2020-02-21 09:40:06 GMT 55.678940 -4.174056 17,375 224 323 2176
2020-02-21 09:40:02 GMT 55.682575 -4.167852 17,175 224 323 2304
2020-02-21 09:39:59 GMT 55.686493 -4.161238 17,050 224 323 2368
2020-02-21 09:39:56 GMT 55.689606 -4.155912 16,975 224 323 2304
2020-02-21 09:39:53 GMT 55.692398 -4.151201 16,900 224 323 2304
2020-02-21 09:39:49 GMT 55.698074 -4.141430 16,650 224 322 2240
2020-02-21 09:39:45 GMT 55.700871 -4.136696 16,525 224 321 2112
2020-02-21 09:39:42 GMT 55.707275 -4.125782 16,325 224 320 2240
2020-02-21 09:39:39 GMT 55.707275 -4.125782 16,325 224 320 2240
2020-02-21 09:39:36 GMT 55.711761 -4.118125 16,150 224 319 2432
2020-02-21 09:39:33 GMT 55.714645 -4.113298 16,150 224 319 2432
2020-02-21 09:39:30 GMT 55.723076 -4.099016 15,825 224 319 2368
2020-02-21 09:39:25 GMT 55.723076 -4.099016 15,825 224 318 2304
2020-02-21 09:39:22 GMT 55.727406 -4.091635 15,600 224 316 2432
2020-02-21 09:39:18 GMT 55.730244 -4.086742 15,475 224 316 2624
2020-02-21 09:39:15 GMT 55.733086 -4.081936 15,400 224 316 2816
2020-02-21 09:39:12 GMT 55.736298 -4.076594 15,225 224 316 2944
2020-02-21 09:39:09 GMT 55.744308 -4.062944 14,800 224 316 2560
2020-02-21 09:39:05 GMT 55.744308 -4.062944 14,875 224 316 2368
2020-02-21 09:39:02 GMT 55.746552 -4.059199 14,775 224 316 2368
2020-02-21 09:38:58 GMT 55.751404 -4.050959 14,675 224 316 2560
2020-02-21 09:38:54 GMT 55.755196 -4.044514 14,425 224 316 2880
2020-02-21 09:38:50 GMT 55.759758 -4.036789 14,250 224 316 2752
2020-02-21 09:38:47 GMT 55.762482 -4.032149 13,875 224 316 2496
2020-02-21 09:38:44 GMT 55.765995 -4.026232 13,950 224 316 2560
2020-02-21 09:38:41 GMT 55.769394 -4.020481 13,825 224 316 2496
2020-02-21 09:38:37 GMT 55.773491 -4.013529 13,650 224 316 2560
2020-02-21 09:38:33 GMT 55.778240 -4.005461 13,475 224 316 2304
2020-02-21 09:38:29 GMT 55.782074 -3.999023 13,350 224 315 2176
2020-02-21 09:38:26 GMT 55.785641 -3.992929 13,225 224 314 2112
2020-02-21 09:38:22 GMT 55.789413 -3.986492 13,100 224 313 2048
2020-02-21 09:38:17 GMT 55.793793 -3.979048 12,925 224 311 1984
2020-02-21 09:38:14 GMT 55.797745 -3.972330 12,825 224 310 2048
2020-02-21 09:38:11 GMT 55.801376 -3.966064 12,700 224 309 2176
2020-02-21 09:38:08 GMT 55.806728 -3.956966 12,600 224 306 1856
2020-02-21 09:38:05 GMT 55.806728 -3.956966 12,500 224 303 2176
2020-02-21 09:38:02 GMT 55.809570 -3.952074 12,325 224 306 1856
2020-02-21 09:37:57 GMT 55.815811 -3.941345 12,225 224 305 2048
2020-02-21 09:37:54 GMT 55.818329 -3.937017 12,150 224 304 2240
2020-02-21 09:37:51 GMT 55.821304 -3.932023 12,075 224 304 2304
2020-02-21 09:37:47 GMT 55.828888 -3.919115 11,900 248 260 1088
2020-02-21 09:37:44 GMT 55.828888 -3.919115 11,750 224 302 2048
2020-02-21 09:37:41 GMT 55.831032 -3.915510 11,675 224 302 1984
2020-02-21 09:37:38 GMT 55.834755 -3.909159 11,575 224 299 1792
2020-02-21 09:37:35 GMT 55.837456 -3.904524 11,475 224 299 1792
2020-02-21 09:37:32 GMT 55.843880 -3.893709 11,300 224 295 832
2020-02-21 09:37:26 GMT 55.846664 -3.888994 11,275 223 292 768
2020-02-21 09:37:23 GMT 55.849228 -3.884749 11,250 223 291 832
2020-02-21 09:37:19 GMT 55.853470 -3.877745 11,175 223 286 1152
2020-02-21 09:37:16 GMT 55.856415 -3.873014 11,125 224 285 1152
2020-02-21 09:37:13 GMT 55.861542 -3.864025 11,025 241 265 1216
2020-02-21 09:37:07 GMT 55.864426 -3.857949 10,950 237 269 1088
2020-02-21 09:37:04 GMT 55.866642 -3.852510 10,900 241 265 1216
2020-02-21 09:37:01 GMT 55.868225 -3.847876 10,825 244 262 1152
2020-02-21 09:36:58 GMT 55.870506 -3.839979 10,800 249 259 1024
2020-02-21 09:36:54 GMT 55.871670 -3.834658 10,750 257 252 768
2020-02-21 09:36:51 GMT 55.872879 -3.826761 10,725 259 250 960
2020-02-21 09:36:46 GMT 55.873997 -3.816719 10,550 260 241 1024
2020-02-21 09:36:43 GMT 55.874603 -3.810539 10,550 260 241 1024
2020-02-21 09:36:40 GMT 55.875069 -3.805819 10,550 260 241 1024
2020-02-21 09:36:36 GMT 55.875908 -3.797665 10,450 260 235 576
2020-02-21 09:36:33 GMT 55.876511 -3.791742 10,450 260 231 768
2020-02-21 09:36:30 GMT 55.876930 -3.787193 10,400 260 229 1216
2020-02-21 09:36:27 GMT 55.877655 -3.780379 10,350 260 227 1856
2020-02-21 09:36:23 GMT 55.878433 -3.772805 10,125 260 227 2496
2020-02-21 09:36:20 GMT 55.878792 -3.769169 10,025 260 226 2496
2020-02-21 09:36:14 GMT 55.879990 -3.757241 9,725 261 226 2560
2020-02-21 09:36:11 GMT 55.880676 -3.750083 9,625 260 226 2624
2020-02-21 09:36:06 GMT 55.881538 -3.741446 9,400 260 226 2816
2020-02-21 09:36:03 GMT 55.881912 -3.737932 9,275 260 227 2816
2020-02-21 09:36:00 GMT 55.882599 -3.731024 9,200 260 227 2752
2020-02-21 09:35:57 GMT 55.883011 -3.726945 8,725 260 201 2240
2020-02-21 09:35:54 GMT 55.883820 -3.718872 8,825 260 227 2560
2020-02-21 09:35:51 GMT 55.884285 -3.714237 8,750 260 227 2560
2020-02-21 09:35:48 GMT 55.885437 -3.703058 8,625 260 227 2560
2020-02-21 09:35:45 GMT 55.885437 -3.703058 8,450 260 226 2432
2020-02-21 09:35:42 GMT 55.886429 -3.693123 8,300 260 226 2176
2020-02-21 09:35:36 GMT 55.886986 -3.687458 8,175 260 225 2048
2020-02-21 09:35:33 GMT 55.887634 -3.681086 8,100 260 223 1984
2020-02-21 09:35:30 GMT 55.888184 -3.675676 7,950 260 221 2176
2020-02-21 09:35:27 GMT 55.888596 -3.671181 7,875 260 220 2176
2020-02-21 09:35:21 GMT 55.890339 -3.653727 7,600 260 218 2176
2020-02-21 09:35:18 GMT 55.890339 -3.653727 7,500 260 218 2176
2020-02-21 09:35:13 GMT 55.891251 -3.644964 7,325 260 216 2112
2020-02-21 09:35:09 GMT 55.891754 -3.639887 7,225 261 215 2112
2020-02-21 09:35:06 GMT 55.892246 -3.634758 7,125 261 214 2240
2020-02-21 09:35:03 GMT 55.892853 -3.628321 6,975 261 213 2304
2020-02-21 09:35:00 GMT 55.893456 -3.622313 6,850 261 213 2304
2020-02-21 09:34:57 GMT 55.893860 -3.618164 6,750 261 212 2304
2020-02-21 09:34:53 GMT 55.894547 -3.611090 6,600 261 212 2304
2020-02-21 09:34:49 GMT 55.895226 -3.604288 6,450 261 211 2304
2020-02-21 09:34:43 GMT 55.896156 -3.594675 6,250 261 210 2048
2020-02-21 09:34:40 GMT 55.897202 -3.584040 6,100 261 207 1664
2020-02-21 09:34:37 GMT 55.897202 -3.584040 6,050 261 206 1536
2020-02-21 09:34:33 GMT 55.897831 -3.577337 5,975 261 205 1216
2020-02-21 09:34:30 GMT 55.898300 -3.572304 5,925 261 203 1152
2020-02-21 09:34:27 GMT 55.898811 -3.567381 5,850 261 202 1408
2020-02-21 09:34:23 GMT 55.899464 -3.560686 5,725 260 201 1920
2020-02-21 09:34:20 GMT 55.900085 -3.554327 5,650 260 201 2176
2020-02-21 09:34:17 GMT 55.900406 -3.551081 5,500 260 200 2624
2020-02-21 09:34:12 GMT 55.901733 -3.538014 5,200 260 198 2624
2020-02-21 09:34:09 GMT 55.902100 -3.534435 4,925 260 198 2624
2020-02-21 09:34:03 GMT 55.903278 -3.523006 4,875 260 198 2688
2020-02-21 09:34:00 GMT 55.903278 -3.523006 4,725 259 198 2944
2020-02-21 09:33:56 GMT 55.905396 -3.507718 4,350 254 197 3392
2020-02-21 09:33:50 GMT 55.905396 -3.507718 4,150 250 198 2688
2020-02-21 09:33:47 GMT 55.906403 -3.502641 4,025 242 192 1472
2020-02-21 09:33:43 GMT 55.907982 -3.496056 3,900 244 194 1792
2020-02-21 09:33:39 GMT 55.909195 -3.491821 3,825 241 191 1344
2020-02-21 09:33:36 GMT 55.910496 -3.487730 3,775 239 187 1216
2020-02-21 09:33:32 GMT 55.913754 -3.478031 3,650 240 178 704
2020-02-21 09:33:29 GMT 55.913754 -3.478031 3,625 240 177 768
2020-02-21 09:33:26 GMT 55.914825 -3.474759 3,600 240 173 832
2020-02-21 09:33:21 GMT 55.917068 -3.467934 3,475 240 167 1984
2020-02-21 09:33:18 GMT 55.918083 -3.464813 3,400 240 166 2304
2020-02-21 09:33:12 GMT 55.920223 -3.458376 3,200 240 163 1536
2020-02-21 09:33:08 GMT 55.922039 -3.453054 3,075 240 159 1216
2020-02-21 09:33:04 GMT 55.923477 -3.448792 2,975 239 156 1536
2020-02-21 09:33:01 GMT 55.924667 -3.445379 2,925 238 155 1536
2020-02-21 09:32:58 GMT 55.925858 -3.441982 2,850 238 150 1216
2020-02-21 09:32:52 GMT 55.927917 -3.436141 2,725 238 146 1216
2020-02-21 09:32:49 GMT 55.930206 -3.429815 2,625 238 141 1152
2020-02-21 09:32:42 GMT 55.931583 -3.425932 2,575 238 133 384
2020-02-21 09:32:38 GMT 55.933865 -3.419580 2,500 237 123 1152
2020-02-21 09:32:32 GMT 55.934738 -3.417247 2,450 237 119 896
2020-02-21 09:32:29 GMT 55.937031 -3.410912 2,400 238 112 832
2020-02-21 09:32:25 GMT 55.937031 -3.410912 2,350 238 110 1344
2020-02-21 09:32:22 GMT 55.937679 -3.409023 2,275 238 109 1984
2020-02-21 09:32:18 GMT 55.938564 -3.406534 2,075 238 110 2880
2020-02-21 09:32:15 GMT 55.939316 -3.404513 2,025 239 112 3584
2020-02-21 09:32:12 GMT 55.940414 -3.401351 1,800 239 114 3968

Making use of Plane Finder data

You are free to use the raw flight data, aircraft information and images provided in this report for your own purposes provided the data is correctly attributed to Plane Finder. We ask that you please credit Plane Finder and link to planefinder.net in close proximity to the content.

Optionally one of the following logos (no smaller then 150x24px) can be used and must link to planefinder.net

Embedding the Plane Finder map

You are welcome to embed the Plane Finder playback map on your website to offer visitors a more interactive experience. We suggest using the following HTML code:

<iframe src="//planefinder.net/data/report/LS727-G-JZHY-7700-squawk-2020-02-21/map" width="800" height="600" seamless="seamless"></iframe>

Where our data comes from

Plane Finder has a global network of data feeds and antenna radars that receive data broadcast directly from aircraft. The primary technologies used are ADS-B and MLAT. We also show feeds from the FAA and a FLARM glider feed.

Click here to find out more about the Plane Finder network.

How we collect our data